<?xml version="1.0" encoding="UTF-8" standalone="no" ?><gpx xmlns="http://www.topografix.com/GPX/1/1" xmlns:gpxx="http://www.garmin.com/xmlschemas/GpxExtensions/v3" xmlns:wptx1="http://www.garmin.com/xmlschemas/WaypointExtension/v1" xmlns:gpxtpx="http://www.garmin.com/xmlschemas/TrackPointExtension/v1" creator="GuideVTT.com" version="1.1" xmlns:xsi="http://www.w3.org/2001/XMLSchema-instance" xsi:schemaLocation="http://www.topografix.com/GPX/1/1 http://www.topografix.com/GPX/1/1/gpx.xsd http://www.garmin.com/xmlschemas/GpxExtensions/v3 http://www8.garmin.com/xmlschemas/GpxExtensionsv3.xsd http://www.garmin.com/xmlschemas/WaypointExtension/v1 http://www8.garmin.com/xmlschemas/WaypointExtensionv1.xsd http://www.garmin.com/xmlschemas/TrackPointExtension/v1 http://www.garmin.com/xmlschemas/TrackPointExtensionv1.xsd">
<metadata><link href="http://www.garmin.com"><text>Garmin International</text></link><time>2013-06-22T15:13:50Z</time></metadata>
<trk><name>st_peray-albou-foss.gpx</name><extensions><gpxx:TrackExtension><gpxx:DisplayColor>Cyan</gpxx:DisplayColor></gpxx:TrackExtension></extensions><trkseg>
<trkpt lat="44.94702900" lon="4.85030700"><ele></ele><time>2014-6-5T15:3:33Z</time></trkpt>
<trkpt lat="44.94684500" lon="4.84977300"><ele></ele><time>2014-6-5T15:3:36Z</time></trkpt>
<trkpt lat="44.94661400" lon="4.84906900"><ele></ele><time>2014-6-5T15:3:39Z</time></trkpt>
<trkpt lat="44.94642700" lon="4.84847100"><ele></ele><time>2014-6-5T15:3:42Z</time></trkpt>
<trkpt lat="44.94619500" lon="4.84773500"><ele></ele><time>2014-6-5T15:3:45Z</time></trkpt>
<trkpt lat="44.94615700" lon="4.84758900"><ele></ele><time>2014-6-5T15:3:48Z</time></trkpt>
<trkpt lat="44.94606800" lon="4.84733300"><ele></ele><time>2014-6-5T15:3:51Z</time></trkpt>
<trkpt lat="44.94593100" lon="4.84706100"><ele></ele><time>2014-6-5T15:3:54Z</time></trkpt>
<trkpt lat="44.94577700" lon="4.84708800"><ele></ele><time>2014-6-5T15:3:57Z</time></trkpt>
<trkpt lat="44.94569000" lon="4.84718800"><ele></ele><time>2014-6-5T15:4:0Z</time></trkpt>
<trkpt lat="44.94545500" lon="4.84728200"><ele></ele><time>2014-6-5T15:4:3Z</time></trkpt>
<trkpt lat="44.94534500" lon="4.84708300"><ele></ele><time>2014-6-5T15:4:6Z</time></trkpt>
<trkpt lat="44.94530900" lon="4.84701000"><ele></ele><time>2014-6-5T15:4:9Z</time></trkpt>
<trkpt lat="44.94506900" lon="4.84659000"><ele></ele><time>2014-6-5T15:4:12Z</time></trkpt>
<trkpt lat="44.94496200" lon="4.84639900"><ele></ele><time>2014-6-5T15:4:15Z</time></trkpt>
<trkpt lat="44.94490200" lon="4.84615400"><ele></ele><time>2014-6-5T15:4:18Z</time></trkpt>
<trkpt lat="44.94483600" lon="4.84589100"><ele></ele><time>2014-6-5T15:4:21Z</time></trkpt>
<trkpt lat="44.94469300" lon="4.84562800"><ele></ele><time>2014-6-5T15:4:24Z</time></trkpt>
<trkpt lat="44.94459600" lon="4.84530000"><ele></ele><time>2014-6-5T15:4:27Z</time></trkpt>
<trkpt lat="44.94448900" lon="4.84510000"><ele></ele><time>2014-6-5T15:4:30Z</time></trkpt>
<trkpt lat="44.94438300" lon="4.84496400"><ele></ele><time>2014-6-5T15:4:33Z</time></trkpt>
<trkpt lat="44.94419800" lon="4.84475500"><ele></ele><time>2014-6-5T15:4:36Z</time></trkpt>
<trkpt lat="44.94403400" lon="4.84459100"><ele></ele><time>2014-6-5T15:4:39Z</time></trkpt>
<trkpt lat="44.94385500" lon="4.84434600"><ele></ele><time>2014-6-5T15:4:42Z</time></trkpt>
<trkpt lat="44.94370100" lon="4.84419800"><ele></ele><time>2014-6-5T15:4:45Z</time></trkpt>
<trkpt lat="44.94356300" lon="4.84397900"><ele></ele><time>2014-6-5T15:4:48Z</time></trkpt>
<trkpt lat="44.94335100" lon="4.84368700"><ele></ele><time>2014-6-5T15:4:51Z</time></trkpt>
<trkpt lat="44.94316300" lon="4.84342900"><ele></ele><time>2014-6-5T15:4:54Z</time></trkpt>
<trkpt lat="44.94305200" lon="4.84330800"><ele></ele><time>2014-6-5T15:4:57Z</time></trkpt>
<trkpt lat="44.94295000" lon="4.84318500"><ele></ele><time>2014-6-5T15:5:0Z</time></trkpt>
<trkpt lat="44.94273200" lon="4.84293400"><ele></ele><time>2014-6-5T15:5:3Z</time></trkpt>
<trkpt lat="44.94248600" lon="4.84265300"><ele></ele><time>2014-6-5T15:5:6Z</time></trkpt>
<trkpt lat="44.94238800" lon="4.84247000"><ele></ele><time>2014-6-5T15:5:9Z</time></trkpt>
<trkpt lat="44.94223400" lon="4.84225900"><ele></ele><time>2014-6-5T15:5:12Z</time></trkpt>
<trkpt lat="44.94197400" lon="4.84200800"><ele></ele><time>2014-6-5T15:5:15Z</time></trkpt>
<trkpt lat="44.94173900" lon="4.84192600"><ele></ele><time>2014-6-5T15:5:18Z</time></trkpt>
<trkpt lat="44.94166000" lon="4.84179000"><ele></ele><time>2014-6-5T15:5:21Z</time></trkpt>
<trkpt lat="44.94171700" lon="4.84164000"><ele></ele><time>2014-6-5T15:5:24Z</time></trkpt>
<trkpt lat="44.94180000" lon="4.84149300"><ele></ele><time>2014-6-5T15:5:27Z</time></trkpt>
<trkpt lat="44.94179800" lon="4.84146800"><ele></ele><time>2014-6-5T15:5:30Z</time></trkpt>
<trkpt lat="44.94170600" lon="4.84132600"><ele></ele><time>2014-6-5T15:5:33Z</time></trkpt>
<trkpt lat="44.94167300" lon="4.84127900"><ele></ele><time>2014-6-5T15:5:36Z</time></trkpt>
<trkpt lat="44.94150200" lon="4.84111400"><ele></ele><time>2014-6-5T15:5:39Z</time></trkpt>
<trkpt lat="44.94123300" lon="4.84089800"><ele></ele><time>2014-6-5T15:5:42Z</time></trkpt>
<trkpt lat="44.94103200" lon="4.84080800"><ele></ele><time>2014-6-5T15:5:45Z</time></trkpt>
<trkpt lat="44.94092700" lon="4.84074800"><ele></ele><time>2014-6-5T15:5:48Z</time></trkpt>
<trkpt lat="44.94082700" lon="4.84070800"><ele></ele><time>2014-6-5T15:5:51Z</time></trkpt>
<trkpt lat="44.94059000" lon="4.84060500"><ele></ele><time>2014-6-5T15:5:54Z</time></trkpt>
<trkpt lat="44.94044300" lon="4.84028000"><ele></ele><time>2014-6-5T15:5:57Z</time></trkpt>
<trkpt lat="44.94032300" lon="4.84003100"><ele></ele><time>2014-6-5T15:6:0Z</time></trkpt>
<trkpt lat="44.94022100" lon="4.83999000"><ele></ele><time>2014-6-5T15:6:3Z</time></trkpt>
<trkpt lat="44.94001700" lon="4.83990300"><ele></ele><time>2014-6-5T15:6:6Z</time></trkpt>
<trkpt lat="44.93986000" lon="4.83985600"><ele></ele><time>2014-6-5T15:6:9Z</time></trkpt>
<trkpt lat="44.93957400" lon="4.83969200"><ele></ele><time>2014-6-5T15:6:12Z</time></trkpt>
<trkpt lat="44.93945500" lon="4.83962500"><ele></ele><time>2014-6-5T15:6:15Z</time></trkpt>
<trkpt lat="44.93920800" lon="4.83938600"><ele></ele><time>2014-6-5T15:6:18Z</time></trkpt>
<trkpt lat="44.93903900" lon="4.83916300"><ele></ele><time>2014-6-5T15:6:21Z</time></trkpt>
<trkpt lat="44.93898400" lon="4.83913200"><ele></ele><time>2014-6-5T15:6:24Z</time></trkpt>
<trkpt lat="44.93867700" lon="4.83887200"><ele></ele><time>2014-6-5T15:6:27Z</time></trkpt>
<trkpt lat="44.93838900" lon="4.83881800"><ele></ele><time>2014-6-5T15:6:30Z</time></trkpt>
<trkpt lat="44.93818100" lon="4.83885600"><ele></ele><time>2014-6-5T15:6:33Z</time></trkpt>
<trkpt lat="44.93800500" lon="4.83874900"><ele></ele><time>2014-6-5T15:6:36Z</time></trkpt>
<trkpt lat="44.93776700" lon="4.83867300"><ele></ele><time>2014-6-5T15:6:39Z</time></trkpt>
<trkpt lat="44.93754500" lon="4.83859200"><ele></ele><time>2014-6-5T15:6:42Z</time></trkpt>
<trkpt lat="44.93737100" lon="4.83841800"><ele></ele><time>2014-6-5T15:6:45Z</time></trkpt>
<trkpt lat="44.93711100" lon="4.83819900"><ele></ele><time>2014-6-5T15:6:48Z</time></trkpt>
<trkpt lat="44.93706700" lon="4.83816900"><ele></ele><time>2014-6-5T15:6:51Z</time></trkpt>
<trkpt lat="44.93693600" lon="4.83806700"><ele></ele><time>2014-6-5T15:6:54Z</time></trkpt>
<trkpt lat="44.93670400" lon="4.83790000"><ele></ele><time>2014-6-5T15:6:57Z</time></trkpt>
<trkpt lat="44.93663900" lon="4.83786900"><ele></ele><time>2014-6-5T15:7:0Z</time></trkpt>
<trkpt lat="44.93646200" lon="4.83777500"><ele></ele><time>2014-6-5T15:7:3Z</time></trkpt>
<trkpt lat="44.93637200" lon="4.83774000"><ele></ele><time>2014-6-5T15:7:6Z</time></trkpt>
<trkpt lat="44.93625200" lon="4.83754300"><ele></ele><time>2014-6-5T15:7:9Z</time></trkpt>
<trkpt lat="44.93604600" lon="4.83745100"><ele></ele><time>2014-6-5T15:7:12Z</time></trkpt>
<trkpt lat="44.93579500" lon="4.83742700"><ele></ele><time>2014-6-5T15:7:15Z</time></trkpt>
<trkpt lat="44.93560400" lon="4.83742400"><ele></ele><time>2014-6-5T15:7:18Z</time></trkpt>
<trkpt lat="44.93546700" lon="4.83743800"><ele></ele><time>2014-6-5T15:7:21Z</time></trkpt>
<trkpt lat="44.93522600" lon="4.83747100"><ele></ele><time>2014-6-5T15:7:24Z</time></trkpt>
<trkpt lat="44.93486200" lon="4.83745100"><ele></ele><time>2014-6-5T15:7:27Z</time></trkpt>
<trkpt lat="44.93481400" lon="4.83743700"><ele></ele><time>2014-6-5T15:7:30Z</time></trkpt>
<trkpt lat="44.93447000" lon="4.83730400"><ele></ele><time>2014-6-5T15:7:33Z</time></trkpt>
<trkpt lat="44.93437600" lon="4.83724100"><ele></ele><time>2014-6-5T15:7:36Z</time></trkpt>
<trkpt lat="44.93399000" lon="4.83682400"><ele></ele><time>2014-6-5T15:7:39Z</time></trkpt>
<trkpt lat="44.93370800" lon="4.83640200"><ele></ele><time>2014-6-5T15:7:42Z</time></trkpt>
<trkpt lat="44.93348900" lon="4.83604100"><ele></ele><time>2014-6-5T15:7:45Z</time></trkpt>
<trkpt lat="44.93333800" lon="4.83574100"><ele></ele><time>2014-6-5T15:7:48Z</time></trkpt>
<trkpt lat="44.93321600" lon="4.83543100"><ele></ele><time>2014-6-5T15:7:51Z</time></trkpt>
<trkpt lat="44.93311900" lon="4.83528900"><ele></ele><time>2014-6-5T15:7:54Z</time></trkpt>
<trkpt lat="44.93293100" lon="4.83484900"><ele></ele><time>2014-6-5T15:7:57Z</time></trkpt>
<trkpt lat="44.93279200" lon="4.83459000"><ele></ele><time>2014-6-5T15:8:0Z</time></trkpt>
<trkpt lat="44.93265800" lon="4.83453900"><ele></ele><time>2014-6-5T15:8:3Z</time></trkpt>
<trkpt lat="44.93242900" lon="4.83425900"><ele></ele><time>2014-6-5T15:8:6Z</time></trkpt>
<trkpt lat="44.93213700" lon="4.83403000"><ele></ele><time>2014-6-5T15:8:9Z</time></trkpt>
<trkpt lat="44.93168400" lon="4.83372700"><ele></ele><time>2014-6-5T15:8:12Z</time></trkpt>
<trkpt lat="44.93158300" lon="4.83365600"><ele></ele><time>2014-6-5T15:8:15Z</time></trkpt>
<trkpt lat="44.93120800" lon="4.83351300"><ele></ele><time>2014-6-5T15:8:18Z</time></trkpt>
<trkpt lat="44.93115200" lon="4.83349800"><ele></ele><time>2014-6-5T15:8:21Z</time></trkpt>
<trkpt lat="44.93087400" lon="4.83356600"><ele></ele><time>2014-6-5T15:8:24Z</time></trkpt>
<trkpt lat="44.93071600" lon="4.83362600"><ele></ele><time>2014-6-5T15:8:27Z</time></trkpt>
<trkpt lat="44.93024800" lon="4.83364000"><ele></ele><time>2014-6-5T15:8:30Z</time></trkpt>
<trkpt lat="44.92985600" lon="4.83356500"><ele></ele><time>2014-6-5T15:8:33Z</time></trkpt>
<trkpt lat="44.92980200" lon="4.83356000"><ele></ele><time>2014-6-5T15:8:36Z</time></trkpt>
<trkpt lat="44.92959200" lon="4.83349500"><ele></ele><time>2014-6-5T15:8:39Z</time></trkpt>
<trkpt lat="44.92944100" lon="4.83341100"><ele></ele><time>2014-6-5T15:8:42Z</time></trkpt>
<trkpt lat="44.92931400" lon="4.83317300"><ele></ele><time>2014-6-5T15:8:45Z</time></trkpt>
<trkpt lat="44.92928300" lon="4.83302700"><ele></ele><time>2014-6-5T15:8:48Z</time></trkpt>
<trkpt lat="44.92926200" lon="4.83286000"><ele></ele><time>2014-6-5T15:8:51Z</time></trkpt>
<trkpt lat="44.92925500" lon="4.83281700"><ele></ele><time>2014-6-5T15:8:54Z</time></trkpt>
<trkpt lat="44.92924800" lon="4.83277500"><ele></ele><time>2014-6-5T15:8:57Z</time></trkpt>
<trkpt lat="44.92930500" lon="4.83261600"><ele></ele><time>2014-6-5T15:9:0Z</time></trkpt>
<trkpt lat="44.92936800" lon="4.83239200"><ele></ele><time>2014-6-5T15:9:3Z</time></trkpt>
<trkpt lat="44.92946200" lon="4.83205500"><ele></ele><time>2014-6-5T15:9:6Z</time></trkpt>
<trkpt lat="44.92955000" lon="4.83179500"><ele></ele><time>2014-6-5T15:9:9Z</time></trkpt>
<trkpt lat="44.92947600" lon="4.83171400"><ele></ele><time>2014-6-5T15:9:12Z</time></trkpt>
<trkpt lat="44.92930000" lon="4.83161600"><ele></ele><time>2014-6-5T15:9:15Z</time></trkpt>
<trkpt lat="44.92906200" lon="4.83145100"><ele></ele><time>2014-6-5T15:9:18Z</time></trkpt>
<trkpt lat="44.92886500" lon="4.83127600"><ele></ele><time>2014-6-5T15:9:21Z</time></trkpt>
<trkpt lat="44.92862900" lon="4.83087700"><ele></ele><time>2014-6-5T15:9:24Z</time></trkpt>
<trkpt lat="44.92852500" lon="4.83063500"><ele></ele><time>2014-6-5T15:9:27Z</time></trkpt>
<trkpt lat="44.92863100" lon="4.83035700"><ele></ele><time>2014-6-5T15:9:30Z</time></trkpt>
<trkpt lat="44.92894000" lon="4.82975400"><ele></ele><time>2014-6-5T15:9:33Z</time></trkpt>
<trkpt lat="44.92901000" lon="4.82964300"><ele></ele><time>2014-6-5T15:9:36Z</time></trkpt>
<trkpt lat="44.92922200" lon="4.82945100"><ele></ele><time>2014-6-5T15:9:39Z</time></trkpt>
<trkpt lat="44.92920900" lon="4.82927800"><ele></ele><time>2014-6-5T15:9:42Z</time></trkpt>
<trkpt lat="44.92915300" lon="4.82917200"><ele></ele><time>2014-6-5T15:9:45Z</time></trkpt>
<trkpt lat="44.92910100" lon="4.82907400"><ele></ele><time>2014-6-5T15:9:48Z</time></trkpt>
<trkpt lat="44.92902500" lon="4.82891400"><ele></ele><time>2014-6-5T15:9:51Z</time></trkpt>
<trkpt lat="44.92876700" lon="4.82864500"><ele></ele><time>2014-6-5T15:9:54Z</time></trkpt>
<trkpt lat="44.92856000" lon="4.82845500"><ele></ele><time>2014-6-5T15:9:57Z</time></trkpt>
<trkpt lat="44.92840000" lon="4.82825300"><ele></ele><time>2014-6-5T15:10:0Z</time></trkpt>
<trkpt lat="44.92827400" lon="4.82800500"><ele></ele><time>2014-6-5T15:10:3Z</time></trkpt>
<trkpt lat="44.92812200" lon="4.82772700"><ele></ele><time>2014-6-5T15:10:6Z</time></trkpt>
<trkpt lat="44.92804400" lon="4.82762600"><ele></ele><time>2014-6-5T15:10:9Z</time></trkpt>
<trkpt lat="44.92770500" lon="4.82727200"><ele></ele><time>2014-6-5T15:10:12Z</time></trkpt>
<trkpt lat="44.92743000" lon="4.82699500"><ele></ele><time>2014-6-5T15:10:15Z</time></trkpt>
<trkpt lat="44.92713600" lon="4.82666000"><ele></ele><time>2014-6-5T15:10:18Z</time></trkpt>
<trkpt lat="44.92681900" lon="4.82637700"><ele></ele><time>2014-6-5T15:10:21Z</time></trkpt>
<trkpt lat="44.92662600" lon="4.82614400"><ele></ele><time>2014-6-5T15:10:24Z</time></trkpt>
<trkpt lat="44.92659700" lon="4.82590400"><ele></ele><time>2014-6-5T15:10:27Z</time></trkpt>
<trkpt lat="44.92660900" lon="4.82587100"><ele></ele><time>2014-6-5T15:10:30Z</time></trkpt>
<trkpt lat="44.92677300" lon="4.82559500"><ele></ele><time>2014-6-5T15:10:33Z</time></trkpt>
<trkpt lat="44.92691700" lon="4.82536500"><ele></ele><time>2014-6-5T15:10:36Z</time></trkpt>
<trkpt lat="44.92709800" lon="4.82513400"><ele></ele><time>2014-6-5T15:10:39Z</time></trkpt>
<trkpt lat="44.92725800" lon="4.82498200"><ele></ele><time>2014-6-5T15:10:42Z</time></trkpt>
<trkpt lat="44.92745000" lon="4.82479400"><ele></ele><time>2014-6-5T15:10:45Z</time></trkpt>
<trkpt lat="44.92762900" lon="4.82458400"><ele></ele><time>2014-6-5T15:10:48Z</time></trkpt>
<trkpt lat="44.92779100" lon="4.82440000"><ele></ele><time>2014-6-5T15:10:51Z</time></trkpt>
<trkpt lat="44.92794600" lon="4.82422300"><ele></ele><time>2014-6-5T15:10:54Z</time></trkpt>
<trkpt lat="44.92812900" lon="4.82404400"><ele></ele><time>2014-6-5T15:10:57Z</time></trkpt>
<trkpt lat="44.92831500" lon="4.82384300"><ele></ele><time>2014-6-5T15:11:0Z</time></trkpt>
<trkpt lat="44.92849300" lon="4.82366800"><ele></ele><time>2014-6-5T15:11:3Z</time></trkpt>
<trkpt lat="44.92863700" lon="4.82353000"><ele></ele><time>2014-6-5T15:11:6Z</time></trkpt>
<trkpt lat="44.92864300" lon="4.82352600"><ele></ele><time>2014-6-5T15:11:9Z</time></trkpt>
<trkpt lat="44.92867600" lon="4.82351300"><ele></ele><time>2014-6-5T15:11:12Z</time></trkpt>
<trkpt lat="44.92867400" lon="4.82350500"><ele></ele><time>2014-6-5T15:11:15Z</time></trkpt>
<trkpt lat="44.92867100" lon="4.82350100"><ele></ele><time>2014-6-5T15:11:18Z</time></trkpt>
<trkpt lat="44.92870600" lon="4.82347100"><ele></ele><time>2014-6-5T15:11:21Z</time></trkpt>
<trkpt lat="44.92880600" lon="4.82339100"><ele></ele><time>2014-6-5T15:11:24Z</time></trkpt>
<trkpt lat="44.92892800" lon="4.82329000"><ele></ele><time>2014-6-5T15:11:27Z</time></trkpt>
<trkpt lat="44.92907400" lon="4.82314300"><ele></ele><time>2014-6-5T15:11:30Z</time></trkpt>
<trkpt lat="44.92922400" lon="4.82302900"><ele></ele><time>2014-6-5T15:11:33Z</time></trkpt>
<trkpt lat="44.92935300" lon="4.82292400"><ele></ele><time>2014-6-5T15:11:36Z</time></trkpt>
<trkpt lat="44.92932300" lon="4.82274300"><ele></ele><time>2014-6-5T15:11:39Z</time></trkpt>
<trkpt lat="44.92921300" lon="4.82244100"><ele></ele><time>2014-6-5T15:11:42Z</time></trkpt>
<trkpt lat="44.92914000" lon="4.82215500"><ele></ele><time>2014-6-5T15:11:45Z</time></trkpt>
<trkpt lat="44.92923700" lon="4.82190100"><ele></ele><time>2014-6-5T15:11:48Z</time></trkpt>
<trkpt lat="44.92931800" lon="4.82167100"><ele></ele><time>2014-6-5T15:11:51Z</time></trkpt>
<trkpt lat="44.92934100" lon="4.82157100"><ele></ele><time>2014-6-5T15:11:54Z</time></trkpt>
<trkpt lat="44.92923900" lon="4.82144500"><ele></ele><time>2014-6-5T15:11:57Z</time></trkpt>
<trkpt lat="44.92895900" lon="4.82131600"><ele></ele><time>2014-6-5T15:12:0Z</time></trkpt>
<trkpt lat="44.92878700" lon="4.82128000"><ele></ele><time>2014-6-5T15:12:3Z</time></trkpt>
<trkpt lat="44.92857000" lon="4.82117000"><ele></ele><time>2014-6-5T15:12:6Z</time></trkpt>
<trkpt lat="44.92838800" lon="4.82103000"><ele></ele><time>2014-6-5T15:12:9Z</time></trkpt>
<trkpt lat="44.92828600" lon="4.82095000"><ele></ele><time>2014-6-5T15:12:12Z</time></trkpt>
<trkpt lat="44.92810900" lon="4.82084500"><ele></ele><time>2014-6-5T15:12:15Z</time></trkpt>
<trkpt lat="44.92791700" lon="4.82079800"><ele></ele><time>2014-6-5T15:12:18Z</time></trkpt>
<trkpt lat="44.92776900" lon="4.82065400"><ele></ele><time>2014-6-5T15:12:21Z</time></trkpt>
<trkpt lat="44.92768500" lon="4.82053200"><ele></ele><time>2014-6-5T15:12:24Z</time></trkpt>
<trkpt lat="44.92766900" lon="4.82022500"><ele></ele><time>2014-6-5T15:12:27Z</time></trkpt>
<trkpt lat="44.92774700" lon="4.81998700"><ele></ele><time>2014-6-5T15:12:30Z</time></trkpt>
<trkpt lat="44.92772700" lon="4.81989800"><ele></ele><time>2014-6-5T15:12:33Z</time></trkpt>
<trkpt lat="44.92769900" lon="4.81979600"><ele></ele><time>2014-6-5T15:12:36Z</time></trkpt>
<trkpt lat="44.92779000" lon="4.81965800"><ele></ele><time>2014-6-5T15:12:39Z</time></trkpt>
<trkpt lat="44.92788700" lon="4.81958500"><ele></ele><time>2014-6-5T15:12:42Z</time></trkpt>
<trkpt lat="44.92787600" lon="4.81949500"><ele></ele><time>2014-6-5T15:12:45Z</time></trkpt>
<trkpt lat="44.92784300" lon="4.81930400"><ele></ele><time>2014-6-5T15:12:48Z</time></trkpt>
<trkpt lat="44.92789800" lon="4.81913100"><ele></ele><time>2014-6-5T15:12:51Z</time></trkpt>
<trkpt lat="44.92800200" lon="4.81880700"><ele></ele><time>2014-6-5T15:12:54Z</time></trkpt>
<trkpt lat="44.92809200" lon="4.81862000"><ele></ele><time>2014-6-5T15:12:57Z</time></trkpt>
<trkpt lat="44.92822900" lon="4.81847600"><ele></ele><time>2014-6-5T15:13:0Z</time></trkpt>
<trkpt lat="44.92844900" lon="4.81823100"><ele></ele><time>2014-6-5T15:13:3Z</time></trkpt>
<trkpt lat="44.92850300" lon="4.81816700"><ele></ele><time>2014-6-5T15:13:6Z</time></trkpt>
<trkpt lat="44.92860600" lon="4.81817200"><ele></ele><time>2014-6-5T15:13:9Z</time></trkpt>
<trkpt lat="44.92869600" lon="4.81815900"><ele></ele><time>2014-6-5T15:13:12Z</time></trkpt>
<trkpt lat="44.92874400" lon="4.81813900"><ele></ele><time>2014-6-5T15:13:15Z</time></trkpt>
<trkpt lat="44.92883800" lon="4.81812500"><ele></ele><time>2014-6-5T15:13:18Z</time></trkpt>
<trkpt lat="44.92889900" lon="4.81821600"><ele></ele><time>2014-6-5T15:13:21Z</time></trkpt>
<trkpt lat="44.92887800" lon="4.81825600"><ele></ele><time>2014-6-5T15:13:24Z</time></trkpt>
<trkpt lat="44.92881600" lon="4.81837400"><ele></ele><time>2014-6-5T15:13:27Z</time></trkpt>
<trkpt lat="44.92877100" lon="4.81845100"><ele></ele><time>2014-6-5T15:13:30Z</time></trkpt>
<trkpt lat="44.92871600" lon="4.81858100"><ele></ele><time>2014-6-5T15:13:33Z</time></trkpt>
<trkpt lat="44.92866000" lon="4.81865700"><ele></ele><time>2014-6-5T15:13:36Z</time></trkpt>
<trkpt lat="44.92858900" lon="4.81880400"><ele></ele><time>2014-6-5T15:13:39Z</time></trkpt>
<trkpt lat="44.92857000" lon="4.81885500"><ele></ele><time>2014-6-5T15:13:42Z</time></trkpt>
<trkpt lat="44.92848900" lon="4.81897900"><ele></ele><time>2014-6-5T15:13:45Z</time></trkpt>
<trkpt lat="44.92843400" lon="4.81904600"><ele></ele><time>2014-6-5T15:13:48Z</time></trkpt>
<trkpt lat="44.92843300" lon="4.81906400"><ele></ele><time>2014-6-5T15:13:51Z</time></trkpt>
<trkpt lat="44.92846600" lon="4.81917500"><ele></ele><time>2014-6-5T15:13:54Z</time></trkpt>
<trkpt lat="44.92848500" lon="4.81926100"><ele></ele><time>2014-6-5T15:13:57Z</time></trkpt>
<trkpt lat="44.92855600" lon="4.81938700"><ele></ele><time>2014-6-5T15:14:0Z</time></trkpt>
<trkpt lat="44.92862100" lon="4.81948500"><ele></ele><time>2014-6-5T15:14:3Z</time></trkpt>
<trkpt lat="44.92870200" lon="4.81960900"><ele></ele><time>2014-6-5T15:14:6Z</time></trkpt>
<trkpt lat="44.92879100" lon="4.81968600"><ele></ele><time>2014-6-5T15:14:9Z</time></trkpt>
<trkpt lat="44.92887100" lon="4.81972600"><ele></ele><time>2014-6-5T15:14:12Z</time></trkpt>
<trkpt lat="44.92896700" lon="4.81972600"><ele></ele><time>2014-6-5T15:14:15Z</time></trkpt>
<trkpt lat="44.92903300" lon="4.81965800"><ele></ele><time>2014-6-5T15:14:18Z</time></trkpt>
<trkpt lat="44.92911500" lon="4.81952200"><ele></ele><time>2014-6-5T15:14:21Z</time></trkpt>
<trkpt lat="44.92912000" lon="4.81950500"><ele></ele><time>2014-6-5T15:14:24Z</time></trkpt>
<trkpt lat="44.92917200" lon="4.81937100"><ele></ele><time>2014-6-5T15:14:27Z</time></trkpt>
<trkpt lat="44.92926700" lon="4.81925500"><ele></ele><time>2014-6-5T15:14:30Z</time></trkpt>
<trkpt lat="44.92941500" lon="4.81920200"><ele></ele><time>2014-6-5T15:14:33Z</time></trkpt>
<trkpt lat="44.92957200" lon="4.81913300"><ele></ele><time>2014-6-5T15:14:36Z</time></trkpt>
<trkpt lat="44.92970100" lon="4.81900400"><ele></ele><time>2014-6-5T15:14:39Z</time></trkpt>
<trkpt lat="44.92978700" lon="4.81876400"><ele></ele><time>2014-6-5T15:14:42Z</time></trkpt>
<trkpt lat="44.92986400" lon="4.81858200"><ele></ele><time>2014-6-5T15:14:45Z</time></trkpt>
<trkpt lat="44.93005400" lon="4.81849400"><ele></ele><time>2014-6-5T15:14:48Z</time></trkpt>
<trkpt lat="44.93027600" lon="4.81848900"><ele></ele><time>2014-6-5T15:14:51Z</time></trkpt>
<trkpt lat="44.93053900" lon="4.81844100"><ele></ele><time>2014-6-5T15:14:54Z</time></trkpt>
<trkpt lat="44.93080800" lon="4.81846600"><ele></ele><time>2014-6-5T15:14:57Z</time></trkpt>
<trkpt lat="44.93110300" lon="4.81845700"><ele></ele><time>2014-6-5T15:15:0Z</time></trkpt>
<trkpt lat="44.93135700" lon="4.81837300"><ele></ele><time>2014-6-5T15:15:3Z</time></trkpt>
<trkpt lat="44.93164600" lon="4.81825500"><ele></ele><time>2014-6-5T15:15:6Z</time></trkpt>
<trkpt lat="44.93193000" lon="4.81814100"><ele></ele><time>2014-6-5T15:15:9Z</time></trkpt>
<trkpt lat="44.93233100" lon="4.81796100"><ele></ele><time>2014-6-5T15:15:12Z</time></trkpt>
<trkpt lat="44.93254900" lon="4.81781700"><ele></ele><time>2014-6-5T15:15:15Z</time></trkpt>
<trkpt lat="44.93280800" lon="4.81762200"><ele></ele><time>2014-6-5T15:15:18Z</time></trkpt>
<trkpt lat="44.93305600" lon="4.81757100"><ele></ele><time>2014-6-5T15:15:21Z</time></trkpt>
<trkpt lat="44.93325900" lon="4.81743300"><ele></ele><time>2014-6-5T15:15:24Z</time></trkpt>
<trkpt lat="44.93341100" lon="4.81732700"><ele></ele><time>2014-6-5T15:15:27Z</time></trkpt>
<trkpt lat="44.93354300" lon="4.81734200"><ele></ele><time>2014-6-5T15:15:30Z</time></trkpt>
<trkpt lat="44.93369800" lon="4.81737100"><ele></ele><time>2014-6-5T15:15:33Z</time></trkpt>
<trkpt lat="44.93383400" lon="4.81736400"><ele></ele><time>2014-6-5T15:15:36Z</time></trkpt>
<trkpt lat="44.93395500" lon="4.81729200"><ele></ele><time>2014-6-5T15:15:39Z</time></trkpt>
<trkpt lat="44.93412700" lon="4.81716100"><ele></ele><time>2014-6-5T15:15:42Z</time></trkpt>
<trkpt lat="44.93439500" lon="4.81710500"><ele></ele><time>2014-6-5T15:15:45Z</time></trkpt>
<trkpt lat="44.93453900" lon="4.81712200"><ele></ele><time>2014-6-5T15:15:48Z</time></trkpt>
<trkpt lat="44.93469900" lon="4.81721500"><ele></ele><time>2014-6-5T15:15:51Z</time></trkpt>
<trkpt lat="44.93473400" lon="4.81715400"><ele></ele><time>2014-6-5T15:15:54Z</time></trkpt>
<trkpt lat="44.93473600" lon="4.81713400"><ele></ele><time>2014-6-5T15:15:57Z</time></trkpt>
<trkpt lat="44.93476500" lon="4.81706500"><ele></ele><time>2014-6-5T15:16:0Z</time></trkpt>
<trkpt lat="44.93482300" lon="4.81694200"><ele></ele><time>2014-6-5T15:16:3Z</time></trkpt>
<trkpt lat="44.93494800" lon="4.81682200"><ele></ele><time>2014-6-5T15:16:6Z</time></trkpt>
<trkpt lat="44.93508800" lon="4.81670200"><ele></ele><time>2014-6-5T15:16:9Z</time></trkpt>
<trkpt lat="44.93523900" lon="4.81654400"><ele></ele><time>2014-6-5T15:16:12Z</time></trkpt>
<trkpt lat="44.93531400" lon="4.81631500"><ele></ele><time>2014-6-5T15:16:15Z</time></trkpt>
<trkpt lat="44.93532700" lon="4.81594300"><ele></ele><time>2014-6-5T15:16:18Z</time></trkpt>
<trkpt lat="44.93533200" lon="4.81555200"><ele></ele><time>2014-6-5T15:16:21Z</time></trkpt>
<trkpt lat="44.93541600" lon="4.81525300"><ele></ele><time>2014-6-5T15:16:24Z</time></trkpt>
<trkpt lat="44.93549800" lon="4.81522700"><ele></ele><time>2014-6-5T15:16:27Z</time></trkpt>
<trkpt lat="44.93562000" lon="4.81521700"><ele></ele><time>2014-6-5T15:16:30Z</time></trkpt>
<trkpt lat="44.93569400" lon="4.81515900"><ele></ele><time>2014-6-5T15:16:33Z</time></trkpt>
<trkpt lat="44.93592100" lon="4.81507100"><ele></ele><time>2014-6-5T15:16:36Z</time></trkpt>
<trkpt lat="44.93630300" lon="4.81500800"><ele></ele><time>2014-6-5T15:16:39Z</time></trkpt>
<trkpt lat="44.93654500" lon="4.81507700"><ele></ele><time>2014-6-5T15:16:42Z</time></trkpt>
<trkpt lat="44.93676800" lon="4.81531100"><ele></ele><time>2014-6-5T15:16:45Z</time></trkpt>
<trkpt lat="44.93690000" lon="4.81553600"><ele></ele><time>2014-6-5T15:16:48Z</time></trkpt>
<trkpt lat="44.93716600" lon="4.81579700"><ele></ele><time>2014-6-5T15:16:51Z</time></trkpt>
<trkpt lat="44.93731900" lon="4.81586600"><ele></ele><time>2014-6-5T15:16:54Z</time></trkpt>
<trkpt lat="44.93764900" lon="4.81596300"><ele></ele><time>2014-6-5T15:16:57Z</time></trkpt>
<trkpt lat="44.93776400" lon="4.81598600"><ele></ele><time>2014-6-5T15:17:0Z</time></trkpt>
<trkpt lat="44.93800200" lon="4.81613300"><ele></ele><time>2014-6-5T15:17:3Z</time></trkpt>
<trkpt lat="44.93808900" lon="4.81635800"><ele></ele><time>2014-6-5T15:17:6Z</time></trkpt>
<trkpt lat="44.93824500" lon="4.81656300"><ele></ele><time>2014-6-5T15:17:9Z</time></trkpt>
<trkpt lat="44.93829200" lon="4.81656400"><ele></ele><time>2014-6-5T15:17:12Z</time></trkpt>
<trkpt lat="44.93843100" lon="4.81656100"><ele></ele><time>2014-6-5T15:17:15Z</time></trkpt>
<trkpt lat="44.93859000" lon="4.81651800"><ele></ele><time>2014-6-5T15:17:18Z</time></trkpt>
<trkpt lat="44.93875700" lon="4.81640300"><ele></ele><time>2014-6-5T15:17:21Z</time></trkpt>
<trkpt lat="44.93886800" lon="4.81653600"><ele></ele><time>2014-6-5T15:17:24Z</time></trkpt>
<trkpt lat="44.93898000" lon="4.81674900"><ele></ele><time>2014-6-5T15:17:27Z</time></trkpt>
<trkpt lat="44.93909500" lon="4.81691400"><ele></ele><time>2014-6-5T15:17:30Z</time></trkpt>
<trkpt lat="44.93918600" lon="4.81717000"><ele></ele><time>2014-6-5T15:17:33Z</time></trkpt>
<trkpt lat="44.93925300" lon="4.81733600"><ele></ele><time>2014-6-5T15:17:36Z</time></trkpt>
<trkpt lat="44.93934800" lon="4.81752800"><ele></ele><time>2014-6-5T15:17:39Z</time></trkpt>
<trkpt lat="44.93939200" lon="4.81763800"><ele></ele><time>2014-6-5T15:17:42Z</time></trkpt>
<trkpt lat="44.93939800" lon="4.81765600"><ele></ele><time>2014-6-5T15:17:45Z</time></trkpt>
<trkpt lat="44.93944700" lon="4.81772900"><ele></ele><time>2014-6-5T15:17:48Z</time></trkpt>
<trkpt lat="44.93948200" lon="4.81779500"><ele></ele><time>2014-6-5T15:17:51Z</time></trkpt>
<trkpt lat="44.93956900" lon="4.81780900"><ele></ele><time>2014-6-5T15:17:54Z</time></trkpt>
<trkpt lat="44.93969200" lon="4.81788000"><ele></ele><time>2014-6-5T15:17:57Z</time></trkpt>
<trkpt lat="44.93981400" lon="4.81792800"><ele></ele><time>2014-6-5T15:18:0Z</time></trkpt>
<trkpt lat="44.93997500" lon="4.81794200"><ele></ele><time>2014-6-5T15:18:3Z</time></trkpt>
<trkpt lat="44.94008900" lon="4.81801200"><ele></ele><time>2014-6-5T15:18:6Z</time></trkpt>
<trkpt lat="44.94019500" lon="4.81802000"><ele></ele><time>2014-6-5T15:18:9Z</time></trkpt>
<trkpt lat="44.94050700" lon="4.81796600"><ele></ele><time>2014-6-5T15:18:12Z</time></trkpt>
<trkpt lat="44.94077300" lon="4.81793700"><ele></ele><time>2014-6-5T15:18:15Z</time></trkpt>
<trkpt lat="44.94094300" lon="4.81792600"><ele></ele><time>2014-6-5T15:18:18Z</time></trkpt>
<trkpt lat="44.94108900" lon="4.81807900"><ele></ele><time>2014-6-5T15:18:21Z</time></trkpt>
<trkpt lat="44.94104800" lon="4.81819100"><ele></ele><time>2014-6-5T15:18:24Z</time></trkpt>
<trkpt lat="44.94096200" lon="4.81830700"><ele></ele><time>2014-6-5T15:18:27Z</time></trkpt>
<trkpt lat="44.94086600" lon="4.81840400"><ele></ele><time>2014-6-5T15:18:30Z</time></trkpt>
<trkpt lat="44.94062900" lon="4.81871900"><ele></ele><time>2014-6-5T15:18:33Z</time></trkpt>
<trkpt lat="44.94045600" lon="4.81891300"><ele></ele><time>2014-6-5T15:18:36Z</time></trkpt>
<trkpt lat="44.94039400" lon="4.81913000"><ele></ele><time>2014-6-5T15:18:39Z</time></trkpt>
<trkpt lat="44.94051600" lon="4.81918900"><ele></ele><time>2014-6-5T15:18:42Z</time></trkpt>
<trkpt lat="44.94055200" lon="4.81917600"><ele></ele><time>2014-6-5T15:18:45Z</time></trkpt>
<trkpt lat="44.94090000" lon="4.81908300"><ele></ele><time>2014-6-5T15:18:48Z</time></trkpt>
<trkpt lat="44.94106100" lon="4.81901800"><ele></ele><time>2014-6-5T15:18:51Z</time></trkpt>
<trkpt lat="44.94114000" lon="4.81896000"><ele></ele><time>2014-6-5T15:18:54Z</time></trkpt>
<trkpt lat="44.94129900" lon="4.81879000"><ele></ele><time>2014-6-5T15:18:57Z</time></trkpt>
<trkpt lat="44.94139300" lon="4.81859300"><ele></ele><time>2014-6-5T15:19:0Z</time></trkpt>
<trkpt lat="44.94150300" lon="4.81844500"><ele></ele><time>2014-6-5T15:19:3Z</time></trkpt>
<trkpt lat="44.94167800" lon="4.81827700"><ele></ele><time>2014-6-5T15:19:6Z</time></trkpt>
<trkpt lat="44.94183900" lon="4.81811700"><ele></ele><time>2014-6-5T15:19:9Z</time></trkpt>
<trkpt lat="44.94201300" lon="4.81790400"><ele></ele><time>2014-6-5T15:19:12Z</time></trkpt>
<trkpt lat="44.94216400" lon="4.81763300"><ele></ele><time>2014-6-5T15:19:15Z</time></trkpt>
<trkpt lat="44.94224200" lon="4.81735600"><ele></ele><time>2014-6-5T15:19:18Z</time></trkpt>
<trkpt lat="44.94229000" lon="4.81710500"><ele></ele><time>2014-6-5T15:19:21Z</time></trkpt>
<trkpt lat="44.94234100" lon="4.81681800"><ele></ele><time>2014-6-5T15:19:24Z</time></trkpt>
<trkpt lat="44.94242600" lon="4.81646100"><ele></ele><time>2014-6-5T15:19:27Z</time></trkpt>
<trkpt lat="44.94254900" lon="4.81617500"><ele></ele><time>2014-6-5T15:19:30Z</time></trkpt>
<trkpt lat="44.94266800" lon="4.81610900"><ele></ele><time>2014-6-5T15:19:33Z</time></trkpt>
<trkpt lat="44.94286700" lon="4.81614800"><ele></ele><time>2014-6-5T15:19:36Z</time></trkpt>
<trkpt lat="44.94305800" lon="4.81625800"><ele></ele><time>2014-6-5T15:19:39Z</time></trkpt>
<trkpt lat="44.94321400" lon="4.81635600"><ele></ele><time>2014-6-5T15:19:42Z</time></trkpt>
<trkpt lat="44.94340600" lon="4.81638900"><ele></ele><time>2014-6-5T15:19:45Z</time></trkpt>
<trkpt lat="44.94352500" lon="4.81623700"><ele></ele><time>2014-6-5T15:19:48Z</time></trkpt>
<trkpt lat="44.94352700" lon="4.81606600"><ele></ele><time>2014-6-5T15:19:51Z</time></trkpt>
<trkpt lat="44.94344200" lon="4.81592900"><ele></ele><time>2014-6-5T15:19:54Z</time></trkpt>
<trkpt lat="44.94326100" lon="4.81579700"><ele></ele><time>2014-6-5T15:19:57Z</time></trkpt>
<trkpt lat="44.94303700" lon="4.81564300"><ele></ele><time>2014-6-5T15:20:0Z</time></trkpt>
<trkpt lat="44.94282800" lon="4.81550200"><ele></ele><time>2014-6-5T15:20:3Z</time></trkpt>
<trkpt lat="44.94269000" lon="4.81540000"><ele></ele><time>2014-6-5T15:20:6Z</time></trkpt>
<trkpt lat="44.94256600" lon="4.81526300"><ele></ele><time>2014-6-5T15:20:9Z</time></trkpt>
<trkpt lat="44.94247800" lon="4.81522500"><ele></ele><time>2014-6-5T15:20:12Z</time></trkpt>
<trkpt lat="44.94238900" lon="4.81514600"><ele></ele><time>2014-6-5T15:20:15Z</time></trkpt>
<trkpt lat="44.94233700" lon="4.81509900"><ele></ele><time>2014-6-5T15:20:18Z</time></trkpt>
<trkpt lat="44.94223800" lon="4.81503600"><ele></ele><time>2014-6-5T15:20:21Z</time></trkpt>
<trkpt lat="44.94222200" lon="4.81499300"><ele></ele><time>2014-6-5T15:20:24Z</time></trkpt>
<trkpt lat="44.94220400" lon="4.81493900"><ele></ele><time>2014-6-5T15:20:27Z</time></trkpt>
<trkpt lat="44.94214300" lon="4.81485500"><ele></ele><time>2014-6-5T15:20:30Z</time></trkpt>
<trkpt lat="44.94205700" lon="4.81473200"><ele></ele><time>2014-6-5T15:20:33Z</time></trkpt>
<trkpt lat="44.94201700" lon="4.81465600"><ele></ele><time>2014-6-5T15:20:36Z</time></trkpt>
<trkpt lat="44.94197200" lon="4.81456800"><ele></ele><time>2014-6-5T15:20:39Z</time></trkpt>
<trkpt lat="44.94190600" lon="4.81449400"><ele></ele><time>2014-6-5T15:20:42Z</time></trkpt>
<trkpt lat="44.94189500" lon="4.81447700"><ele></ele><time>2014-6-5T15:20:45Z</time></trkpt>
<trkpt lat="44.94181600" lon="4.81431700"><ele></ele><time>2014-6-5T15:20:48Z</time></trkpt>
<trkpt lat="44.94177300" lon="4.81418900"><ele></ele><time>2014-6-5T15:20:51Z</time></trkpt>
<trkpt lat="44.94173400" lon="4.81404700"><ele></ele><time>2014-6-5T15:20:54Z</time></trkpt>
<trkpt lat="44.94165100" lon="4.81382500"><ele></ele><time>2014-6-5T15:20:57Z</time></trkpt>
<trkpt lat="44.94153000" lon="4.81361000"><ele></ele><time>2014-6-5T15:21:0Z</time></trkpt>
<trkpt lat="44.94143500" lon="4.81347600"><ele></ele><time>2014-6-5T15:21:3Z</time></trkpt>
<trkpt lat="44.94137000" lon="4.81339200"><ele></ele><time>2014-6-5T15:21:6Z</time></trkpt>
<trkpt lat="44.94128800" lon="4.81329700"><ele></ele><time>2014-6-5T15:21:9Z</time></trkpt>
<trkpt lat="44.94120200" lon="4.81318000"><ele></ele><time>2014-6-5T15:21:12Z</time></trkpt>
<trkpt lat="44.94109900" lon="4.81300700"><ele></ele><time>2014-6-5T15:21:15Z</time></trkpt>
<trkpt lat="44.94105300" lon="4.81287100"><ele></ele><time>2014-6-5T15:21:18Z</time></trkpt>
<trkpt lat="44.94104100" lon="4.81271800"><ele></ele><time>2014-6-5T15:21:21Z</time></trkpt>
<trkpt lat="44.94107200" lon="4.81258400"><ele></ele><time>2014-6-5T15:21:24Z</time></trkpt>
<trkpt lat="44.94098300" lon="4.81244200"><ele></ele><time>2014-6-5T15:21:27Z</time></trkpt>
<trkpt lat="44.94083600" lon="4.81230400"><ele></ele><time>2014-6-5T15:21:30Z</time></trkpt>
<trkpt lat="44.94079700" lon="4.81220500"><ele></ele><time>2014-6-5T15:21:33Z</time></trkpt>
<trkpt lat="44.94079700" lon="4.81196300"><ele></ele><time>2014-6-5T15:21:36Z</time></trkpt>
<trkpt lat="44.94083700" lon="4.81170600"><ele></ele><time>2014-6-5T15:21:39Z</time></trkpt>
<trkpt lat="44.94085900" lon="4.81150000"><ele></ele><time>2014-6-5T15:21:42Z</time></trkpt>
<trkpt lat="44.94085400" lon="4.81126300"><ele></ele><time>2014-6-5T15:21:45Z</time></trkpt>
<trkpt lat="44.94079700" lon="4.81106000"><ele></ele><time>2014-6-5T15:21:48Z</time></trkpt>
<trkpt lat="44.94066900" lon="4.81076500"><ele></ele><time>2014-6-5T15:21:51Z</time></trkpt>
<trkpt lat="44.94065600" lon="4.81070900"><ele></ele><time>2014-6-5T15:21:54Z</time></trkpt>
<trkpt lat="44.94059100" lon="4.81033300"><ele></ele><time>2014-6-5T15:21:57Z</time></trkpt>
<trkpt lat="44.94063100" lon="4.81007400"><ele></ele><time>2014-6-5T15:22:0Z</time></trkpt>
<trkpt lat="44.94076100" lon="4.80978400"><ele></ele><time>2014-6-5T15:22:3Z</time></trkpt>
<trkpt lat="44.94088300" lon="4.80961300"><ele></ele><time>2014-6-5T15:22:6Z</time></trkpt>
<trkpt lat="44.94096700" lon="4.80951800"><ele></ele><time>2014-6-5T15:22:9Z</time></trkpt>
<trkpt lat="44.94103800" lon="4.80942200"><ele></ele><time>2014-6-5T15:22:12Z</time></trkpt>
<trkpt lat="44.94114800" lon="4.80932300"><ele></ele><time>2014-6-5T15:22:15Z</time></trkpt>
<trkpt lat="44.94121700" lon="4.80922900"><ele></ele><time>2014-6-5T15:22:18Z</time></trkpt>
<trkpt lat="44.94124100" lon="4.80919000"><ele></ele><time>2014-6-5T15:22:21Z</time></trkpt>
<trkpt lat="44.94124800" lon="4.80901300"><ele></ele><time>2014-6-5T15:22:24Z</time></trkpt>
<trkpt lat="44.94123100" lon="4.80883900"><ele></ele><time>2014-6-5T15:22:27Z</time></trkpt>
<trkpt lat="44.94121000" lon="4.80874600"><ele></ele><time>2014-6-5T15:22:30Z</time></trkpt>
<trkpt lat="44.94120400" lon="4.80857100"><ele></ele><time>2014-6-5T15:22:33Z</time></trkpt>
<trkpt lat="44.94117400" lon="4.80840100"><ele></ele><time>2014-6-5T15:22:36Z</time></trkpt>
<trkpt lat="44.94113600" lon="4.80823600"><ele></ele><time>2014-6-5T15:22:39Z</time></trkpt>
<trkpt lat="44.94108700" lon="4.80805800"><ele></ele><time>2014-6-5T15:22:42Z</time></trkpt>
<trkpt lat="44.94107200" lon="4.80794700"><ele></ele><time>2014-6-5T15:22:45Z</time></trkpt>
<trkpt lat="44.94102900" lon="4.80778200"><ele></ele><time>2014-6-5T15:22:48Z</time></trkpt>
<trkpt lat="44.94101800" lon="4.80775900"><ele></ele><time>2014-6-5T15:22:51Z</time></trkpt>
<trkpt lat="44.94097700" lon="4.80759300"><ele></ele><time>2014-6-5T15:22:54Z</time></trkpt>
<trkpt lat="44.94101400" lon="4.80744100"><ele></ele><time>2014-6-5T15:22:57Z</time></trkpt>
<trkpt lat="44.94108100" lon="4.80722100"><ele></ele><time>2014-6-5T15:23:0Z</time></trkpt>
<trkpt lat="44.94111200" lon="4.80707600"><ele></ele><time>2014-6-5T15:23:3Z</time></trkpt>
<trkpt lat="44.94112200" lon="4.80704600"><ele></ele><time>2014-6-5T15:23:6Z</time></trkpt>
<trkpt lat="44.94113400" lon="4.80685600"><ele></ele><time>2014-6-5T15:23:9Z</time></trkpt>
<trkpt lat="44.94109800" lon="4.80662100"><ele></ele><time>2014-6-5T15:23:12Z</time></trkpt>
<trkpt lat="44.94119600" lon="4.80649900"><ele></ele><time>2014-6-5T15:23:15Z</time></trkpt>
<trkpt lat="44.94126700" lon="4.80631600"><ele></ele><time>2014-6-5T15:23:18Z</time></trkpt>
<trkpt lat="44.94132800" lon="4.80607300"><ele></ele><time>2014-6-5T15:23:21Z</time></trkpt>
<trkpt lat="44.94142100" lon="4.80581300"><ele></ele><time>2014-6-5T15:23:24Z</time></trkpt>
<trkpt lat="44.94147400" lon="4.80567400"><ele></ele><time>2014-6-5T15:23:27Z</time></trkpt>
<trkpt lat="44.94156700" lon="4.80550100"><ele></ele><time>2014-6-5T15:23:30Z</time></trkpt>
<trkpt lat="44.94165300" lon="4.80524100"><ele></ele><time>2014-6-5T15:23:33Z</time></trkpt>
<trkpt lat="44.94170600" lon="4.80509300"><ele></ele><time>2014-6-5T15:23:36Z</time></trkpt>
<trkpt lat="44.94178500" lon="4.80493000"><ele></ele><time>2014-6-5T15:23:39Z</time></trkpt>
<trkpt lat="44.94184000" lon="4.80479400"><ele></ele><time>2014-6-5T15:23:42Z</time></trkpt>
<trkpt lat="44.94195400" lon="4.80458400"><ele></ele><time>2014-6-5T15:23:45Z</time></trkpt>
<trkpt lat="44.94208300" lon="4.80441900"><ele></ele><time>2014-6-5T15:23:48Z</time></trkpt>
<trkpt lat="44.94210200" lon="4.80439200"><ele></ele><time>2014-6-5T15:23:51Z</time></trkpt>
<trkpt lat="44.94209700" lon="4.80435600"><ele></ele><time>2014-6-5T15:23:54Z</time></trkpt>
<trkpt lat="44.94206700" lon="4.80438900"><ele></ele><time>2014-6-5T15:23:57Z</time></trkpt>
<trkpt lat="44.94199800" lon="4.80447800"><ele></ele><time>2014-6-5T15:24:0Z</time></trkpt>
<trkpt lat="44.94189800" lon="4.80460400"><ele></ele><time>2014-6-5T15:24:3Z</time></trkpt>
<trkpt lat="44.94183200" lon="4.80467700"><ele></ele><time>2014-6-5T15:24:6Z</time></trkpt>
<trkpt lat="44.94178300" lon="4.80476300"><ele></ele><time>2014-6-5T15:24:9Z</time></trkpt>
<trkpt lat="44.94167700" lon="4.80490100"><ele></ele><time>2014-6-5T15:24:12Z</time></trkpt>
<trkpt lat="44.94160700" lon="4.80499300"><ele></ele><time>2014-6-5T15:24:15Z</time></trkpt>
<trkpt lat="44.94151200" lon="4.80512400"><ele></ele><time>2014-6-5T15:24:18Z</time></trkpt>
<trkpt lat="44.94143200" lon="4.80520700"><ele></ele><time>2014-6-5T15:24:21Z</time></trkpt>
<trkpt lat="44.94137900" lon="4.80527100"><ele></ele><time>2014-6-5T15:24:24Z</time></trkpt>
<trkpt lat="44.94136500" lon="4.80532600"><ele></ele><time>2014-6-5T15:24:27Z</time></trkpt>
<trkpt lat="44.94135000" lon="4.80533800"><ele></ele><time>2014-6-5T15:24:30Z</time></trkpt>
<trkpt lat="44.94122200" lon="4.80538400"><ele></ele><time>2014-6-5T15:24:33Z</time></trkpt>
<trkpt lat="44.94114300" lon="4.80551900"><ele></ele><time>2014-6-5T15:24:36Z</time></trkpt>
<trkpt lat="44.94107600" lon="4.80563000"><ele></ele><time>2014-6-5T15:24:39Z</time></trkpt>
<trkpt lat="44.94097600" lon="4.80577400"><ele></ele><time>2014-6-5T15:24:42Z</time></trkpt>
<trkpt lat="44.94088500" lon="4.80592200"><ele></ele><time>2014-6-5T15:24:45Z</time></trkpt>
<trkpt lat="44.94075400" lon="4.80600900"><ele></ele><time>2014-6-5T15:24:48Z</time></trkpt>
<trkpt lat="44.94065900" lon="4.80600000"><ele></ele><time>2014-6-5T15:24:51Z</time></trkpt>
<trkpt lat="44.94051900" lon="4.80595400"><ele></ele><time>2014-6-5T15:24:54Z</time></trkpt>
<trkpt lat="44.94040700" lon="4.80587900"><ele></ele><time>2014-6-5T15:24:57Z</time></trkpt>
<trkpt lat="44.94029100" lon="4.80578900"><ele></ele><time>2014-6-5T15:25:0Z</time></trkpt>
<trkpt lat="44.94021600" lon="4.80587100"><ele></ele><time>2014-6-5T15:25:3Z</time></trkpt>
<trkpt lat="44.94020100" lon="4.80596000"><ele></ele><time>2014-6-5T15:25:6Z</time></trkpt>
<trkpt lat="44.94022600" lon="4.80613600"><ele></ele><time>2014-6-5T15:25:9Z</time></trkpt>
<trkpt lat="44.94024000" lon="4.80628500"><ele></ele><time>2014-6-5T15:25:12Z</time></trkpt>
<trkpt lat="44.94020600" lon="4.80645100"><ele></ele><time>2014-6-5T15:25:15Z</time></trkpt>
<trkpt lat="44.94021200" lon="4.80655400"><ele></ele><time>2014-6-5T15:25:18Z</time></trkpt>
<trkpt lat="44.94023200" lon="4.80663800"><ele></ele><time>2014-6-5T15:25:21Z</time></trkpt>
<trkpt lat="44.94024200" lon="4.80673800"><ele></ele><time>2014-6-5T15:25:24Z</time></trkpt>
<trkpt lat="44.94018300" lon="4.80694600"><ele></ele><time>2014-6-5T15:25:27Z</time></trkpt>
<trkpt lat="44.94014100" lon="4.80711600"><ele></ele><time>2014-6-5T15:25:30Z</time></trkpt>
<trkpt lat="44.94009000" lon="4.80725200"><ele></ele><time>2014-6-5T15:25:33Z</time></trkpt>
<trkpt lat="44.94003600" lon="4.80741200"><ele></ele><time>2014-6-5T15:25:36Z</time></trkpt>
<trkpt lat="44.94000700" lon="4.80754200"><ele></ele><time>2014-6-5T15:25:39Z</time></trkpt>
<trkpt lat="44.93999000" lon="4.80766500"><ele></ele><time>2014-6-5T15:25:42Z</time></trkpt>
<trkpt lat="44.93996000" lon="4.80779500"><ele></ele><time>2014-6-5T15:25:45Z</time></trkpt>
<trkpt lat="44.93994900" lon="4.80781500"><ele></ele><time>2014-6-5T15:25:48Z</time></trkpt>
<trkpt lat="44.93990100" lon="4.80776400"><ele></ele><time>2014-6-5T15:25:51Z</time></trkpt>
<trkpt lat="44.93988600" lon="4.80767100"><ele></ele><time>2014-6-5T15:25:54Z</time></trkpt>
<trkpt lat="44.93983200" lon="4.80759800"><ele></ele><time>2014-6-5T15:25:57Z</time></trkpt>
<trkpt lat="44.93982000" lon="4.80750800"><ele></ele><time>2014-6-5T15:26:0Z</time></trkpt>
<trkpt lat="44.93975600" lon="4.80737800"><ele></ele><time>2014-6-5T15:26:3Z</time></trkpt>
<trkpt lat="44.93963500" lon="4.80729200"><ele></ele><time>2014-6-5T15:26:6Z</time></trkpt>
<trkpt lat="44.93951700" lon="4.80716300"><ele></ele><time>2014-6-5T15:26:9Z</time></trkpt>
<trkpt lat="44.93937400" lon="4.80704200"><ele></ele><time>2014-6-5T15:26:12Z</time></trkpt>
<trkpt lat="44.93919200" lon="4.80686800"><ele></ele><time>2014-6-5T15:26:15Z</time></trkpt>
<trkpt lat="44.93907800" lon="4.80671800"><ele></ele><time>2014-6-5T15:26:18Z</time></trkpt>
<trkpt lat="44.93897300" lon="4.80663100"><ele></ele><time>2014-6-5T15:26:21Z</time></trkpt>
<trkpt lat="44.93885700" lon="4.80658300"><ele></ele><time>2014-6-5T15:26:24Z</time></trkpt>
<trkpt lat="44.93878200" lon="4.80647300"><ele></ele><time>2014-6-5T15:26:27Z</time></trkpt>
<trkpt lat="44.93858500" lon="4.80640600"><ele></ele><time>2014-6-5T15:26:30Z</time></trkpt>
<trkpt lat="44.93854800" lon="4.80638400"><ele></ele><time>2014-6-5T15:26:33Z</time></trkpt>
<trkpt lat="44.93842300" lon="4.80634400"><ele></ele><time>2014-6-5T15:26:36Z</time></trkpt>
<trkpt lat="44.93820600" lon="4.80624900"><ele></ele><time>2014-6-5T15:26:39Z</time></trkpt>
<trkpt lat="44.93805000" lon="4.80606500"><ele></ele><time>2014-6-5T15:26:42Z</time></trkpt>
<trkpt lat="44.93800200" lon="4.80583000"><ele></ele><time>2014-6-5T15:26:45Z</time></trkpt>
<trkpt lat="44.93805700" lon="4.80546000"><ele></ele><time>2014-6-5T15:26:48Z</time></trkpt>
<trkpt lat="44.93807300" lon="4.80521500"><ele></ele><time>2014-6-5T15:26:51Z</time></trkpt>
<trkpt lat="44.93808100" lon="4.80501800"><ele></ele><time>2014-6-5T15:26:54Z</time></trkpt>
<trkpt lat="44.93810900" lon="4.80470900"><ele></ele><time>2014-6-5T15:26:57Z</time></trkpt>
<trkpt lat="44.93816800" lon="4.80428500"><ele></ele><time>2014-6-5T15:27:0Z</time></trkpt>
<trkpt lat="44.93821000" lon="4.80394900"><ele></ele><time>2014-6-5T15:27:3Z</time></trkpt>
<trkpt lat="44.93824100" lon="4.80349200"><ele></ele><time>2014-6-5T15:27:6Z</time></trkpt>
<trkpt lat="44.93827200" lon="4.80309300"><ele></ele><time>2014-6-5T15:27:9Z</time></trkpt>
<trkpt lat="44.93822900" lon="4.80277500"><ele></ele><time>2014-6-5T15:27:12Z</time></trkpt>
<trkpt lat="44.93816200" lon="4.80251600"><ele></ele><time>2014-6-5T15:27:15Z</time></trkpt>
<trkpt lat="44.93813500" lon="4.80235400"><ele></ele><time>2014-6-5T15:27:18Z</time></trkpt>
<trkpt lat="44.93805700" lon="4.80214600"><ele></ele><time>2014-6-5T15:27:21Z</time></trkpt>
<trkpt lat="44.93794400" lon="4.80188600"><ele></ele><time>2014-6-5T15:27:24Z</time></trkpt>
<trkpt lat="44.93789500" lon="4.80166500"><ele></ele><time>2014-6-5T15:27:27Z</time></trkpt>
<trkpt lat="44.93782200" lon="4.80139600"><ele></ele><time>2014-6-5T15:27:30Z</time></trkpt>
<trkpt lat="44.93773900" lon="4.80105400"><ele></ele><time>2014-6-5T15:27:33Z</time></trkpt>
<trkpt lat="44.93765900" lon="4.80079300"><ele></ele><time>2014-6-5T15:27:36Z</time></trkpt>
<trkpt lat="44.93750800" lon="4.80035400"><ele></ele><time>2014-6-5T15:27:39Z</time></trkpt>
<trkpt lat="44.93749000" lon="4.80029800"><ele></ele><time>2014-6-5T15:27:42Z</time></trkpt>
<trkpt lat="44.93749800" lon="4.80031400"><ele></ele><time>2014-6-5T15:27:45Z</time></trkpt>
<trkpt lat="44.93747000" lon="4.80031500"><ele></ele><time>2014-6-5T15:27:48Z</time></trkpt>
<trkpt lat="44.93746300" lon="4.80032400"><ele></ele><time>2014-6-5T15:27:51Z</time></trkpt>
<trkpt lat="44.93746400" lon="4.80033400"><ele></ele><time>2014-6-5T15:27:54Z</time></trkpt>
<trkpt lat="44.93746000" lon="4.80033300"><ele></ele><time>2014-6-5T15:27:57Z</time></trkpt>
<trkpt lat="44.93746300" lon="4.80033600"><ele></ele><time>2014-6-5T15:28:0Z</time></trkpt>
<trkpt lat="44.93746100" lon="4.80033600"><ele></ele><time>2014-6-5T15:28:3Z</time></trkpt>
<trkpt lat="44.93746600" lon="4.80034100"><ele></ele><time>2014-6-5T15:28:6Z</time></trkpt>
<trkpt lat="44.93746900" lon="4.80033400"><ele></ele><time>2014-6-5T15:28:9Z</time></trkpt>
<trkpt lat="44.93747600" lon="4.80033100"><ele></ele><time>2014-6-5T15:28:12Z</time></trkpt>
<trkpt lat="44.93747600" lon="4.80033200"><ele></ele><time>2014-6-5T15:28:15Z</time></trkpt>
<trkpt lat="44.93746900" lon="4.80032600"><ele></ele><time>2014-6-5T15:28:18Z</time></trkpt>
<trkpt lat="44.93745700" lon="4.80031700"><ele></ele><time>2014-6-5T15:28:21Z</time></trkpt>
<trkpt lat="44.93745600" lon="4.80031500"><ele></ele><time>2014-6-5T15:28:24Z</time></trkpt>
<trkpt lat="44.93745100" lon="4.80031400"><ele></ele><time>2014-6-5T15:28:27Z</time></trkpt>
<trkpt lat="44.93743700" lon="4.80030400"><ele></ele><time>2014-6-5T15:28:30Z</time></trkpt>
<trkpt lat="44.93741700" lon="4.80029000"><ele></ele><time>2014-6-5T15:28:33Z</time></trkpt>
<trkpt lat="44.93742000" lon="4.80029300"><ele></ele><time>2014-6-5T15:28:36Z</time></trkpt>
<trkpt lat="44.93742700" lon="4.80029700"><ele></ele><time>2014-6-5T15:28:39Z</time></trkpt>
<trkpt lat="44.93744800" lon="4.80029100"><ele></ele><time>2014-6-5T15:28:42Z</time></trkpt>
<trkpt lat="44.93746400" lon="4.80028100"><ele></ele><time>2014-6-5T15:28:45Z</time></trkpt>
<trkpt lat="44.93745200" lon="4.80025700"><ele></ele><time>2014-6-5T15:28:48Z</time></trkpt>
<trkpt lat="44.93743800" lon="4.80022700"><ele></ele><time>2014-6-5T15:28:51Z</time></trkpt>
<trkpt lat="44.93741300" lon="4.80006300"><ele></ele><time>2014-6-5T15:28:54Z</time></trkpt>
<trkpt lat="44.93744600" lon="4.79981800"><ele></ele><time>2014-6-5T15:28:57Z</time></trkpt>
<trkpt lat="44.93745900" lon="4.79974100"><ele></ele><time>2014-6-5T15:29:0Z</time></trkpt>
<trkpt lat="44.93748300" lon="4.79948000"><ele></ele><time>2014-6-5T15:29:3Z</time></trkpt>
<trkpt lat="44.93755400" lon="4.79925900"><ele></ele><time>2014-6-5T15:29:6Z</time></trkpt>
<trkpt lat="44.93769300" lon="4.79920000"><ele></ele><time>2014-6-5T15:29:9Z</time></trkpt>
<trkpt lat="44.93793700" lon="4.79918300"><ele></ele><time>2014-6-5T15:29:12Z</time></trkpt>
<trkpt lat="44.93816100" lon="4.79909400"><ele></ele><time>2014-6-5T15:29:15Z</time></trkpt>
<trkpt lat="44.93838700" lon="4.79899600"><ele></ele><time>2014-6-5T15:29:18Z</time></trkpt>
<trkpt lat="44.93859900" lon="4.79891100"><ele></ele><time>2014-6-5T15:29:21Z</time></trkpt>
<trkpt lat="44.93880800" lon="4.79877700"><ele></ele><time>2014-6-5T15:29:24Z</time></trkpt>
<trkpt lat="44.93902300" lon="4.79854200"><ele></ele><time>2014-6-5T15:29:27Z</time></trkpt>
<trkpt lat="44.93922200" lon="4.79834000"><ele></ele><time>2014-6-5T15:29:30Z</time></trkpt>
<trkpt lat="44.93941000" lon="4.79825400"><ele></ele><time>2014-6-5T15:29:33Z</time></trkpt>
<trkpt lat="44.93960300" lon="4.79821200"><ele></ele><time>2014-6-5T15:29:36Z</time></trkpt>
<trkpt lat="44.93979100" lon="4.79815700"><ele></ele><time>2014-6-5T15:29:39Z</time></trkpt>
<trkpt lat="44.94003700" lon="4.79808000"><ele></ele><time>2014-6-5T15:29:42Z</time></trkpt>
<trkpt lat="44.94026100" lon="4.79798200"><ele></ele><time>2014-6-5T15:29:45Z</time></trkpt>
<trkpt lat="44.94047500" lon="4.79782800"><ele></ele><time>2014-6-5T15:29:48Z</time></trkpt>
<trkpt lat="44.94065700" lon="4.79757800"><ele></ele><time>2014-6-5T15:29:51Z</time></trkpt>
<trkpt lat="44.94076600" lon="4.79729400"><ele></ele><time>2014-6-5T15:29:54Z</time></trkpt>
<trkpt lat="44.94082700" lon="4.79701600"><ele></ele><time>2014-6-5T15:29:57Z</time></trkpt>
<trkpt lat="44.94080900" lon="4.79675500"><ele></ele><time>2014-6-5T15:30:0Z</time></trkpt>
<trkpt lat="44.94068700" lon="4.79643500"><ele></ele><time>2014-6-5T15:30:3Z</time></trkpt>
<trkpt lat="44.94063200" lon="4.79618900"><ele></ele><time>2014-6-5T15:30:6Z</time></trkpt>
<trkpt lat="44.94076000" lon="4.79591500"><ele></ele><time>2014-6-5T15:30:9Z</time></trkpt>
<trkpt lat="44.94090300" lon="4.79556500"><ele></ele><time>2014-6-5T15:30:12Z</time></trkpt>
<trkpt lat="44.94105900" lon="4.79518100"><ele></ele><time>2014-6-5T15:30:15Z</time></trkpt>
<trkpt lat="44.94123100" lon="4.79497100"><ele></ele><time>2014-6-5T15:30:18Z</time></trkpt>
<trkpt lat="44.94133500" lon="4.79488000"><ele></ele><time>2014-6-5T15:30:21Z</time></trkpt>
<trkpt lat="44.94155500" lon="4.79481700"><ele></ele><time>2014-6-5T15:30:24Z</time></trkpt>
<trkpt lat="44.94180500" lon="4.79467500"><ele></ele><time>2014-6-5T15:30:27Z</time></trkpt>
<trkpt lat="44.94193800" lon="4.79431000"><ele></ele><time>2014-6-5T15:30:30Z</time></trkpt>
<trkpt lat="44.94196200" lon="4.79397800"><ele></ele><time>2014-6-5T15:30:33Z</time></trkpt>
<trkpt lat="44.94200400" lon="4.79356500"><ele></ele><time>2014-6-5T15:30:36Z</time></trkpt>
<trkpt lat="44.94202600" lon="4.79345200"><ele></ele><time>2014-6-5T15:30:39Z</time></trkpt>
<trkpt lat="44.94202200" lon="4.79309800"><ele></ele><time>2014-6-5T15:30:42Z</time></trkpt>
<trkpt lat="44.94201800" lon="4.79263700"><ele></ele><time>2014-6-5T15:30:45Z</time></trkpt>
<trkpt lat="44.94199400" lon="4.79221000"><ele></ele><time>2014-6-5T15:30:48Z</time></trkpt>
<trkpt lat="44.94186100" lon="4.79192200"><ele></ele><time>2014-6-5T15:30:51Z</time></trkpt>
<trkpt lat="44.94168500" lon="4.79158400"><ele></ele><time>2014-6-5T15:30:54Z</time></trkpt>
<trkpt lat="44.94166500" lon="4.79152900"><ele></ele><time>2014-6-5T15:30:57Z</time></trkpt>
<trkpt lat="44.94157100" lon="4.79119800"><ele></ele><time>2014-6-5T15:31:0Z</time></trkpt>
<trkpt lat="44.94137600" lon="4.79093800"><ele></ele><time>2014-6-5T15:31:3Z</time></trkpt>
<trkpt lat="44.94133600" lon="4.79089900"><ele></ele><time>2014-6-5T15:31:6Z</time></trkpt>
<trkpt lat="44.94121300" lon="4.79061400"><ele></ele><time>2014-6-5T15:31:9Z</time></trkpt>
<trkpt lat="44.94122500" lon="4.79047600"><ele></ele><time>2014-6-5T15:31:12Z</time></trkpt>
<trkpt lat="44.94133000" lon="4.78992700"><ele></ele><time>2014-6-5T15:31:15Z</time></trkpt>
<trkpt lat="44.94138100" lon="4.78981000"><ele></ele><time>2014-6-5T15:31:18Z</time></trkpt>
<trkpt lat="44.94148800" lon="4.78932500"><ele></ele><time>2014-6-5T15:31:21Z</time></trkpt>
<trkpt lat="44.94158100" lon="4.78879700"><ele></ele><time>2014-6-5T15:31:24Z</time></trkpt>
<trkpt lat="44.94166300" lon="4.78851400"><ele></ele><time>2014-6-5T15:31:27Z</time></trkpt>
<trkpt lat="44.94172500" lon="4.78797500"><ele></ele><time>2014-6-5T15:31:30Z</time></trkpt>
<trkpt lat="44.94175900" lon="4.78739400"><ele></ele><time>2014-6-5T15:31:33Z</time></trkpt>
<trkpt lat="44.94184200" lon="4.78689400"><ele></ele><time>2014-6-5T15:31:36Z</time></trkpt>
<trkpt lat="44.94191300" lon="4.78666700"><ele></ele><time>2014-6-5T15:31:39Z</time></trkpt>
<trkpt lat="44.94199800" lon="4.78649700"><ele></ele><time>2014-6-5T15:31:42Z</time></trkpt>
<trkpt lat="44.94204200" lon="4.78633800"><ele></ele><time>2014-6-5T15:31:45Z</time></trkpt>
<trkpt lat="44.94215000" lon="4.78608400"><ele></ele><time>2014-6-5T15:31:48Z</time></trkpt>
<trkpt lat="44.94223400" lon="4.78596000"><ele></ele><time>2014-6-5T15:31:51Z</time></trkpt>
<trkpt lat="44.94235600" lon="4.78587900"><ele></ele><time>2014-6-5T15:31:54Z</time></trkpt>
<trkpt lat="44.94256300" lon="4.78580900"><ele></ele><time>2014-6-5T15:31:57Z</time></trkpt>
<trkpt lat="44.94273200" lon="4.78582800"><ele></ele><time>2014-6-5T15:32:0Z</time></trkpt>
<trkpt lat="44.94293800" lon="4.78586600"><ele></ele><time>2014-6-5T15:32:3Z</time></trkpt>
<trkpt lat="44.94316800" lon="4.78586100"><ele></ele><time>2014-6-5T15:32:6Z</time></trkpt>
<trkpt lat="44.94332500" lon="4.78574000"><ele></ele><time>2014-6-5T15:32:9Z</time></trkpt>
<trkpt lat="44.94342600" lon="4.78553900"><ele></ele><time>2014-6-5T15:32:12Z</time></trkpt>
<trkpt lat="44.94346300" lon="4.78523400"><ele></ele><time>2014-6-5T15:32:15Z</time></trkpt>
<trkpt lat="44.94344000" lon="4.78502300"><ele></ele><time>2014-6-5T15:32:18Z</time></trkpt>
<trkpt lat="44.94340100" lon="4.78476200"><ele></ele><time>2014-6-5T15:32:21Z</time></trkpt>
<trkpt lat="44.94337000" lon="4.78466000"><ele></ele><time>2014-6-5T15:32:24Z</time></trkpt>
<trkpt lat="44.94328200" lon="4.78412900"><ele></ele><time>2014-6-5T15:32:27Z</time></trkpt>
<trkpt lat="44.94322300" lon="4.78385700"><ele></ele><time>2014-6-5T15:32:30Z</time></trkpt>
<trkpt lat="44.94326800" lon="4.78355400"><ele></ele><time>2014-6-5T15:32:33Z</time></trkpt>
<trkpt lat="44.94343400" lon="4.78344100"><ele></ele><time>2014-6-5T15:32:36Z</time></trkpt>
<trkpt lat="44.94375200" lon="4.78330900"><ele></ele><time>2014-6-5T15:32:39Z</time></trkpt>
<trkpt lat="44.94408200" lon="4.78321900"><ele></ele><time>2014-6-5T15:32:42Z</time></trkpt>
<trkpt lat="44.94418800" lon="4.78314600"><ele></ele><time>2014-6-5T15:32:45Z</time></trkpt>
<trkpt lat="44.94433600" lon="4.78310300"><ele></ele><time>2014-6-5T15:32:48Z</time></trkpt>
<trkpt lat="44.94442600" lon="4.78308300"><ele></ele><time>2014-6-5T15:32:51Z</time></trkpt>
<trkpt lat="44.94455600" lon="4.78290100"><ele></ele><time>2014-6-5T15:32:54Z</time></trkpt>
<trkpt lat="44.94458100" lon="4.78274500"><ele></ele><time>2014-6-5T15:32:57Z</time></trkpt>
<trkpt lat="44.94462600" lon="4.78259000"><ele></ele><time>2014-6-5T15:33:0Z</time></trkpt>
<trkpt lat="44.94466200" lon="4.78229100"><ele></ele><time>2014-6-5T15:33:3Z</time></trkpt>
<trkpt lat="44.94456200" lon="4.78223000"><ele></ele><time>2014-6-5T15:33:6Z</time></trkpt>
<trkpt lat="44.94440900" lon="4.78210000"><ele></ele><time>2014-6-5T15:33:9Z</time></trkpt>
<trkpt lat="44.94412000" lon="4.78178800"><ele></ele><time>2014-6-5T15:33:12Z</time></trkpt>
<trkpt lat="44.94386800" lon="4.78155000"><ele></ele><time>2014-6-5T15:33:15Z</time></trkpt>
<trkpt lat="44.94360800" lon="4.78132700"><ele></ele><time>2014-6-5T15:33:18Z</time></trkpt>
<trkpt lat="44.94343200" lon="4.78119900"><ele></ele><time>2014-6-5T15:33:21Z</time></trkpt>
<trkpt lat="44.94330900" lon="4.78091500"><ele></ele><time>2014-6-5T15:33:24Z</time></trkpt>
<trkpt lat="44.94334500" lon="4.78054100"><ele></ele><time>2014-6-5T15:33:27Z</time></trkpt>
<trkpt lat="44.94341900" lon="4.78033300"><ele></ele><time>2014-6-5T15:33:30Z</time></trkpt>
<trkpt lat="44.94357000" lon="4.78016000"><ele></ele><time>2014-6-5T15:33:33Z</time></trkpt>
<trkpt lat="44.94378600" lon="4.77996600"><ele></ele><time>2014-6-5T15:33:36Z</time></trkpt>
<trkpt lat="44.94401100" lon="4.77979600"><ele></ele><time>2014-6-5T15:33:39Z</time></trkpt>
<trkpt lat="44.94409800" lon="4.77971300"><ele></ele><time>2014-6-5T15:33:42Z</time></trkpt>
<trkpt lat="44.94406900" lon="4.77960300"><ele></ele><time>2014-6-5T15:33:45Z</time></trkpt>
<trkpt lat="44.94403700" lon="4.77958600"><ele></ele><time>2014-6-5T15:33:48Z</time></trkpt>
<trkpt lat="44.94384500" lon="4.77949500"><ele></ele><time>2014-6-5T15:33:51Z</time></trkpt>
<trkpt lat="44.94364500" lon="4.77945100"><ele></ele><time>2014-6-5T15:33:54Z</time></trkpt>
<trkpt lat="44.94347400" lon="4.77936900"><ele></ele><time>2014-6-5T15:33:57Z</time></trkpt>
<trkpt lat="44.94336600" lon="4.77920600"><ele></ele><time>2014-6-5T15:34:0Z</time></trkpt>
<trkpt lat="44.94332500" lon="4.77894600"><ele></ele><time>2014-6-5T15:34:3Z</time></trkpt>
<trkpt lat="44.94331000" lon="4.77885900"><ele></ele><time>2014-6-5T15:34:6Z</time></trkpt>
<trkpt lat="44.94324700" lon="4.77888800"><ele></ele><time>2014-6-5T15:34:9Z</time></trkpt>
<trkpt lat="44.94318300" lon="4.77900800"><ele></ele><time>2014-6-5T15:34:12Z</time></trkpt>
<trkpt lat="44.94298600" lon="4.77915200"><ele></ele><time>2014-6-5T15:34:15Z</time></trkpt>
<trkpt lat="44.94288400" lon="4.77921400"><ele></ele><time>2014-6-5T15:34:18Z</time></trkpt>
<trkpt lat="44.94277500" lon="4.77923700"><ele></ele><time>2014-6-5T15:34:21Z</time></trkpt>
<trkpt lat="44.94275300" lon="4.77923000"><ele></ele><time>2014-6-5T15:34:24Z</time></trkpt>
<trkpt lat="44.94271300" lon="4.77909900"><ele></ele><time>2014-6-5T15:34:27Z</time></trkpt>
<trkpt lat="44.94278700" lon="4.77897700"><ele></ele><time>2014-6-5T15:34:30Z</time></trkpt>
<trkpt lat="44.94280400" lon="4.77894900"><ele></ele><time>2014-6-5T15:34:33Z</time></trkpt>
<trkpt lat="44.94289200" lon="4.77881700"><ele></ele><time>2014-6-5T15:34:36Z</time></trkpt>
<trkpt lat="44.94299000" lon="4.77868700"><ele></ele><time>2014-6-5T15:34:39Z</time></trkpt>
<trkpt lat="44.94303600" lon="4.77860900"><ele></ele><time>2014-6-5T15:34:42Z</time></trkpt>
<trkpt lat="44.94314400" lon="4.77843000"><ele></ele><time>2014-6-5T15:34:45Z</time></trkpt>
<trkpt lat="44.94323900" lon="4.77831000"><ele></ele><time>2014-6-5T15:34:48Z</time></trkpt>
<trkpt lat="44.94329700" lon="4.77815900"><ele></ele><time>2014-6-5T15:34:51Z</time></trkpt>
<trkpt lat="44.94335300" lon="4.77799300"><ele></ele><time>2014-6-5T15:34:54Z</time></trkpt>
<trkpt lat="44.94341200" lon="4.77779700"><ele></ele><time>2014-6-5T15:34:57Z</time></trkpt>
<trkpt lat="44.94346200" lon="4.77754800"><ele></ele><time>2014-6-5T15:35:0Z</time></trkpt>
<trkpt lat="44.94352800" lon="4.77724400"><ele></ele><time>2014-6-5T15:35:3Z</time></trkpt>
<trkpt lat="44.94360400" lon="4.77693700"><ele></ele><time>2014-6-5T15:35:6Z</time></trkpt>
<trkpt lat="44.94365400" lon="4.77660000"><ele></ele><time>2014-6-5T15:35:9Z</time></trkpt>
<trkpt lat="44.94371400" lon="4.77636800"><ele></ele><time>2014-6-5T15:35:12Z</time></trkpt>
<trkpt lat="44.94374400" lon="4.77629800"><ele></ele><time>2014-6-5T15:35:15Z</time></trkpt>
<trkpt lat="44.94369000" lon="4.77617700"><ele></ele><time>2014-6-5T15:35:18Z</time></trkpt>
<trkpt lat="44.94366900" lon="4.77615800"><ele></ele><time>2014-6-5T15:35:21Z</time></trkpt>
<trkpt lat="44.94363400" lon="4.77611700"><ele></ele><time>2014-6-5T15:35:24Z</time></trkpt>
<trkpt lat="44.94353700" lon="4.77614700"><ele></ele><time>2014-6-5T15:35:27Z</time></trkpt>
<trkpt lat="44.94334900" lon="4.77623200"><ele></ele><time>2014-6-5T15:35:30Z</time></trkpt>
<trkpt lat="44.94332400" lon="4.77633700"><ele></ele><time>2014-6-5T15:35:33Z</time></trkpt>
<trkpt lat="44.94318400" lon="4.77641600"><ele></ele><time>2014-6-5T15:35:36Z</time></trkpt>
<trkpt lat="44.94304600" lon="4.77654900"><ele></ele><time>2014-6-5T15:35:39Z</time></trkpt>
<trkpt lat="44.94300400" lon="4.77661300"><ele></ele><time>2014-6-5T15:35:42Z</time></trkpt>
<trkpt lat="44.94290900" lon="4.77667200"><ele></ele><time>2014-6-5T15:35:45Z</time></trkpt>
<trkpt lat="44.94276500" lon="4.77671300"><ele></ele><time>2014-6-5T15:35:48Z</time></trkpt>
<trkpt lat="44.94260700" lon="4.77677400"><ele></ele><time>2014-6-5T15:35:51Z</time></trkpt>
<trkpt lat="44.94244900" lon="4.77682500"><ele></ele><time>2014-6-5T15:35:54Z</time></trkpt>
<trkpt lat="44.94226300" lon="4.77684400"><ele></ele><time>2014-6-5T15:35:57Z</time></trkpt>
<trkpt lat="44.94209700" lon="4.77681900"><ele></ele><time>2014-6-5T15:36:0Z</time></trkpt>
<trkpt lat="44.94198800" lon="4.77669200"><ele></ele><time>2014-6-5T15:36:3Z</time></trkpt>
<trkpt lat="44.94190700" lon="4.77650700"><ele></ele><time>2014-6-5T15:36:6Z</time></trkpt>
<trkpt lat="44.94180900" lon="4.77629600"><ele></ele><time>2014-6-5T15:36:9Z</time></trkpt>
<trkpt lat="44.94168200" lon="4.77603300"><ele></ele><time>2014-6-5T15:36:12Z</time></trkpt>
<trkpt lat="44.94164100" lon="4.77589400"><ele></ele><time>2014-6-5T15:36:15Z</time></trkpt>
<trkpt lat="44.94153500" lon="4.77590900"><ele></ele><time>2014-6-5T15:36:18Z</time></trkpt>
<trkpt lat="44.94145800" lon="4.77601400"><ele></ele><time>2014-6-5T15:36:21Z</time></trkpt>
<trkpt lat="44.94136800" lon="4.77607700"><ele></ele><time>2014-6-5T15:36:24Z</time></trkpt>
<trkpt lat="44.94126400" lon="4.77612000"><ele></ele><time>2014-6-5T15:36:27Z</time></trkpt>
<trkpt lat="44.94115500" lon="4.77616000"><ele></ele><time>2014-6-5T15:36:30Z</time></trkpt>
<trkpt lat="44.94106500" lon="4.77615100"><ele></ele><time>2014-6-5T15:36:33Z</time></trkpt>
<trkpt lat="44.94094500" lon="4.77613300"><ele></ele><time>2014-6-5T15:36:36Z</time></trkpt>
<trkpt lat="44.94081300" lon="4.77615600"><ele></ele><time>2014-6-5T15:36:39Z</time></trkpt>
<trkpt lat="44.94075000" lon="4.77620000"><ele></ele><time>2014-6-5T15:36:42Z</time></trkpt>
<trkpt lat="44.94063000" lon="4.77625800"><ele></ele><time>2014-6-5T15:36:45Z</time></trkpt>
<trkpt lat="44.94047100" lon="4.77627600"><ele></ele><time>2014-6-5T15:36:48Z</time></trkpt>
<trkpt lat="44.94034000" lon="4.77626200"><ele></ele><time>2014-6-5T15:36:51Z</time></trkpt>
<trkpt lat="44.94022900" lon="4.77616300"><ele></ele><time>2014-6-5T15:36:54Z</time></trkpt>
<trkpt lat="44.94019800" lon="4.77602300"><ele></ele><time>2014-6-5T15:36:57Z</time></trkpt>
<trkpt lat="44.94013000" lon="4.77577800"><ele></ele><time>2014-6-5T15:37:0Z</time></trkpt>
<trkpt lat="44.94010300" lon="4.77561400"><ele></ele><time>2014-6-5T15:37:3Z</time></trkpt>
<trkpt lat="44.94004600" lon="4.77548100"><ele></ele><time>2014-6-5T15:37:6Z</time></trkpt>
<trkpt lat="44.94000000" lon="4.77529200"><ele></ele><time>2014-6-5T15:37:9Z</time></trkpt>
<trkpt lat="44.93998800" lon="4.77513500"><ele></ele><time>2014-6-5T15:37:12Z</time></trkpt>
<trkpt lat="44.94002900" lon="4.77492700"><ele></ele><time>2014-6-5T15:37:15Z</time></trkpt>
<trkpt lat="44.94014500" lon="4.77476600"><ele></ele><time>2014-6-5T15:37:18Z</time></trkpt>
<trkpt lat="44.94027300" lon="4.77464300"><ele></ele><time>2014-6-5T15:37:21Z</time></trkpt>
<trkpt lat="44.94039500" lon="4.77454700"><ele></ele><time>2014-6-5T15:37:24Z</time></trkpt>
<trkpt lat="44.94053000" lon="4.77445200"><ele></ele><time>2014-6-5T15:37:27Z</time></trkpt>
<trkpt lat="44.94069700" lon="4.77436900"><ele></ele><time>2014-6-5T15:37:30Z</time></trkpt>
<trkpt lat="44.94084900" lon="4.77435400"><ele></ele><time>2014-6-5T15:37:33Z</time></trkpt>
<trkpt lat="44.94099900" lon="4.77432200"><ele></ele><time>2014-6-5T15:37:36Z</time></trkpt>
<trkpt lat="44.94118500" lon="4.77429400"><ele></ele><time>2014-6-5T15:37:39Z</time></trkpt>
<trkpt lat="44.94128100" lon="4.77431200"><ele></ele><time>2014-6-5T15:37:42Z</time></trkpt>
<trkpt lat="44.94138100" lon="4.77430400"><ele></ele><time>2014-6-5T15:37:45Z</time></trkpt>
<trkpt lat="44.94150400" lon="4.77418400"><ele></ele><time>2014-6-5T15:37:48Z</time></trkpt>
<trkpt lat="44.94149500" lon="4.77404600"><ele></ele><time>2014-6-5T15:37:51Z</time></trkpt>
<trkpt lat="44.94146700" lon="4.77380000"><ele></ele><time>2014-6-5T15:37:54Z</time></trkpt>
<trkpt lat="44.94145800" lon="4.77356000"><ele></ele><time>2014-6-5T15:37:57Z</time></trkpt>
<trkpt lat="44.94147100" lon="4.77330300"><ele></ele><time>2014-6-5T15:38:0Z</time></trkpt>
<trkpt lat="44.94143600" lon="4.77309200"><ele></ele><time>2014-6-5T15:38:3Z</time></trkpt>
<trkpt lat="44.94134400" lon="4.77285500"><ele></ele><time>2014-6-5T15:38:6Z</time></trkpt>
<trkpt lat="44.94124300" lon="4.77269800"><ele></ele><time>2014-6-5T15:38:9Z</time></trkpt>
<trkpt lat="44.94101700" lon="4.77252700"><ele></ele><time>2014-6-5T15:38:12Z</time></trkpt>
<trkpt lat="44.94074400" lon="4.77234500"><ele></ele><time>2014-6-5T15:38:15Z</time></trkpt>
<trkpt lat="44.94054500" lon="4.77212100"><ele></ele><time>2014-6-5T15:38:18Z</time></trkpt>
<trkpt lat="44.94038200" lon="4.77182400"><ele></ele><time>2014-6-5T15:38:21Z</time></trkpt>
<trkpt lat="44.94037200" lon="4.77151500"><ele></ele><time>2014-6-5T15:38:24Z</time></trkpt>
<trkpt lat="44.94045900" lon="4.77128200"><ele></ele><time>2014-6-5T15:38:27Z</time></trkpt>
<trkpt lat="44.94064000" lon="4.77108500"><ele></ele><time>2014-6-5T15:38:30Z</time></trkpt>
<trkpt lat="44.94067900" lon="4.77105700"><ele></ele><time>2014-6-5T15:38:33Z</time></trkpt>
<trkpt lat="44.94099500" lon="4.77089400"><ele></ele><time>2014-6-5T15:38:36Z</time></trkpt>
<trkpt lat="44.94130200" lon="4.77062900"><ele></ele><time>2014-6-5T15:38:39Z</time></trkpt>
<trkpt lat="44.94150100" lon="4.77021400"><ele></ele><time>2014-6-5T15:38:42Z</time></trkpt>
<trkpt lat="44.94152900" lon="4.77006500"><ele></ele><time>2014-6-5T15:38:45Z</time></trkpt>
<trkpt lat="44.94152600" lon="4.76976300"><ele></ele><time>2014-6-5T15:38:48Z</time></trkpt>
<trkpt lat="44.94146100" lon="4.76935300"><ele></ele><time>2014-6-5T15:38:51Z</time></trkpt>
<trkpt lat="44.94148800" lon="4.76868800"><ele></ele><time>2014-6-5T15:38:54Z</time></trkpt>
<trkpt lat="44.94157700" lon="4.76782000"><ele></ele><time>2014-6-5T15:38:57Z</time></trkpt>
<trkpt lat="44.94162600" lon="4.76734500"><ele></ele><time>2014-6-5T15:39:0Z</time></trkpt>
<trkpt lat="44.94160500" lon="4.76677400"><ele></ele><time>2014-6-5T15:39:3Z</time></trkpt>
<trkpt lat="44.94150400" lon="4.76608100"><ele></ele><time>2014-6-5T15:39:6Z</time></trkpt>
<trkpt lat="44.94137400" lon="4.76523500"><ele></ele><time>2014-6-5T15:39:9Z</time></trkpt>
<trkpt lat="44.94124900" lon="4.76478600"><ele></ele><time>2014-6-5T15:39:12Z</time></trkpt>
<trkpt lat="44.94104400" lon="4.76440800"><ele></ele><time>2014-6-5T15:39:15Z</time></trkpt>
<trkpt lat="44.94081000" lon="4.76413100"><ele></ele><time>2014-6-5T15:39:18Z</time></trkpt>
<trkpt lat="44.94042900" lon="4.76382900"><ele></ele><time>2014-6-5T15:39:21Z</time></trkpt>
<trkpt lat="44.94004200" lon="4.76348700"><ele></ele><time>2014-6-5T15:39:24Z</time></trkpt>
<trkpt lat="44.93970200" lon="4.76305000"><ele></ele><time>2014-6-5T15:39:27Z</time></trkpt>
<trkpt lat="44.93953200" lon="4.76285000"><ele></ele><time>2014-6-5T15:39:30Z</time></trkpt>
<trkpt lat="44.93927200" lon="4.76272500"><ele></ele><time>2014-6-5T15:39:33Z</time></trkpt>
<trkpt lat="44.93896700" lon="4.76266300"><ele></ele><time>2014-6-5T15:39:36Z</time></trkpt>
<trkpt lat="44.93870200" lon="4.76244900"><ele></ele><time>2014-6-5T15:39:39Z</time></trkpt>
<trkpt lat="44.93855300" lon="4.76210700"><ele></ele><time>2014-6-5T15:39:42Z</time></trkpt>
<trkpt lat="44.93853700" lon="4.76203400"><ele></ele><time>2014-6-5T15:39:45Z</time></trkpt>
<trkpt lat="44.93848600" lon="4.76144000"><ele></ele><time>2014-6-5T15:39:48Z</time></trkpt>
<trkpt lat="44.93836000" lon="4.76084500"><ele></ele><time>2014-6-5T15:39:51Z</time></trkpt>
<trkpt lat="44.93824300" lon="4.76029800"><ele></ele><time>2014-6-5T15:39:54Z</time></trkpt>
<trkpt lat="44.93824000" lon="4.76013300"><ele></ele><time>2014-6-5T15:39:57Z</time></trkpt>
<trkpt lat="44.93832900" lon="4.75959300"><ele></ele><time>2014-6-5T15:40:0Z</time></trkpt>
<trkpt lat="44.93839700" lon="4.75893900"><ele></ele><time>2014-6-5T15:40:3Z</time></trkpt>
<trkpt lat="44.93848700" lon="4.75831000"><ele></ele><time>2014-6-5T15:40:6Z</time></trkpt>
<trkpt lat="44.93853200" lon="4.75811200"><ele></ele><time>2014-6-5T15:40:9Z</time></trkpt>
<trkpt lat="44.93854000" lon="4.75781000"><ele></ele><time>2014-6-5T15:40:12Z</time></trkpt>
<trkpt lat="44.93845000" lon="4.75745000"><ele></ele><time>2014-6-5T15:40:15Z</time></trkpt>
<trkpt lat="44.93842800" lon="4.75709400"><ele></ele><time>2014-6-5T15:40:18Z</time></trkpt>
<trkpt lat="44.93842700" lon="4.75686700"><ele></ele><time>2014-6-5T15:40:21Z</time></trkpt>
<trkpt lat="44.93837500" lon="4.75656100"><ele></ele><time>2014-6-5T15:40:24Z</time></trkpt>
<trkpt lat="44.93834200" lon="4.75637700"><ele></ele><time>2014-6-5T15:40:27Z</time></trkpt>
<trkpt lat="44.93831100" lon="4.75617800"><ele></ele><time>2014-6-5T15:40:30Z</time></trkpt>
<trkpt lat="44.93828000" lon="4.75598200"><ele></ele><time>2014-6-5T15:40:33Z</time></trkpt>
<trkpt lat="44.93823400" lon="4.75579700"><ele></ele><time>2014-6-5T15:40:36Z</time></trkpt>
<trkpt lat="44.93817400" lon="4.75559500"><ele></ele><time>2014-6-5T15:40:39Z</time></trkpt>
<trkpt lat="44.93813100" lon="4.75539800"><ele></ele><time>2014-6-5T15:40:42Z</time></trkpt>
<trkpt lat="44.93808800" lon="4.75523400"><ele></ele><time>2014-6-5T15:40:45Z</time></trkpt>
<trkpt lat="44.93805200" lon="4.75497300"><ele></ele><time>2014-6-5T15:40:48Z</time></trkpt>
<trkpt lat="44.93803500" lon="4.75484700"><ele></ele><time>2014-6-5T15:40:51Z</time></trkpt>
<trkpt lat="44.93805500" lon="4.75476900"><ele></ele><time>2014-6-5T15:40:54Z</time></trkpt>
<trkpt lat="44.93819000" lon="4.75470000"><ele></ele><time>2014-6-5T15:40:57Z</time></trkpt>
<trkpt lat="44.93832400" lon="4.75464100"><ele></ele><time>2014-6-5T15:41:0Z</time></trkpt>
<trkpt lat="44.93849900" lon="4.75456300"><ele></ele><time>2014-6-5T15:41:3Z</time></trkpt>
<trkpt lat="44.93866600" lon="4.75445600"><ele></ele><time>2014-6-5T15:41:6Z</time></trkpt>
<trkpt lat="44.93880400" lon="4.75436700"><ele></ele><time>2014-6-5T15:41:9Z</time></trkpt>
<trkpt lat="44.93890600" lon="4.75429100"><ele></ele><time>2014-6-5T15:41:12Z</time></trkpt>
<trkpt lat="44.93900400" lon="4.75422700"><ele></ele><time>2014-6-5T15:41:15Z</time></trkpt>
<trkpt lat="44.93913800" lon="4.75418300"><ele></ele><time>2014-6-5T15:41:18Z</time></trkpt>
<trkpt lat="44.93932400" lon="4.75408100"><ele></ele><time>2014-6-5T15:41:21Z</time></trkpt>
<trkpt lat="44.93944900" lon="4.75391300"><ele></ele><time>2014-6-5T15:41:24Z</time></trkpt>
<trkpt lat="44.93953400" lon="4.75376400"><ele></ele><time>2014-6-5T15:41:27Z</time></trkpt>
<trkpt lat="44.93957500" lon="4.75357400"><ele></ele><time>2014-6-5T15:41:30Z</time></trkpt>
<trkpt lat="44.93955400" lon="4.75334500"><ele></ele><time>2014-6-5T15:41:33Z</time></trkpt>
<trkpt lat="44.93945300" lon="4.75308100"><ele></ele><time>2014-6-5T15:41:36Z</time></trkpt>
<trkpt lat="44.93928400" lon="4.75265700"><ele></ele><time>2014-6-5T15:41:39Z</time></trkpt>
<trkpt lat="44.93906000" lon="4.75206100"><ele></ele><time>2014-6-5T15:41:42Z</time></trkpt>
<trkpt lat="44.93894500" lon="4.75155100"><ele></ele><time>2014-6-5T15:41:45Z</time></trkpt>
<trkpt lat="44.93892200" lon="4.75117700"><ele></ele><time>2014-6-5T15:41:48Z</time></trkpt>
<trkpt lat="44.93892300" lon="4.75111300"><ele></ele><time>2014-6-5T15:41:51Z</time></trkpt>
<trkpt lat="44.93893500" lon="4.75093000"><ele></ele><time>2014-6-5T15:41:54Z</time></trkpt>
<trkpt lat="44.93895100" lon="4.75067300"><ele></ele><time>2014-6-5T15:41:57Z</time></trkpt>
<trkpt lat="44.93895900" lon="4.75044800"><ele></ele><time>2014-6-5T15:42:0Z</time></trkpt>
<trkpt lat="44.93901700" lon="4.75012800"><ele></ele><time>2014-6-5T15:42:3Z</time></trkpt>
<trkpt lat="44.93902400" lon="4.75002400"><ele></ele><time>2014-6-5T15:42:6Z</time></trkpt>
<trkpt lat="44.93915500" lon="4.74972300"><ele></ele><time>2014-6-5T15:42:9Z</time></trkpt>
<trkpt lat="44.93935800" lon="4.74938900"><ele></ele><time>2014-6-5T15:42:12Z</time></trkpt>
<trkpt lat="44.93949900" lon="4.74898500"><ele></ele><time>2014-6-5T15:42:15Z</time></trkpt>
<trkpt lat="44.93958600" lon="4.74868900"><ele></ele><time>2014-6-5T15:42:18Z</time></trkpt>
<trkpt lat="44.93958100" lon="4.74831200"><ele></ele><time>2014-6-5T15:42:21Z</time></trkpt>
<trkpt lat="44.93955400" lon="4.74811800"><ele></ele><time>2014-6-5T15:42:24Z</time></trkpt>
<trkpt lat="44.93956300" lon="4.74797900"><ele></ele><time>2014-6-5T15:42:27Z</time></trkpt>
<trkpt lat="44.93966900" lon="4.74761400"><ele></ele><time>2014-6-5T15:42:30Z</time></trkpt>
<trkpt lat="44.93976600" lon="4.74743200"><ele></ele><time>2014-6-5T15:42:33Z</time></trkpt>
<trkpt lat="44.93984600" lon="4.74703000"><ele></ele><time>2014-6-5T15:42:36Z</time></trkpt>
<trkpt lat="44.93978100" lon="4.74664600"><ele></ele><time>2014-6-5T15:42:39Z</time></trkpt>
<trkpt lat="44.93967900" lon="4.74646100"><ele></ele><time>2014-6-5T15:42:42Z</time></trkpt>
<trkpt lat="44.93954800" lon="4.74621000"><ele></ele><time>2014-6-5T15:42:45Z</time></trkpt>
<trkpt lat="44.93943100" lon="4.74600500"><ele></ele><time>2014-6-5T15:42:48Z</time></trkpt>
<trkpt lat="44.93925400" lon="4.74585600"><ele></ele><time>2014-6-5T15:42:51Z</time></trkpt>
<trkpt lat="44.93919900" lon="4.74576300"><ele></ele><time>2014-6-5T15:42:54Z</time></trkpt>
<trkpt lat="44.93921800" lon="4.74574600"><ele></ele><time>2014-6-5T15:42:57Z</time></trkpt>
<trkpt lat="44.93936700" lon="4.74561600"><ele></ele><time>2014-6-5T15:43:0Z</time></trkpt>
<trkpt lat="44.93939800" lon="4.74557800"><ele></ele><time>2014-6-5T15:43:3Z</time></trkpt>
<trkpt lat="44.93961700" lon="4.74519900"><ele></ele><time>2014-6-5T15:43:6Z</time></trkpt>
<trkpt lat="44.93975800" lon="4.74471100"><ele></ele><time>2014-6-5T15:43:9Z</time></trkpt>
<trkpt lat="44.93987800" lon="4.74405100"><ele></ele><time>2014-6-5T15:43:12Z</time></trkpt>
<trkpt lat="44.93997100" lon="4.74332800"><ele></ele><time>2014-6-5T15:43:15Z</time></trkpt>
<trkpt lat="44.94011300" lon="4.74292500"><ele></ele><time>2014-6-5T15:43:18Z</time></trkpt>
<trkpt lat="44.94037200" lon="4.74264300"><ele></ele><time>2014-6-5T15:43:21Z</time></trkpt>
<trkpt lat="44.94075300" lon="4.74242300"><ele></ele><time>2014-6-5T15:43:24Z</time></trkpt>
<trkpt lat="44.94116600" lon="4.74238100"><ele></ele><time>2014-6-5T15:43:27Z</time></trkpt>
<trkpt lat="44.94144300" lon="4.74213100"><ele></ele><time>2014-6-5T15:43:30Z</time></trkpt>
<trkpt lat="44.94146100" lon="4.74201600"><ele></ele><time>2014-6-5T15:43:33Z</time></trkpt>
<trkpt lat="44.94168300" lon="4.74154900"><ele></ele><time>2014-6-5T15:43:36Z</time></trkpt>
<trkpt lat="44.94205500" lon="4.74133300"><ele></ele><time>2014-6-5T15:43:39Z</time></trkpt>
<trkpt lat="44.94217400" lon="4.74129300"><ele></ele><time>2014-6-5T15:43:42Z</time></trkpt>
<trkpt lat="44.94226100" lon="4.74120700"><ele></ele><time>2014-6-5T15:43:45Z</time></trkpt>
<trkpt lat="44.94221200" lon="4.74114300"><ele></ele><time>2014-6-5T15:43:48Z</time></trkpt>
<trkpt lat="44.94219300" lon="4.74114100"><ele></ele><time>2014-6-5T15:43:51Z</time></trkpt>
<trkpt lat="44.94200200" lon="4.74110600"><ele></ele><time>2014-6-5T15:43:54Z</time></trkpt>
<trkpt lat="44.94179400" lon="4.74093600"><ele></ele><time>2014-6-5T15:43:57Z</time></trkpt>
<trkpt lat="44.94169400" lon="4.74069700"><ele></ele><time>2014-6-5T15:44:0Z</time></trkpt>
<trkpt lat="44.94161800" lon="4.74039700"><ele></ele><time>2014-6-5T15:44:3Z</time></trkpt>
<trkpt lat="44.94158900" lon="4.74022400"><ele></ele><time>2014-6-5T15:44:6Z</time></trkpt>
<trkpt lat="44.94158300" lon="4.73992600"><ele></ele><time>2014-6-5T15:44:9Z</time></trkpt>
<trkpt lat="44.94162100" lon="4.73963700"><ele></ele><time>2014-6-5T15:44:12Z</time></trkpt>
<trkpt lat="44.94173100" lon="4.73935600"><ele></ele><time>2014-6-5T15:44:15Z</time></trkpt>
<trkpt lat="44.94191500" lon="4.73892700"><ele></ele><time>2014-6-5T15:44:18Z</time></trkpt>
<trkpt lat="44.94201900" lon="4.73864100"><ele></ele><time>2014-6-5T15:44:21Z</time></trkpt>
<trkpt lat="44.94208100" lon="4.73845000"><ele></ele><time>2014-6-5T15:44:24Z</time></trkpt>
<trkpt lat="44.94215500" lon="4.73826300"><ele></ele><time>2014-6-5T15:44:27Z</time></trkpt>
<trkpt lat="44.94229100" lon="4.73792200"><ele></ele><time>2014-6-5T15:44:30Z</time></trkpt>
<trkpt lat="44.94238000" lon="4.73767400"><ele></ele><time>2014-6-5T15:44:33Z</time></trkpt>
<trkpt lat="44.94247100" lon="4.73748200"><ele></ele><time>2014-6-5T15:44:36Z</time></trkpt>
<trkpt lat="44.94261000" lon="4.73717200"><ele></ele><time>2014-6-5T15:44:39Z</time></trkpt>
<trkpt lat="44.94274800" lon="4.73686400"><ele></ele><time>2014-6-5T15:44:42Z</time></trkpt>
<trkpt lat="44.94288300" lon="4.73653600"><ele></ele><time>2014-6-5T15:44:45Z</time></trkpt>
<trkpt lat="44.94300700" lon="4.73622600"><ele></ele><time>2014-6-5T15:44:48Z</time></trkpt>
<trkpt lat="44.94310700" lon="4.73593400"><ele></ele><time>2014-6-5T15:44:51Z</time></trkpt>
<trkpt lat="44.94321200" lon="4.73560600"><ele></ele><time>2014-6-5T15:44:54Z</time></trkpt>
<trkpt lat="44.94329600" lon="4.73533300"><ele></ele><time>2014-6-5T15:44:57Z</time></trkpt>
<trkpt lat="44.94339000" lon="4.73493000"><ele></ele><time>2014-6-5T15:45:0Z</time></trkpt>
<trkpt lat="44.94354100" lon="4.73448000"><ele></ele><time>2014-6-5T15:45:3Z</time></trkpt>
<trkpt lat="44.94373200" lon="4.73386500"><ele></ele><time>2014-6-5T15:45:6Z</time></trkpt>
<trkpt lat="44.94387000" lon="4.73337700"><ele></ele><time>2014-6-5T15:45:9Z</time></trkpt>
<trkpt lat="44.94402600" lon="4.73275700"><ele></ele><time>2014-6-5T15:45:12Z</time></trkpt>
<trkpt lat="44.94416800" lon="4.73213900"><ele></ele><time>2014-6-5T15:45:15Z</time></trkpt>
<trkpt lat="44.94427700" lon="4.73174000"><ele></ele><time>2014-6-5T15:45:18Z</time></trkpt>
<trkpt lat="44.94439600" lon="4.73129300"><ele></ele><time>2014-6-5T15:45:21Z</time></trkpt>
<trkpt lat="44.94449100" lon="4.73086800"><ele></ele><time>2014-6-5T15:45:24Z</time></trkpt>
<trkpt lat="44.94448700" lon="4.73061200"><ele></ele><time>2014-6-5T15:45:27Z</time></trkpt>
<trkpt lat="44.94432000" lon="4.73030500"><ele></ele><time>2014-6-5T15:45:30Z</time></trkpt>
<trkpt lat="44.94403600" lon="4.72986300"><ele></ele><time>2014-6-5T15:45:33Z</time></trkpt>
<trkpt lat="44.94367100" lon="4.72938100"><ele></ele><time>2014-6-5T15:45:36Z</time></trkpt>
<trkpt lat="44.94350600" lon="4.72917300"><ele></ele><time>2014-6-5T15:45:39Z</time></trkpt>
<trkpt lat="44.94347700" lon="4.72915700"><ele></ele><time>2014-6-5T15:45:42Z</time></trkpt>
<trkpt lat="44.94334500" lon="4.72922000"><ele></ele><time>2014-6-5T15:45:45Z</time></trkpt>
<trkpt lat="44.94301100" lon="4.72956400"><ele></ele><time>2014-6-5T15:45:48Z</time></trkpt>
<trkpt lat="44.94295000" lon="4.72963000"><ele></ele><time>2014-6-5T15:45:51Z</time></trkpt>
<trkpt lat="44.94285100" lon="4.72976600"><ele></ele><time>2014-6-5T15:45:54Z</time></trkpt>
<trkpt lat="44.94255600" lon="4.72993900"><ele></ele><time>2014-6-5T15:45:57Z</time></trkpt>
<trkpt lat="44.94235100" lon="4.73001400"><ele></ele><time>2014-6-5T15:46:0Z</time></trkpt>
<trkpt lat="44.94190500" lon="4.73030100"><ele></ele><time>2014-6-5T15:46:3Z</time></trkpt>
<trkpt lat="44.94126800" lon="4.73057300"><ele></ele><time>2014-6-5T15:46:6Z</time></trkpt>
<trkpt lat="44.94034500" lon="4.73090400"><ele></ele><time>2014-6-5T15:46:9Z</time></trkpt>
<trkpt lat="44.94016500" lon="4.73096600"><ele></ele><time>2014-6-5T15:46:12Z</time></trkpt>
<trkpt lat="44.93969500" lon="4.73097600"><ele></ele><time>2014-6-5T15:46:15Z</time></trkpt>
<trkpt lat="44.93933000" lon="4.73107500"><ele></ele><time>2014-6-5T15:46:18Z</time></trkpt>
<trkpt lat="44.93881000" lon="4.73130800"><ele></ele><time>2014-6-5T15:46:21Z</time></trkpt>
<trkpt lat="44.93849300" lon="4.73155700"><ele></ele><time>2014-6-5T15:46:24Z</time></trkpt>
<trkpt lat="44.93832500" lon="4.73167500"><ele></ele><time>2014-6-5T15:46:27Z</time></trkpt>
<trkpt lat="44.93817600" lon="4.73173800"><ele></ele><time>2014-6-5T15:46:30Z</time></trkpt>
<trkpt lat="44.93797300" lon="4.73172800"><ele></ele><time>2014-6-5T15:46:33Z</time></trkpt>
<trkpt lat="44.93771900" lon="4.73170500"><ele></ele><time>2014-6-5T15:46:36Z</time></trkpt>
<trkpt lat="44.93751600" lon="4.73166600"><ele></ele><time>2014-6-5T15:46:39Z</time></trkpt>
<trkpt lat="44.93733900" lon="4.73161000"><ele></ele><time>2014-6-5T15:46:42Z</time></trkpt>
<trkpt lat="44.93710400" lon="4.73149300"><ele></ele><time>2014-6-5T15:46:45Z</time></trkpt>
<trkpt lat="44.93697000" lon="4.73133700"><ele></ele><time>2014-6-5T15:46:48Z</time></trkpt>
<trkpt lat="44.93689500" lon="4.73112100"><ele></ele><time>2014-6-5T15:46:51Z</time></trkpt>
<trkpt lat="44.93678600" lon="4.73107000"><ele></ele><time>2014-6-5T15:46:54Z</time></trkpt>
<trkpt lat="44.93665600" lon="4.73117600"><ele></ele><time>2014-6-5T15:46:57Z</time></trkpt>
<trkpt lat="44.93650200" lon="4.73140900"><ele></ele><time>2014-6-5T15:47:0Z</time></trkpt>
<trkpt lat="44.93638100" lon="4.73155700"><ele></ele><time>2014-6-5T15:47:3Z</time></trkpt>
<trkpt lat="44.93624500" lon="4.73160300"><ele></ele><time>2014-6-5T15:47:6Z</time></trkpt>
<trkpt lat="44.93614100" lon="4.73160500"><ele></ele><time>2014-6-5T15:47:9Z</time></trkpt>
<trkpt lat="44.93603300" lon="4.73155100"><ele></ele><time>2014-6-5T15:47:12Z</time></trkpt>
<trkpt lat="44.93587300" lon="4.73151800"><ele></ele><time>2014-6-5T15:47:15Z</time></trkpt>
<trkpt lat="44.93574500" lon="4.73151800"><ele></ele><time>2014-6-5T15:47:18Z</time></trkpt>
<trkpt lat="44.93564900" lon="4.73152900"><ele></ele><time>2014-6-5T15:47:21Z</time></trkpt>
<trkpt lat="44.93550600" lon="4.73155700"><ele></ele><time>2014-6-5T15:47:24Z</time></trkpt>
<trkpt lat="44.93541700" lon="4.73156900"><ele></ele><time>2014-6-5T15:47:27Z</time></trkpt>
<trkpt lat="44.93528600" lon="4.73159400"><ele></ele><time>2014-6-5T15:47:30Z</time></trkpt>
<trkpt lat="44.93515100" lon="4.73161900"><ele></ele><time>2014-6-5T15:47:33Z</time></trkpt>
<trkpt lat="44.93499100" lon="4.73165400"><ele></ele><time>2014-6-5T15:47:36Z</time></trkpt>
<trkpt lat="44.93489000" lon="4.73168400"><ele></ele><time>2014-6-5T15:47:39Z</time></trkpt>
<trkpt lat="44.93482000" lon="4.73171400"><ele></ele><time>2014-6-5T15:47:42Z</time></trkpt>
<trkpt lat="44.93469600" lon="4.73179300"><ele></ele><time>2014-6-5T15:47:45Z</time></trkpt>
<trkpt lat="44.93458600" lon="4.73186000"><ele></ele><time>2014-6-5T15:47:48Z</time></trkpt>
<trkpt lat="44.93438400" lon="4.73191900"><ele></ele><time>2014-6-5T15:47:51Z</time></trkpt>
<trkpt lat="44.93423900" lon="4.73193500"><ele></ele><time>2014-6-5T15:47:54Z</time></trkpt>
<trkpt lat="44.93421400" lon="4.73194600"><ele></ele><time>2014-6-5T15:47:57Z</time></trkpt>
<trkpt lat="44.93415200" lon="4.73204600"><ele></ele><time>2014-6-5T15:48:0Z</time></trkpt>
<trkpt lat="44.93404400" lon="4.73214300"><ele></ele><time>2014-6-5T15:48:3Z</time></trkpt>
<trkpt lat="44.93397000" lon="4.73224700"><ele></ele><time>2014-6-5T15:48:6Z</time></trkpt>
<trkpt lat="44.93385000" lon="4.73238700"><ele></ele><time>2014-6-5T15:48:9Z</time></trkpt>
<trkpt lat="44.93372000" lon="4.73242200"><ele></ele><time>2014-6-5T15:48:12Z</time></trkpt>
<trkpt lat="44.93351500" lon="4.73239300"><ele></ele><time>2014-6-5T15:48:15Z</time></trkpt>
<trkpt lat="44.93334900" lon="4.73234400"><ele></ele><time>2014-6-5T15:48:18Z</time></trkpt>
<trkpt lat="44.93322000" lon="4.73228200"><ele></ele><time>2014-6-5T15:48:21Z</time></trkpt>
<trkpt lat="44.93296100" lon="4.73226400"><ele></ele><time>2014-6-5T15:48:24Z</time></trkpt>
<trkpt lat="44.93270500" lon="4.73229200"><ele></ele><time>2014-6-5T15:48:27Z</time></trkpt>
<trkpt lat="44.93245500" lon="4.73235100"><ele></ele><time>2014-6-5T15:48:30Z</time></trkpt>
<trkpt lat="44.93228700" lon="4.73236600"><ele></ele><time>2014-6-5T15:48:33Z</time></trkpt>
<trkpt lat="44.93219000" lon="4.73239200"><ele></ele><time>2014-6-5T15:48:36Z</time></trkpt>
<trkpt lat="44.93198400" lon="4.73239800"><ele></ele><time>2014-6-5T15:48:39Z</time></trkpt>
<trkpt lat="44.93194400" lon="4.73240000"><ele></ele><time>2014-6-5T15:48:42Z</time></trkpt>
<trkpt lat="44.93172800" lon="4.73239600"><ele></ele><time>2014-6-5T15:48:45Z</time></trkpt>
<trkpt lat="44.93168100" lon="4.73239100"><ele></ele><time>2014-6-5T15:48:48Z</time></trkpt>
<trkpt lat="44.93147100" lon="4.73237100"><ele></ele><time>2014-6-5T15:48:51Z</time></trkpt>
<trkpt lat="44.93133400" lon="4.73233300"><ele></ele><time>2014-6-5T15:48:54Z</time></trkpt>
<trkpt lat="44.93115200" lon="4.73234000"><ele></ele><time>2014-6-5T15:48:57Z</time></trkpt>
<trkpt lat="44.93088100" lon="4.73235300"><ele></ele><time>2014-6-5T15:49:0Z</time></trkpt>
<trkpt lat="44.93061100" lon="4.73231800"><ele></ele><time>2014-6-5T15:49:3Z</time></trkpt>
<trkpt lat="44.93044600" lon="4.73229200"><ele></ele><time>2014-6-5T15:49:6Z</time></trkpt>
<trkpt lat="44.93030700" lon="4.73226200"><ele></ele><time>2014-6-5T15:49:9Z</time></trkpt>
<trkpt lat="44.93017700" lon="4.73224600"><ele></ele><time>2014-6-5T15:49:12Z</time></trkpt>
<trkpt lat="44.93006600" lon="4.73225000"><ele></ele><time>2014-6-5T15:49:15Z</time></trkpt>
<trkpt lat="44.92990100" lon="4.73225700"><ele></ele><time>2014-6-5T15:49:18Z</time></trkpt>
<trkpt lat="44.92972300" lon="4.73223300"><ele></ele><time>2014-6-5T15:49:21Z</time></trkpt>
<trkpt lat="44.92958600" lon="4.73226600"><ele></ele><time>2014-6-5T15:49:24Z</time></trkpt>
<trkpt lat="44.92944800" lon="4.73223700"><ele></ele><time>2014-6-5T15:49:27Z</time></trkpt>
<trkpt lat="44.92940400" lon="4.73221800"><ele></ele><time>2014-6-5T15:49:30Z</time></trkpt>
<trkpt lat="44.92927000" lon="4.73221500"><ele></ele><time>2014-6-5T15:49:33Z</time></trkpt>
<trkpt lat="44.92914600" lon="4.73220900"><ele></ele><time>2014-6-5T15:49:36Z</time></trkpt>
<trkpt lat="44.92901300" lon="4.73218700"><ele></ele><time>2014-6-5T15:49:39Z</time></trkpt>
<trkpt lat="44.92885500" lon="4.73218500"><ele></ele><time>2014-6-5T15:49:42Z</time></trkpt>
<trkpt lat="44.92870400" lon="4.73222500"><ele></ele><time>2014-6-5T15:49:45Z</time></trkpt>
<trkpt lat="44.92857600" lon="4.73227700"><ele></ele><time>2014-6-5T15:49:48Z</time></trkpt>
<trkpt lat="44.92845400" lon="4.73235600"><ele></ele><time>2014-6-5T15:49:51Z</time></trkpt>
<trkpt lat="44.92830200" lon="4.73238300"><ele></ele><time>2014-6-5T15:49:54Z</time></trkpt>
<trkpt lat="44.92808900" lon="4.73249800"><ele></ele><time>2014-6-5T15:49:57Z</time></trkpt>
<trkpt lat="44.92803900" lon="4.73252600"><ele></ele><time>2014-6-5T15:50:0Z</time></trkpt>
<trkpt lat="44.92772700" lon="4.73261200"><ele></ele><time>2014-6-5T15:50:3Z</time></trkpt>
<trkpt lat="44.92759800" lon="4.73262400"><ele></ele><time>2014-6-5T15:50:6Z</time></trkpt>
<trkpt lat="44.92747000" lon="4.73280900"><ele></ele><time>2014-6-5T15:50:9Z</time></trkpt>
<trkpt lat="44.92747800" lon="4.73290800"><ele></ele><time>2014-6-5T15:50:12Z</time></trkpt>
<trkpt lat="44.92768900" lon="4.73308000"><ele></ele><time>2014-6-5T15:50:15Z</time></trkpt>
<trkpt lat="44.92775800" lon="4.73317400"><ele></ele><time>2014-6-5T15:50:18Z</time></trkpt>
<trkpt lat="44.92786900" lon="4.73334200"><ele></ele><time>2014-6-5T15:50:21Z</time></trkpt>
<trkpt lat="44.92795100" lon="4.73350300"><ele></ele><time>2014-6-5T15:50:24Z</time></trkpt>
<trkpt lat="44.92799700" lon="4.73368700"><ele></ele><time>2014-6-5T15:50:27Z</time></trkpt>
<trkpt lat="44.92796200" lon="4.73386600"><ele></ele><time>2014-6-5T15:50:30Z</time></trkpt>
<trkpt lat="44.92790000" lon="4.73408200"><ele></ele><time>2014-6-5T15:50:33Z</time></trkpt>
<trkpt lat="44.92789900" lon="4.73429100"><ele></ele><time>2014-6-5T15:50:36Z</time></trkpt>
<trkpt lat="44.92791000" lon="4.73448700"><ele></ele><time>2014-6-5T15:50:39Z</time></trkpt>
<trkpt lat="44.92792800" lon="4.73468400"><ele></ele><time>2014-6-5T15:50:42Z</time></trkpt>
<trkpt lat="44.92794300" lon="4.73480800"><ele></ele><time>2014-6-5T15:50:45Z</time></trkpt>
<trkpt lat="44.92790200" lon="4.73502600"><ele></ele><time>2014-6-5T15:50:48Z</time></trkpt>
<trkpt lat="44.92788300" lon="4.73512300"><ele></ele><time>2014-6-5T15:50:51Z</time></trkpt>
<trkpt lat="44.92785500" lon="4.73517900"><ele></ele><time>2014-6-5T15:50:54Z</time></trkpt>
<trkpt lat="44.92777100" lon="4.73539300"><ele></ele><time>2014-6-5T15:50:57Z</time></trkpt>
<trkpt lat="44.92772600" lon="4.73548200"><ele></ele><time>2014-6-5T15:51:0Z</time></trkpt>
<trkpt lat="44.92750400" lon="4.73564000"><ele></ele><time>2014-6-5T15:51:3Z</time></trkpt>
<trkpt lat="44.92740700" lon="4.73576400"><ele></ele><time>2014-6-5T15:51:6Z</time></trkpt>
<trkpt lat="44.92730200" lon="4.73595700"><ele></ele><time>2014-6-5T15:51:9Z</time></trkpt>
<trkpt lat="44.92724600" lon="4.73613600"><ele></ele><time>2014-6-5T15:51:12Z</time></trkpt>
<trkpt lat="44.92718800" lon="4.73632000"><ele></ele><time>2014-6-5T15:51:15Z</time></trkpt>
<trkpt lat="44.92711200" lon="4.73654500"><ele></ele><time>2014-6-5T15:51:18Z</time></trkpt>
<trkpt lat="44.92706300" lon="4.73673400"><ele></ele><time>2014-6-5T15:51:21Z</time></trkpt>
<trkpt lat="44.92702800" lon="4.73694500"><ele></ele><time>2014-6-5T15:51:24Z</time></trkpt>
<trkpt lat="44.92699700" lon="4.73711900"><ele></ele><time>2014-6-5T15:51:27Z</time></trkpt>
<trkpt lat="44.92696600" lon="4.73733300"><ele></ele><time>2014-6-5T15:51:30Z</time></trkpt>
<trkpt lat="44.92694200" lon="4.73753300"><ele></ele><time>2014-6-5T15:51:33Z</time></trkpt>
<trkpt lat="44.92687000" lon="4.73775800"><ele></ele><time>2014-6-5T15:51:36Z</time></trkpt>
<trkpt lat="44.92683300" lon="4.73793100"><ele></ele><time>2014-6-5T15:51:39Z</time></trkpt>
<trkpt lat="44.92684100" lon="4.73813300"><ele></ele><time>2014-6-5T15:51:42Z</time></trkpt>
<trkpt lat="44.92682900" lon="4.73822700"><ele></ele><time>2014-6-5T15:51:45Z</time></trkpt>
<trkpt lat="44.92679800" lon="4.73841800"><ele></ele><time>2014-6-5T15:51:48Z</time></trkpt>
<trkpt lat="44.92674400" lon="4.73860200"><ele></ele><time>2014-6-5T15:51:51Z</time></trkpt>
<trkpt lat="44.92662900" lon="4.73886700"><ele></ele><time>2014-6-5T15:51:54Z</time></trkpt>
<trkpt lat="44.92648900" lon="4.73912400"><ele></ele><time>2014-6-5T15:51:57Z</time></trkpt>
<trkpt lat="44.92641700" lon="4.73932600"><ele></ele><time>2014-6-5T15:52:0Z</time></trkpt>
<trkpt lat="44.92640900" lon="4.73958000"><ele></ele><time>2014-6-5T15:52:3Z</time></trkpt>
<trkpt lat="44.92644000" lon="4.73988000"><ele></ele><time>2014-6-5T15:52:6Z</time></trkpt>
<trkpt lat="44.92643500" lon="4.74022000"><ele></ele><time>2014-6-5T15:52:9Z</time></trkpt>
<trkpt lat="44.92641900" lon="4.74045500"><ele></ele><time>2014-6-5T15:52:12Z</time></trkpt>
<trkpt lat="44.92640100" lon="4.74058300"><ele></ele><time>2014-6-5T15:52:15Z</time></trkpt>
<trkpt lat="44.92633100" lon="4.74054700"><ele></ele><time>2014-6-5T15:52:18Z</time></trkpt>
<trkpt lat="44.92616200" lon="4.74027900"><ele></ele><time>2014-6-5T15:52:21Z</time></trkpt>
<trkpt lat="44.92599400" lon="4.74011200"><ele></ele><time>2014-6-5T15:52:24Z</time></trkpt>
<trkpt lat="44.92580600" lon="4.74000900"><ele></ele><time>2014-6-5T15:52:27Z</time></trkpt>
<trkpt lat="44.92568700" lon="4.73988700"><ele></ele><time>2014-6-5T15:52:30Z</time></trkpt>
<trkpt lat="44.92554400" lon="4.73971400"><ele></ele><time>2014-6-5T15:52:33Z</time></trkpt>
<trkpt lat="44.92538100" lon="4.73952800"><ele></ele><time>2014-6-5T15:52:36Z</time></trkpt>
<trkpt lat="44.92529500" lon="4.73935400"><ele></ele><time>2014-6-5T15:52:39Z</time></trkpt>
<trkpt lat="44.92524500" lon="4.73912400"><ele></ele><time>2014-6-5T15:52:42Z</time></trkpt>
<trkpt lat="44.92526400" lon="4.73896100"><ele></ele><time>2014-6-5T15:52:45Z</time></trkpt>
<trkpt lat="44.92526400" lon="4.73878600"><ele></ele><time>2014-6-5T15:52:48Z</time></trkpt>
<trkpt lat="44.92526600" lon="4.73863800"><ele></ele><time>2014-6-5T15:52:51Z</time></trkpt>
<trkpt lat="44.92528000" lon="4.73849000"><ele></ele><time>2014-6-5T15:52:54Z</time></trkpt>
<trkpt lat="44.92535500" lon="4.73827400"><ele></ele><time>2014-6-5T15:52:57Z</time></trkpt>
<trkpt lat="44.92541700" lon="4.73815200"><ele></ele><time>2014-6-5T15:53:0Z</time></trkpt>
<trkpt lat="44.92548600" lon="4.73801700"><ele></ele><time>2014-6-5T15:53:3Z</time></trkpt>
<trkpt lat="44.92552400" lon="4.73788700"><ele></ele><time>2014-6-5T15:53:6Z</time></trkpt>
<trkpt lat="44.92556100" lon="4.73768700"><ele></ele><time>2014-6-5T15:53:9Z</time></trkpt>
<trkpt lat="44.92555600" lon="4.73754900"><ele></ele><time>2014-6-5T15:53:12Z</time></trkpt>
<trkpt lat="44.92556600" lon="4.73733700"><ele></ele><time>2014-6-5T15:53:15Z</time></trkpt>
<trkpt lat="44.92552300" lon="4.73716700"><ele></ele><time>2014-6-5T15:53:18Z</time></trkpt>
<trkpt lat="44.92546400" lon="4.73696500"><ele></ele><time>2014-6-5T15:53:21Z</time></trkpt>
<trkpt lat="44.92542300" lon="4.73677700"><ele></ele><time>2014-6-5T15:53:24Z</time></trkpt>
<trkpt lat="44.92535400" lon="4.73655200"><ele></ele><time>2014-6-5T15:53:27Z</time></trkpt>
<trkpt lat="44.92527600" lon="4.73628600"><ele></ele><time>2014-6-5T15:53:30Z</time></trkpt>
<trkpt lat="44.92522700" lon="4.73605500"><ele></ele><time>2014-6-5T15:53:33Z</time></trkpt>
<trkpt lat="44.92515200" lon="4.73573700"><ele></ele><time>2014-6-5T15:53:36Z</time></trkpt>
<trkpt lat="44.92511300" lon="4.73551900"><ele></ele><time>2014-6-5T15:53:39Z</time></trkpt>
<trkpt lat="44.92512700" lon="4.73534800"><ele></ele><time>2014-6-5T15:53:42Z</time></trkpt>
<trkpt lat="44.92509200" lon="4.73513200"><ele></ele><time>2014-6-5T15:53:45Z</time></trkpt>
<trkpt lat="44.92502000" lon="4.73492500"><ele></ele><time>2014-6-5T15:53:48Z</time></trkpt>
<trkpt lat="44.92492300" lon="4.73464200"><ele></ele><time>2014-6-5T15:53:51Z</time></trkpt>
<trkpt lat="44.92485100" lon="4.73447200"><ele></ele><time>2014-6-5T15:53:54Z</time></trkpt>
<trkpt lat="44.92470400" lon="4.73425800"><ele></ele><time>2014-6-5T15:53:57Z</time></trkpt>
<trkpt lat="44.92458700" lon="4.73406400"><ele></ele><time>2014-6-5T15:54:0Z</time></trkpt>
<trkpt lat="44.92445600" lon="4.73389900"><ele></ele><time>2014-6-5T15:54:3Z</time></trkpt>
<trkpt lat="44.92427600" lon="4.73369700"><ele></ele><time>2014-6-5T15:54:6Z</time></trkpt>
<trkpt lat="44.92413100" lon="4.73355100"><ele></ele><time>2014-6-5T15:54:9Z</time></trkpt>
<trkpt lat="44.92395200" lon="4.73335400"><ele></ele><time>2014-6-5T15:54:12Z</time></trkpt>
<trkpt lat="44.92380600" lon="4.73318400"><ele></ele><time>2014-6-5T15:54:15Z</time></trkpt>
<trkpt lat="44.92365700" lon="4.73301900"><ele></ele><time>2014-6-5T15:54:18Z</time></trkpt>
<trkpt lat="44.92352400" lon="4.73286300"><ele></ele><time>2014-6-5T15:54:21Z</time></trkpt>
<trkpt lat="44.92338700" lon="4.73273700"><ele></ele><time>2014-6-5T15:54:24Z</time></trkpt>
<trkpt lat="44.92323900" lon="4.73262300"><ele></ele><time>2014-6-5T15:54:27Z</time></trkpt>
<trkpt lat="44.92311800" lon="4.73247500"><ele></ele><time>2014-6-5T15:54:30Z</time></trkpt>
<trkpt lat="44.92301800" lon="4.73230400"><ele></ele><time>2014-6-5T15:54:33Z</time></trkpt>
<trkpt lat="44.92294300" lon="4.73218400"><ele></ele><time>2014-6-5T15:54:36Z</time></trkpt>
<trkpt lat="44.92285500" lon="4.73205700"><ele></ele><time>2014-6-5T15:54:39Z</time></trkpt>
<trkpt lat="44.92276400" lon="4.73190600"><ele></ele><time>2014-6-5T15:54:42Z</time></trkpt>
<trkpt lat="44.92265400" lon="4.73175200"><ele></ele><time>2014-6-5T15:54:45Z</time></trkpt>
<trkpt lat="44.92254700" lon="4.73161200"><ele></ele><time>2014-6-5T15:54:48Z</time></trkpt>
<trkpt lat="44.92242000" lon="4.73145700"><ele></ele><time>2014-6-5T15:54:51Z</time></trkpt>
<trkpt lat="44.92229200" lon="4.73132400"><ele></ele><time>2014-6-5T15:54:54Z</time></trkpt>
<trkpt lat="44.92211400" lon="4.73115600"><ele></ele><time>2014-6-5T15:54:57Z</time></trkpt>
<trkpt lat="44.92196600" lon="4.73101100"><ele></ele><time>2014-6-5T15:55:0Z</time></trkpt>
<trkpt lat="44.92177200" lon="4.73080700"><ele></ele><time>2014-6-5T15:55:3Z</time></trkpt>
<trkpt lat="44.92166500" lon="4.73077600"><ele></ele><time>2014-6-5T15:55:6Z</time></trkpt>
<trkpt lat="44.92143500" lon="4.73072000"><ele></ele><time>2014-6-5T15:55:9Z</time></trkpt>
<trkpt lat="44.92126500" lon="4.73063900"><ele></ele><time>2014-6-5T15:55:12Z</time></trkpt>
<trkpt lat="44.92122400" lon="4.73063800"><ele></ele><time>2014-6-5T15:55:15Z</time></trkpt>
<trkpt lat="44.92118500" lon="4.73075000"><ele></ele><time>2014-6-5T15:55:18Z</time></trkpt>
<trkpt lat="44.92119900" lon="4.73076200"><ele></ele><time>2014-6-5T15:55:21Z</time></trkpt>
<trkpt lat="44.92123500" lon="4.73078400"><ele></ele><time>2014-6-5T15:55:24Z</time></trkpt>
<trkpt lat="44.92123000" lon="4.73073600"><ele></ele><time>2014-6-5T15:55:27Z</time></trkpt>
<trkpt lat="44.92121500" lon="4.73070000"><ele></ele><time>2014-6-5T15:55:30Z</time></trkpt>
<trkpt lat="44.92119200" lon="4.73066200"><ele></ele><time>2014-6-5T15:55:33Z</time></trkpt>
<trkpt lat="44.92119300" lon="4.73066100"><ele></ele><time>2014-6-5T15:55:36Z</time></trkpt>
<trkpt lat="44.92120900" lon="4.73063600"><ele></ele><time>2014-6-5T15:55:39Z</time></trkpt>
<trkpt lat="44.92120200" lon="4.73064300"><ele></ele><time>2014-6-5T15:55:42Z</time></trkpt>
<trkpt lat="44.92119400" lon="4.73065400"><ele></ele><time>2014-6-5T15:55:45Z</time></trkpt>
<trkpt lat="44.92119100" lon="4.73071400"><ele></ele><time>2014-6-5T15:55:48Z</time></trkpt>
<trkpt lat="44.92120600" lon="4.73071100"><ele></ele><time>2014-6-5T15:55:51Z</time></trkpt>
<trkpt lat="44.92125400" lon="4.73089400"><ele></ele><time>2014-6-5T15:55:54Z</time></trkpt>
<trkpt lat="44.92132900" lon="4.73127100"><ele></ele><time>2014-6-5T15:55:57Z</time></trkpt>
<trkpt lat="44.92134000" lon="4.73160800"><ele></ele><time>2014-6-5T15:56:0Z</time></trkpt>
<trkpt lat="44.92135100" lon="4.73194000"><ele></ele><time>2014-6-5T15:56:3Z</time></trkpt>
<trkpt lat="44.92136800" lon="4.73223900"><ele></ele><time>2014-6-5T15:56:6Z</time></trkpt>
<trkpt lat="44.92138300" lon="4.73250000"><ele></ele><time>2014-6-5T15:56:9Z</time></trkpt>
<trkpt lat="44.92141500" lon="4.73272100"><ele></ele><time>2014-6-5T15:56:12Z</time></trkpt>
<trkpt lat="44.92143500" lon="4.73282400"><ele></ele><time>2014-6-5T15:56:15Z</time></trkpt>
<trkpt lat="44.92145100" lon="4.73296400"><ele></ele><time>2014-6-5T15:56:18Z</time></trkpt>
<trkpt lat="44.92151800" lon="4.73325600"><ele></ele><time>2014-6-5T15:56:21Z</time></trkpt>
<trkpt lat="44.92160000" lon="4.73355700"><ele></ele><time>2014-6-5T15:56:24Z</time></trkpt>
<trkpt lat="44.92165500" lon="4.73384900"><ele></ele><time>2014-6-5T15:56:27Z</time></trkpt>
<trkpt lat="44.92174600" lon="4.73429700"><ele></ele><time>2014-6-5T15:56:30Z</time></trkpt>
<trkpt lat="44.92186500" lon="4.73478200"><ele></ele><time>2014-6-5T15:56:33Z</time></trkpt>
<trkpt lat="44.92187800" lon="4.73485100"><ele></ele><time>2014-6-5T15:56:36Z</time></trkpt>
<trkpt lat="44.92189000" lon="4.73515400"><ele></ele><time>2014-6-5T15:56:39Z</time></trkpt>
<trkpt lat="44.92185300" lon="4.73573600"><ele></ele><time>2014-6-5T15:56:42Z</time></trkpt>
<trkpt lat="44.92178800" lon="4.73631300"><ele></ele><time>2014-6-5T15:56:45Z</time></trkpt>
<trkpt lat="44.92166000" lon="4.73682100"><ele></ele><time>2014-6-5T15:56:48Z</time></trkpt>
<trkpt lat="44.92153100" lon="4.73719500"><ele></ele><time>2014-6-5T15:56:51Z</time></trkpt>
<trkpt lat="44.92150800" lon="4.73726200"><ele></ele><time>2014-6-5T15:56:54Z</time></trkpt>
<trkpt lat="44.92136400" lon="4.73750800"><ele></ele><time>2014-6-5T15:56:57Z</time></trkpt>
<trkpt lat="44.92120300" lon="4.73765600"><ele></ele><time>2014-6-5T15:57:0Z</time></trkpt>
<trkpt lat="44.92083000" lon="4.73792000"><ele></ele><time>2014-6-5T15:57:3Z</time></trkpt>
<trkpt lat="44.92064200" lon="4.73811100"><ele></ele><time>2014-6-5T15:57:6Z</time></trkpt>
<trkpt lat="44.92034400" lon="4.73845900"><ele></ele><time>2014-6-5T15:57:9Z</time></trkpt>
<trkpt lat="44.92011400" lon="4.73875000"><ele></ele><time>2014-6-5T15:57:12Z</time></trkpt>
<trkpt lat="44.91983700" lon="4.73896700"><ele></ele><time>2014-6-5T15:57:15Z</time></trkpt>
<trkpt lat="44.91953800" lon="4.73896200"><ele></ele><time>2014-6-5T15:57:18Z</time></trkpt>
<trkpt lat="44.91930300" lon="4.73886700"><ele></ele><time>2014-6-5T15:57:21Z</time></trkpt>
<trkpt lat="44.91918300" lon="4.73891600"><ele></ele><time>2014-6-5T15:57:24Z</time></trkpt>
<trkpt lat="44.91913700" lon="4.73912700"><ele></ele><time>2014-6-5T15:57:27Z</time></trkpt>
<trkpt lat="44.91916000" lon="4.73931600"><ele></ele><time>2014-6-5T15:57:30Z</time></trkpt>
<trkpt lat="44.91917600" lon="4.73965400"><ele></ele><time>2014-6-5T15:57:33Z</time></trkpt>
<trkpt lat="44.91906600" lon="4.74022700"><ele></ele><time>2014-6-5T15:57:36Z</time></trkpt>
<trkpt lat="44.91883000" lon="4.74053900"><ele></ele><time>2014-6-5T15:57:39Z</time></trkpt>
<trkpt lat="44.91869100" lon="4.74073700"><ele></ele><time>2014-6-5T15:57:42Z</time></trkpt>
<trkpt lat="44.91875800" lon="4.74081000"><ele></ele><time>2014-6-5T15:57:45Z</time></trkpt>
<trkpt lat="44.91893600" lon="4.74085900"><ele></ele><time>2014-6-5T15:57:48Z</time></trkpt>
<trkpt lat="44.91901900" lon="4.74084600"><ele></ele><time>2014-6-5T15:57:51Z</time></trkpt>
<trkpt lat="44.91914500" lon="4.74077200"><ele></ele><time>2014-6-5T15:57:54Z</time></trkpt>
<trkpt lat="44.91935700" lon="4.74070700"><ele></ele><time>2014-6-5T15:57:57Z</time></trkpt>
<trkpt lat="44.91939400" lon="4.74069500"><ele></ele><time>2014-6-5T15:58:0Z</time></trkpt>
<trkpt lat="44.91956800" lon="4.74077500"><ele></ele><time>2014-6-5T15:58:3Z</time></trkpt>
<trkpt lat="44.91976000" lon="4.74093500"><ele></ele><time>2014-6-5T15:58:6Z</time></trkpt>
<trkpt lat="44.91991600" lon="4.74106400"><ele></ele><time>2014-6-5T15:58:9Z</time></trkpt>
<trkpt lat="44.92018600" lon="4.74131100"><ele></ele><time>2014-6-5T15:58:12Z</time></trkpt>
<trkpt lat="44.92028300" lon="4.74138800"><ele></ele><time>2014-6-5T15:58:15Z</time></trkpt>
<trkpt lat="44.92039700" lon="4.74149800"><ele></ele><time>2014-6-5T15:58:18Z</time></trkpt>
<trkpt lat="44.92054600" lon="4.74163100"><ele></ele><time>2014-6-5T15:58:21Z</time></trkpt>
<trkpt lat="44.92062000" lon="4.74170700"><ele></ele><time>2014-6-5T15:58:24Z</time></trkpt>
<trkpt lat="44.92070300" lon="4.74185300"><ele></ele><time>2014-6-5T15:58:27Z</time></trkpt>
<trkpt lat="44.92075200" lon="4.74198800"><ele></ele><time>2014-6-5T15:58:30Z</time></trkpt>
<trkpt lat="44.92078800" lon="4.74211600"><ele></ele><time>2014-6-5T15:58:33Z</time></trkpt>
<trkpt lat="44.92085400" lon="4.74229800"><ele></ele><time>2014-6-5T15:58:36Z</time></trkpt>
<trkpt lat="44.92094600" lon="4.74239800"><ele></ele><time>2014-6-5T15:58:39Z</time></trkpt>
<trkpt lat="44.92096200" lon="4.74240300"><ele></ele><time>2014-6-5T15:58:42Z</time></trkpt>
<trkpt lat="44.92104500" lon="4.74245200"><ele></ele><time>2014-6-5T15:58:45Z</time></trkpt>
<trkpt lat="44.92120600" lon="4.74243000"><ele></ele><time>2014-6-5T15:58:48Z</time></trkpt>
<trkpt lat="44.92131500" lon="4.74235600"><ele></ele><time>2014-6-5T15:58:51Z</time></trkpt>
<trkpt lat="44.92144400" lon="4.74220400"><ele></ele><time>2014-6-5T15:58:54Z</time></trkpt>
<trkpt lat="44.92148100" lon="4.74204800"><ele></ele><time>2014-6-5T15:58:57Z</time></trkpt>
<trkpt lat="44.92149500" lon="4.74188100"><ele></ele><time>2014-6-5T15:59:0Z</time></trkpt>
<trkpt lat="44.92153000" lon="4.74168000"><ele></ele><time>2014-6-5T15:59:3Z</time></trkpt>
<trkpt lat="44.92176500" lon="4.74117200"><ele></ele><time>2014-6-5T15:59:6Z</time></trkpt>
<trkpt lat="44.92193100" lon="4.74084700"><ele></ele><time>2014-6-5T15:59:9Z</time></trkpt>
<trkpt lat="44.92221000" lon="4.74011100"><ele></ele><time>2014-6-5T15:59:12Z</time></trkpt>
<trkpt lat="44.92225400" lon="4.74002800"><ele></ele><time>2014-6-5T15:59:15Z</time></trkpt>
<trkpt lat="44.92235800" lon="4.74001900"><ele></ele><time>2014-6-5T15:59:18Z</time></trkpt>
<trkpt lat="44.92235900" lon="4.74012300"><ele></ele><time>2014-6-5T15:59:21Z</time></trkpt>
<trkpt lat="44.92236200" lon="4.74042400"><ele></ele><time>2014-6-5T15:59:24Z</time></trkpt>
<trkpt lat="44.92235400" lon="4.74062100"><ele></ele><time>2014-6-5T15:59:27Z</time></trkpt>
<trkpt lat="44.92241300" lon="4.74068800"><ele></ele><time>2014-6-5T15:59:30Z</time></trkpt>
<trkpt lat="44.92249800" lon="4.74055300"><ele></ele><time>2014-6-5T15:59:33Z</time></trkpt>
<trkpt lat="44.92268900" lon="4.74033300"><ele></ele><time>2014-6-5T15:59:36Z</time></trkpt>
<trkpt lat="44.92280000" lon="4.74015300"><ele></ele><time>2014-6-5T15:59:39Z</time></trkpt>
<trkpt lat="44.92304800" lon="4.73997000"><ele></ele><time>2014-6-5T15:59:42Z</time></trkpt>
<trkpt lat="44.92305800" lon="4.74009700"><ele></ele><time>2014-6-5T15:59:45Z</time></trkpt>
<trkpt lat="44.92304000" lon="4.74037700"><ele></ele><time>2014-6-5T15:59:48Z</time></trkpt>
<trkpt lat="44.92302200" lon="4.74048400"><ele></ele><time>2014-6-5T15:59:51Z</time></trkpt>
<trkpt lat="44.92288500" lon="4.74119200"><ele></ele><time>2014-6-5T15:59:54Z</time></trkpt>
<trkpt lat="44.92280000" lon="4.74167000"><ele></ele><time>2014-6-5T15:59:57Z</time></trkpt>
<trkpt lat="44.92284100" lon="4.74216800"><ele></ele><time>2014-6-5T16:0:0Z</time></trkpt>
<trkpt lat="44.92290000" lon="4.74250400"><ele></ele><time>2014-6-5T16:0:3Z</time></trkpt>
<trkpt lat="44.92291900" lon="4.74304000"><ele></ele><time>2014-6-5T16:0:6Z</time></trkpt>
<trkpt lat="44.92288500" lon="4.74327200"><ele></ele><time>2014-6-5T16:0:9Z</time></trkpt>
<trkpt lat="44.92281400" lon="4.74380400"><ele></ele><time>2014-6-5T16:0:12Z</time></trkpt>
<trkpt lat="44.92273700" lon="4.74418000"><ele></ele><time>2014-6-5T16:0:15Z</time></trkpt>
<trkpt lat="44.92268800" lon="4.74446600"><ele></ele><time>2014-6-5T16:0:18Z</time></trkpt>
<trkpt lat="44.92263900" lon="4.74484400"><ele></ele><time>2014-6-5T16:0:21Z</time></trkpt>
<trkpt lat="44.92249300" lon="4.74534100"><ele></ele><time>2014-6-5T16:0:24Z</time></trkpt>
<trkpt lat="44.92230400" lon="4.74586200"><ele></ele><time>2014-6-5T16:0:27Z</time></trkpt>
<trkpt lat="44.92227400" lon="4.74599900"><ele></ele><time>2014-6-5T16:0:30Z</time></trkpt>
<trkpt lat="44.92229500" lon="4.74640000"><ele></ele><time>2014-6-5T16:0:33Z</time></trkpt>
<trkpt lat="44.92233900" lon="4.74657000"><ele></ele><time>2014-6-5T16:0:36Z</time></trkpt>
<trkpt lat="44.92235700" lon="4.74705400"><ele></ele><time>2014-6-5T16:0:39Z</time></trkpt>
<trkpt lat="44.92221900" lon="4.74727500"><ele></ele><time>2014-6-5T16:0:42Z</time></trkpt>
<trkpt lat="44.92215700" lon="4.74733300"><ele></ele><time>2014-6-5T16:0:45Z</time></trkpt>
<trkpt lat="44.92179600" lon="4.74746200"><ele></ele><time>2014-6-5T16:0:48Z</time></trkpt>
<trkpt lat="44.92168400" lon="4.74741800"><ele></ele><time>2014-6-5T16:0:51Z</time></trkpt>
<trkpt lat="44.92161500" lon="4.74744200"><ele></ele><time>2014-6-5T16:0:54Z</time></trkpt>
<trkpt lat="44.92145600" lon="4.74767600"><ele></ele><time>2014-6-5T16:0:57Z</time></trkpt>
<trkpt lat="44.92127400" lon="4.74808200"><ele></ele><time>2014-6-5T16:1:0Z</time></trkpt>
<trkpt lat="44.92127900" lon="4.74854000"><ele></ele><time>2014-6-5T16:1:3Z</time></trkpt>
<trkpt lat="44.92135800" lon="4.74861400"><ele></ele><time>2014-6-5T16:1:6Z</time></trkpt>
<trkpt lat="44.92163900" lon="4.74915900"><ele></ele><time>2014-6-5T16:1:9Z</time></trkpt>
<trkpt lat="44.92169000" lon="4.74929100"><ele></ele><time>2014-6-5T16:1:12Z</time></trkpt>
<trkpt lat="44.92181000" lon="4.74994200"><ele></ele><time>2014-6-5T16:1:15Z</time></trkpt>
<trkpt lat="44.92178800" lon="4.75103300"><ele></ele><time>2014-6-5T16:1:18Z</time></trkpt>
<trkpt lat="44.92174700" lon="4.75138900"><ele></ele><time>2014-6-5T16:1:21Z</time></trkpt>
<trkpt lat="44.92183600" lon="4.75206700"><ele></ele><time>2014-6-5T16:1:24Z</time></trkpt>
<trkpt lat="44.92191700" lon="4.75257300"><ele></ele><time>2014-6-5T16:1:27Z</time></trkpt>
<trkpt lat="44.92188500" lon="4.75353400"><ele></ele><time>2014-6-5T16:1:30Z</time></trkpt>
<trkpt lat="44.92186300" lon="4.75384500"><ele></ele><time>2014-6-5T16:1:33Z</time></trkpt>
<trkpt lat="44.92193000" lon="4.75456200"><ele></ele><time>2014-6-5T16:1:36Z</time></trkpt>
<trkpt lat="44.92194600" lon="4.75527000"><ele></ele><time>2014-6-5T16:1:39Z</time></trkpt>
<trkpt lat="44.92183000" lon="4.75586400"><ele></ele><time>2014-6-5T16:1:42Z</time></trkpt>
<trkpt lat="44.92179000" lon="4.75606400"><ele></ele><time>2014-6-5T16:1:45Z</time></trkpt>
<trkpt lat="44.92183400" lon="4.75649700"><ele></ele><time>2014-6-5T16:1:48Z</time></trkpt>
<trkpt lat="44.92183200" lon="4.75661000"><ele></ele><time>2014-6-5T16:1:51Z</time></trkpt>
<trkpt lat="44.92175500" lon="4.75720300"><ele></ele><time>2014-6-5T16:1:54Z</time></trkpt>
<trkpt lat="44.92173900" lon="4.75734800"><ele></ele><time>2014-6-5T16:1:57Z</time></trkpt>
<trkpt lat="44.92177100" lon="4.75764800"><ele></ele><time>2014-6-5T16:2:0Z</time></trkpt>
<trkpt lat="44.92185700" lon="4.75798100"><ele></ele><time>2014-6-5T16:2:3Z</time></trkpt>
<trkpt lat="44.92192500" lon="4.75845600"><ele></ele><time>2014-6-5T16:2:6Z</time></trkpt>
<trkpt lat="44.92201900" lon="4.75886300"><ele></ele><time>2014-6-5T16:2:9Z</time></trkpt>
<trkpt lat="44.92209700" lon="4.75911800"><ele></ele><time>2014-6-5T16:2:12Z</time></trkpt>
<trkpt lat="44.92208800" lon="4.75931900"><ele></ele><time>2014-6-5T16:2:15Z</time></trkpt>
<trkpt lat="44.92202100" lon="4.75948100"><ele></ele><time>2014-6-5T16:2:18Z</time></trkpt>
<trkpt lat="44.92186900" lon="4.75964300"><ele></ele><time>2014-6-5T16:2:21Z</time></trkpt>
<trkpt lat="44.92165700" lon="4.75986700"><ele></ele><time>2014-6-5T16:2:24Z</time></trkpt>
<trkpt lat="44.92151000" lon="4.76005600"><ele></ele><time>2014-6-5T16:2:27Z</time></trkpt>
<trkpt lat="44.92136700" lon="4.76039900"><ele></ele><time>2014-6-5T16:2:30Z</time></trkpt>
<trkpt lat="44.92130200" lon="4.76068900"><ele></ele><time>2014-6-5T16:2:33Z</time></trkpt>
<trkpt lat="44.92130000" lon="4.76105500"><ele></ele><time>2014-6-5T16:2:36Z</time></trkpt>
<trkpt lat="44.92133600" lon="4.76142400"><ele></ele><time>2014-6-5T16:2:39Z</time></trkpt>
<trkpt lat="44.92126200" lon="4.76172000"><ele></ele><time>2014-6-5T16:2:42Z</time></trkpt>
<trkpt lat="44.92121700" lon="4.76178100"><ele></ele><time>2014-6-5T16:2:45Z</time></trkpt>
<trkpt lat="44.92093800" lon="4.76229400"><ele></ele><time>2014-6-5T16:2:48Z</time></trkpt>
<trkpt lat="44.92068900" lon="4.76285500"><ele></ele><time>2014-6-5T16:2:51Z</time></trkpt>
<trkpt lat="44.92043000" lon="4.76351400"><ele></ele><time>2014-6-5T16:2:54Z</time></trkpt>
<trkpt lat="44.92026800" lon="4.76399400"><ele></ele><time>2014-6-5T16:2:57Z</time></trkpt>
<trkpt lat="44.92024600" lon="4.76406800"><ele></ele><time>2014-6-5T16:3:0Z</time></trkpt>
<trkpt lat="44.92021000" lon="4.76452900"><ele></ele><time>2014-6-5T16:3:3Z</time></trkpt>
<trkpt lat="44.92023300" lon="4.76501400"><ele></ele><time>2014-6-5T16:3:6Z</time></trkpt>
<trkpt lat="44.92016700" lon="4.76535800"><ele></ele><time>2014-6-5T16:3:9Z</time></trkpt>
<trkpt lat="44.92012900" lon="4.76543100"><ele></ele><time>2014-6-5T16:3:12Z</time></trkpt>
<trkpt lat="44.91983900" lon="4.76598100"><ele></ele><time>2014-6-5T16:3:15Z</time></trkpt>
<trkpt lat="44.91958800" lon="4.76651200"><ele></ele><time>2014-6-5T16:3:18Z</time></trkpt>
<trkpt lat="44.91945200" lon="4.76676200"><ele></ele><time>2014-6-5T16:3:21Z</time></trkpt>
<trkpt lat="44.91937500" lon="4.76687400"><ele></ele><time>2014-6-5T16:3:24Z</time></trkpt>
<trkpt lat="44.91923500" lon="4.76714400"><ele></ele><time>2014-6-5T16:3:27Z</time></trkpt>
<trkpt lat="44.91893200" lon="4.76757200"><ele></ele><time>2014-6-5T16:3:30Z</time></trkpt>
<trkpt lat="44.91887700" lon="4.76765000"><ele></ele><time>2014-6-5T16:3:33Z</time></trkpt>
<trkpt lat="44.91859000" lon="4.76828000"><ele></ele><time>2014-6-5T16:3:36Z</time></trkpt>
<trkpt lat="44.91846600" lon="4.76869100"><ele></ele><time>2014-6-5T16:3:39Z</time></trkpt>
<trkpt lat="44.91844600" lon="4.76883900"><ele></ele><time>2014-6-5T16:3:42Z</time></trkpt>
<trkpt lat="44.91841800" lon="4.76918700"><ele></ele><time>2014-6-5T16:3:45Z</time></trkpt>
<trkpt lat="44.91829500" lon="4.76946400"><ele></ele><time>2014-6-5T16:3:48Z</time></trkpt>
<trkpt lat="44.91816300" lon="4.76963200"><ele></ele><time>2014-6-5T16:3:51Z</time></trkpt>
<trkpt lat="44.91801100" lon="4.76992000"><ele></ele><time>2014-6-5T16:3:54Z</time></trkpt>
<trkpt lat="44.91790400" lon="4.77021200"><ele></ele><time>2014-6-5T16:3:57Z</time></trkpt>
<trkpt lat="44.91763700" lon="4.77059200"><ele></ele><time>2014-6-5T16:4:0Z</time></trkpt>
<trkpt lat="44.91756300" lon="4.77070000"><ele></ele><time>2014-6-5T16:4:3Z</time></trkpt>
<trkpt lat="44.91733200" lon="4.77105600"><ele></ele><time>2014-6-5T16:4:6Z</time></trkpt>
<trkpt lat="44.91707300" lon="4.77161300"><ele></ele><time>2014-6-5T16:4:9Z</time></trkpt>
<trkpt lat="44.91683500" lon="4.77208700"><ele></ele><time>2014-6-5T16:4:12Z</time></trkpt>
<trkpt lat="44.91648600" lon="4.77254100"><ele></ele><time>2014-6-5T16:4:15Z</time></trkpt>
<trkpt lat="44.91616000" lon="4.77278200"><ele></ele><time>2014-6-5T16:4:18Z</time></trkpt>
<trkpt lat="44.91602700" lon="4.77287800"><ele></ele><time>2014-6-5T16:4:21Z</time></trkpt>
<trkpt lat="44.91580000" lon="4.77316300"><ele></ele><time>2014-6-5T16:4:24Z</time></trkpt>
<trkpt lat="44.91570300" lon="4.77334000"><ele></ele><time>2014-6-5T16:4:27Z</time></trkpt>
<trkpt lat="44.91557800" lon="4.77373900"><ele></ele><time>2014-6-5T16:4:30Z</time></trkpt>
<trkpt lat="44.91550300" lon="4.77438100"><ele></ele><time>2014-6-5T16:4:33Z</time></trkpt>
<trkpt lat="44.91551400" lon="4.77465800"><ele></ele><time>2014-6-5T16:4:36Z</time></trkpt>
<trkpt lat="44.91556100" lon="4.77506300"><ele></ele><time>2014-6-5T16:4:39Z</time></trkpt>
<trkpt lat="44.91557900" lon="4.77544700"><ele></ele><time>2014-6-5T16:4:42Z</time></trkpt>
<trkpt lat="44.91555000" lon="4.77581900"><ele></ele><time>2014-6-5T16:4:45Z</time></trkpt>
<trkpt lat="44.91552800" lon="4.77600600"><ele></ele><time>2014-6-5T16:4:48Z</time></trkpt>
<trkpt lat="44.91550700" lon="4.77655800"><ele></ele><time>2014-6-5T16:4:51Z</time></trkpt>
<trkpt lat="44.91550400" lon="4.77706300"><ele></ele><time>2014-6-5T16:4:54Z</time></trkpt>
<trkpt lat="44.91552200" lon="4.77744400"><ele></ele><time>2014-6-5T16:4:57Z</time></trkpt>
<trkpt lat="44.91551800" lon="4.77784500"><ele></ele><time>2014-6-5T16:5:0Z</time></trkpt>
<trkpt lat="44.91550100" lon="4.77803300"><ele></ele><time>2014-6-5T16:5:3Z</time></trkpt>
<trkpt lat="44.91537900" lon="4.77841700"><ele></ele><time>2014-6-5T16:5:6Z</time></trkpt>
<trkpt lat="44.91499300" lon="4.77899500"><ele></ele><time>2014-6-5T16:5:9Z</time></trkpt>
<trkpt lat="44.91467600" lon="4.77936800"><ele></ele><time>2014-6-5T16:5:12Z</time></trkpt>
<trkpt lat="44.91431500" lon="4.77976100"><ele></ele><time>2014-6-5T16:5:15Z</time></trkpt>
<trkpt lat="44.91402900" lon="4.78008900"><ele></ele><time>2014-6-5T16:5:18Z</time></trkpt>
<trkpt lat="44.91377500" lon="4.78038800"><ele></ele><time>2014-6-5T16:5:21Z</time></trkpt>
<trkpt lat="44.91353100" lon="4.78067400"><ele></ele><time>2014-6-5T16:5:24Z</time></trkpt>
<trkpt lat="44.91349300" lon="4.78072900"><ele></ele><time>2014-6-5T16:5:27Z</time></trkpt>
<trkpt lat="44.91340000" lon="4.78105600"><ele></ele><time>2014-6-5T16:5:30Z</time></trkpt>
<trkpt lat="44.91329900" lon="4.78137200"><ele></ele><time>2014-6-5T16:5:33Z</time></trkpt>
<trkpt lat="44.91315100" lon="4.78162800"><ele></ele><time>2014-6-5T16:5:36Z</time></trkpt>
<trkpt lat="44.91297800" lon="4.78195200"><ele></ele><time>2014-6-5T16:5:39Z</time></trkpt>
<trkpt lat="44.91307500" lon="4.78217400"><ele></ele><time>2014-6-5T16:5:42Z</time></trkpt>
<trkpt lat="44.91325400" lon="4.78223000"><ele></ele><time>2014-6-5T16:5:45Z</time></trkpt>
<trkpt lat="44.91329600" lon="4.78230300"><ele></ele><time>2014-6-5T16:5:48Z</time></trkpt>
<trkpt lat="44.91325500" lon="4.78236200"><ele></ele><time>2014-6-5T16:5:51Z</time></trkpt>
<trkpt lat="44.91304400" lon="4.78270700"><ele></ele><time>2014-6-5T16:5:54Z</time></trkpt>
<trkpt lat="44.91278000" lon="4.78317800"><ele></ele><time>2014-6-5T16:5:57Z</time></trkpt>
<trkpt lat="44.91238400" lon="4.78380300"><ele></ele><time>2014-6-5T16:6:0Z</time></trkpt>
<trkpt lat="44.91209700" lon="4.78423200"><ele></ele><time>2014-6-5T16:6:3Z</time></trkpt>
<trkpt lat="44.91164200" lon="4.78460200"><ele></ele><time>2014-6-5T16:6:6Z</time></trkpt>
<trkpt lat="44.91135600" lon="4.78456100"><ele></ele><time>2014-6-5T16:6:9Z</time></trkpt>
<trkpt lat="44.91129100" lon="4.78438900"><ele></ele><time>2014-6-5T16:6:12Z</time></trkpt>
<trkpt lat="44.91119500" lon="4.78422300"><ele></ele><time>2014-6-5T16:6:15Z</time></trkpt>
<trkpt lat="44.91109100" lon="4.78432800"><ele></ele><time>2014-6-5T16:6:18Z</time></trkpt>
<trkpt lat="44.91100400" lon="4.78454000"><ele></ele><time>2014-6-5T16:6:21Z</time></trkpt>
<trkpt lat="44.91091700" lon="4.78479400"><ele></ele><time>2014-6-5T16:6:24Z</time></trkpt>
<trkpt lat="44.91082500" lon="4.78536200"><ele></ele><time>2014-6-5T16:6:27Z</time></trkpt>
<trkpt lat="44.91085900" lon="4.78594000"><ele></ele><time>2014-6-5T16:6:30Z</time></trkpt>
<trkpt lat="44.91084000" lon="4.78625100"><ele></ele><time>2014-6-5T16:6:33Z</time></trkpt>
<trkpt lat="44.91089000" lon="4.78634100"><ele></ele><time>2014-6-5T16:6:36Z</time></trkpt>
<trkpt lat="44.91092800" lon="4.78633900"><ele></ele><time>2014-6-5T16:6:39Z</time></trkpt>
<trkpt lat="44.91125200" lon="4.78629000"><ele></ele><time>2014-6-5T16:6:42Z</time></trkpt>
<trkpt lat="44.91165500" lon="4.78622300"><ele></ele><time>2014-6-5T16:6:45Z</time></trkpt>
<trkpt lat="44.91183500" lon="4.78617600"><ele></ele><time>2014-6-5T16:6:48Z</time></trkpt>
<trkpt lat="44.91218200" lon="4.78591300"><ele></ele><time>2014-6-5T16:6:51Z</time></trkpt>
<trkpt lat="44.91245200" lon="4.78570700"><ele></ele><time>2014-6-5T16:6:54Z</time></trkpt>
<trkpt lat="44.91301900" lon="4.78509100"><ele></ele><time>2014-6-5T16:6:57Z</time></trkpt>
<trkpt lat="44.91322900" lon="4.78482300"><ele></ele><time>2014-6-5T16:7:0Z</time></trkpt>
<trkpt lat="44.91331200" lon="4.78472400"><ele></ele><time>2014-6-5T16:7:3Z</time></trkpt>
<trkpt lat="44.91349100" lon="4.78467500"><ele></ele><time>2014-6-5T16:7:6Z</time></trkpt>
<trkpt lat="44.91357400" lon="4.78481400"><ele></ele><time>2014-6-5T16:7:9Z</time></trkpt>
<trkpt lat="44.91362300" lon="4.78500700"><ele></ele><time>2014-6-5T16:7:12Z</time></trkpt>
<trkpt lat="44.91376300" lon="4.78526400"><ele></ele><time>2014-6-5T16:7:15Z</time></trkpt>
<trkpt lat="44.91380300" lon="4.78562400"><ele></ele><time>2014-6-5T16:7:18Z</time></trkpt>
<trkpt lat="44.91389100" lon="4.78588500"><ele></ele><time>2014-6-5T16:7:21Z</time></trkpt>
<trkpt lat="44.91393900" lon="4.78616200"><ele></ele><time>2014-6-5T16:7:24Z</time></trkpt>
<trkpt lat="44.91395900" lon="4.78641600"><ele></ele><time>2014-6-5T16:7:27Z</time></trkpt>
<trkpt lat="44.91395100" lon="4.78666300"><ele></ele><time>2014-6-5T16:7:30Z</time></trkpt>
<trkpt lat="44.91402200" lon="4.78690500"><ele></ele><time>2014-6-5T16:7:33Z</time></trkpt>
<trkpt lat="44.91414100" lon="4.78712100"><ele></ele><time>2014-6-5T16:7:36Z</time></trkpt>
<trkpt lat="44.91431100" lon="4.78722200"><ele></ele><time>2014-6-5T16:7:39Z</time></trkpt>
<trkpt lat="44.91448300" lon="4.78721100"><ele></ele><time>2014-6-5T16:7:42Z</time></trkpt>
<trkpt lat="44.91468000" lon="4.78711200"><ele></ele><time>2014-6-5T16:7:45Z</time></trkpt>
<trkpt lat="44.91480400" lon="4.78700300"><ele></ele><time>2014-6-5T16:7:48Z</time></trkpt>
<trkpt lat="44.91494400" lon="4.78679600"><ele></ele><time>2014-6-5T16:7:51Z</time></trkpt>
<trkpt lat="44.91504300" lon="4.78663500"><ele></ele><time>2014-6-5T16:7:54Z</time></trkpt>
<trkpt lat="44.91515200" lon="4.78642800"><ele></ele><time>2014-6-5T16:7:57Z</time></trkpt>
<trkpt lat="44.91523900" lon="4.78626300"><ele></ele><time>2014-6-5T16:8:0Z</time></trkpt>
<trkpt lat="44.91532600" lon="4.78603200"><ele></ele><time>2014-6-5T16:8:3Z</time></trkpt>
<trkpt lat="44.91540000" lon="4.78580100"><ele></ele><time>2014-6-5T16:8:6Z</time></trkpt>
<trkpt lat="44.91545600" lon="4.78556600"><ele></ele><time>2014-6-5T16:8:9Z</time></trkpt>
<trkpt lat="44.91551000" lon="4.78525300"><ele></ele><time>2014-6-5T16:8:12Z</time></trkpt>
<trkpt lat="44.91554200" lon="4.78489900"><ele></ele><time>2014-6-5T16:8:15Z</time></trkpt>
<trkpt lat="44.91558700" lon="4.78455100"><ele></ele><time>2014-6-5T16:8:18Z</time></trkpt>
<trkpt lat="44.91568300" lon="4.78449000"><ele></ele><time>2014-6-5T16:8:21Z</time></trkpt>
<trkpt lat="44.91581000" lon="4.78459200"><ele></ele><time>2014-6-5T16:8:24Z</time></trkpt>
<trkpt lat="44.91598900" lon="4.78476600"><ele></ele><time>2014-6-5T16:8:27Z</time></trkpt>
<trkpt lat="44.91619600" lon="4.78501100"><ele></ele><time>2014-6-5T16:8:30Z</time></trkpt>
<trkpt lat="44.91642200" lon="4.78533200"><ele></ele><time>2014-6-5T16:8:33Z</time></trkpt>
<trkpt lat="44.91654100" lon="4.78554600"><ele></ele><time>2014-6-5T16:8:36Z</time></trkpt>
<trkpt lat="44.91673200" lon="4.78579100"><ele></ele><time>2014-6-5T16:8:39Z</time></trkpt>
<trkpt lat="44.91696900" lon="4.78591600"><ele></ele><time>2014-6-5T16:8:42Z</time></trkpt>
<trkpt lat="44.91715500" lon="4.78590700"><ele></ele><time>2014-6-5T16:8:45Z</time></trkpt>
<trkpt lat="44.91726700" lon="4.78586700"><ele></ele><time>2014-6-5T16:8:48Z</time></trkpt>
<trkpt lat="44.91742900" lon="4.78568000"><ele></ele><time>2014-6-5T16:8:51Z</time></trkpt>
<trkpt lat="44.91753200" lon="4.78542200"><ele></ele><time>2014-6-5T16:8:54Z</time></trkpt>
<trkpt lat="44.91757200" lon="4.78522000"><ele></ele><time>2014-6-5T16:8:57Z</time></trkpt>
<trkpt lat="44.91761600" lon="4.78476300"><ele></ele><time>2014-6-5T16:9:0Z</time></trkpt>
<trkpt lat="44.91762400" lon="4.78455400"><ele></ele><time>2014-6-5T16:9:3Z</time></trkpt>
<trkpt lat="44.91762800" lon="4.78444900"><ele></ele><time>2014-6-5T16:9:6Z</time></trkpt>
<trkpt lat="44.91764600" lon="4.78425800"><ele></ele><time>2014-6-5T16:9:9Z</time></trkpt>
<trkpt lat="44.91766900" lon="4.78399800"><ele></ele><time>2014-6-5T16:9:12Z</time></trkpt>
<trkpt lat="44.91766900" lon="4.78383200"><ele></ele><time>2014-6-5T16:9:15Z</time></trkpt>
<trkpt lat="44.91766600" lon="4.78380600"><ele></ele><time>2014-6-5T16:9:18Z</time></trkpt>
<trkpt lat="44.91772700" lon="4.78376800"><ele></ele><time>2014-6-5T16:9:21Z</time></trkpt>
<trkpt lat="44.91776700" lon="4.78390200"><ele></ele><time>2014-6-5T16:9:24Z</time></trkpt>
<trkpt lat="44.91787900" lon="4.78422400"><ele></ele><time>2014-6-5T16:9:27Z</time></trkpt>
<trkpt lat="44.91796800" lon="4.78466600"><ele></ele><time>2014-6-5T16:9:30Z</time></trkpt>
<trkpt lat="44.91811500" lon="4.78513700"><ele></ele><time>2014-6-5T16:9:33Z</time></trkpt>
<trkpt lat="44.91815800" lon="4.78574000"><ele></ele><time>2014-6-5T16:9:36Z</time></trkpt>
<trkpt lat="44.91808300" lon="4.78596600"><ele></ele><time>2014-6-5T16:9:39Z</time></trkpt>
<trkpt lat="44.91780900" lon="4.78666400"><ele></ele><time>2014-6-5T16:9:42Z</time></trkpt>
<trkpt lat="44.91759700" lon="4.78694000"><ele></ele><time>2014-6-5T16:9:45Z</time></trkpt>
<trkpt lat="44.91754300" lon="4.78700100"><ele></ele><time>2014-6-5T16:9:48Z</time></trkpt>
<trkpt lat="44.91743700" lon="4.78712600"><ele></ele><time>2014-6-5T16:9:51Z</time></trkpt>
<trkpt lat="44.91720600" lon="4.78727300"><ele></ele><time>2014-6-5T16:9:54Z</time></trkpt>
<trkpt lat="44.91718800" lon="4.78741800"><ele></ele><time>2014-6-5T16:9:57Z</time></trkpt>
<trkpt lat="44.91731200" lon="4.78764700"><ele></ele><time>2014-6-5T16:10:0Z</time></trkpt>
<trkpt lat="44.91733900" lon="4.78775000"><ele></ele><time>2014-6-5T16:10:3Z</time></trkpt>
<trkpt lat="44.91745800" lon="4.78827300"><ele></ele><time>2014-6-5T16:10:6Z</time></trkpt>
<trkpt lat="44.91762900" lon="4.78876000"><ele></ele><time>2014-6-5T16:10:9Z</time></trkpt>
<trkpt lat="44.91771800" lon="4.78909100"><ele></ele><time>2014-6-5T16:10:12Z</time></trkpt>
<trkpt lat="44.91775400" lon="4.78938100"><ele></ele><time>2014-6-5T16:10:15Z</time></trkpt>
<trkpt lat="44.91777800" lon="4.78958200"><ele></ele><time>2014-6-5T16:10:18Z</time></trkpt>
<trkpt lat="44.91778300" lon="4.78993400"><ele></ele><time>2014-6-5T16:10:21Z</time></trkpt>
<trkpt lat="44.91783900" lon="4.79021400"><ele></ele><time>2014-6-5T16:10:24Z</time></trkpt>
<trkpt lat="44.91785800" lon="4.79026900"><ele></ele><time>2014-6-5T16:10:27Z</time></trkpt>
<trkpt lat="44.91791600" lon="4.79050300"><ele></ele><time>2014-6-5T16:10:30Z</time></trkpt>
<trkpt lat="44.91795400" lon="4.79087800"><ele></ele><time>2014-6-5T16:10:33Z</time></trkpt>
<trkpt lat="44.91795100" lon="4.79122100"><ele></ele><time>2014-6-5T16:10:36Z</time></trkpt>
<trkpt lat="44.91800800" lon="4.79146900"><ele></ele><time>2014-6-5T16:10:39Z</time></trkpt>
<trkpt lat="44.91805000" lon="4.79180100"><ele></ele><time>2014-6-5T16:10:42Z</time></trkpt>
<trkpt lat="44.91813000" lon="4.79217700"><ele></ele><time>2014-6-5T16:10:45Z</time></trkpt>
<trkpt lat="44.91818500" lon="4.79240200"><ele></ele><time>2014-6-5T16:10:48Z</time></trkpt>
<trkpt lat="44.91821100" lon="4.79255900"><ele></ele><time>2014-6-5T16:10:51Z</time></trkpt>
<trkpt lat="44.91822300" lon="4.79260800"><ele></ele><time>2014-6-5T16:10:54Z</time></trkpt>
<trkpt lat="44.91835700" lon="4.79299300"><ele></ele><time>2014-6-5T16:10:57Z</time></trkpt>
<trkpt lat="44.91852600" lon="4.79344600"><ele></ele><time>2014-6-5T16:11:0Z</time></trkpt>
<trkpt lat="44.91863000" lon="4.79380000"><ele></ele><time>2014-6-5T16:11:3Z</time></trkpt>
<trkpt lat="44.91871700" lon="4.79399000"><ele></ele><time>2014-6-5T16:11:6Z</time></trkpt>
<trkpt lat="44.91885300" lon="4.79419900"><ele></ele><time>2014-6-5T16:11:9Z</time></trkpt>
<trkpt lat="44.91895400" lon="4.79443300"><ele></ele><time>2014-6-5T16:11:12Z</time></trkpt>
<trkpt lat="44.91899100" lon="4.79457800"><ele></ele><time>2014-6-5T16:11:15Z</time></trkpt>
<trkpt lat="44.91905300" lon="4.79477500"><ele></ele><time>2014-6-5T16:11:18Z</time></trkpt>
<trkpt lat="44.91909400" lon="4.79499100"><ele></ele><time>2014-6-5T16:11:21Z</time></trkpt>
<trkpt lat="44.91911000" lon="4.79519200"><ele></ele><time>2014-6-5T16:11:24Z</time></trkpt>
<trkpt lat="44.91910000" lon="4.79540000"><ele></ele><time>2014-6-5T16:11:27Z</time></trkpt>
<trkpt lat="44.91907400" lon="4.79561200"><ele></ele><time>2014-6-5T16:11:30Z</time></trkpt>
<trkpt lat="44.91904700" lon="4.79576400"><ele></ele><time>2014-6-5T16:11:33Z</time></trkpt>
<trkpt lat="44.91904100" lon="4.79595200"><ele></ele><time>2014-6-5T16:11:36Z</time></trkpt>
<trkpt lat="44.91906600" lon="4.79631300"><ele></ele><time>2014-6-5T16:11:39Z</time></trkpt>
<trkpt lat="44.91905700" lon="4.79672500"><ele></ele><time>2014-6-5T16:11:42Z</time></trkpt>
<trkpt lat="44.91902200" lon="4.79736100"><ele></ele><time>2014-6-5T16:11:45Z</time></trkpt>
<trkpt lat="44.91902700" lon="4.79759200"><ele></ele><time>2014-6-5T16:11:48Z</time></trkpt>
<trkpt lat="44.91902300" lon="4.79776500"><ele></ele><time>2014-6-5T16:11:51Z</time></trkpt>
<trkpt lat="44.91903800" lon="4.79797900"><ele></ele><time>2014-6-5T16:11:54Z</time></trkpt>
<trkpt lat="44.91904900" lon="4.79834700"><ele></ele><time>2014-6-5T16:11:57Z</time></trkpt>
<trkpt lat="44.91906800" lon="4.79865600"><ele></ele><time>2014-6-5T16:12:0Z</time></trkpt>
<trkpt lat="44.91910400" lon="4.79890500"><ele></ele><time>2014-6-5T16:12:3Z</time></trkpt>
<trkpt lat="44.91912100" lon="4.79915400"><ele></ele><time>2014-6-5T16:12:6Z</time></trkpt>
<trkpt lat="44.91910600" lon="4.79931900"><ele></ele><time>2014-6-5T16:12:9Z</time></trkpt>
<trkpt lat="44.91910800" lon="4.79933400"><ele></ele><time>2014-6-5T16:12:12Z</time></trkpt>
<trkpt lat="44.91918000" lon="4.79948700"><ele></ele><time>2014-6-5T16:12:15Z</time></trkpt>
<trkpt lat="44.91922000" lon="4.79960300"><ele></ele><time>2014-6-5T16:12:18Z</time></trkpt>
<trkpt lat="44.91924700" lon="4.79980600"><ele></ele><time>2014-6-5T16:12:21Z</time></trkpt>
<trkpt lat="44.91933300" lon="4.80000400"><ele></ele><time>2014-6-5T16:12:24Z</time></trkpt>
<trkpt lat="44.91936900" lon="4.80005000"><ele></ele><time>2014-6-5T16:12:27Z</time></trkpt>
<trkpt lat="44.91961600" lon="4.80037600"><ele></ele><time>2014-6-5T16:12:30Z</time></trkpt>
<trkpt lat="44.91993300" lon="4.80084100"><ele></ele><time>2014-6-5T16:12:33Z</time></trkpt>
<trkpt lat="44.92018600" lon="4.80133300"><ele></ele><time>2014-6-5T16:12:36Z</time></trkpt>
<trkpt lat="44.92034600" lon="4.80170200"><ele></ele><time>2014-6-5T16:12:39Z</time></trkpt>
<trkpt lat="44.92064700" lon="4.80216900"><ele></ele><time>2014-6-5T16:12:42Z</time></trkpt>
<trkpt lat="44.92077100" lon="4.80251900"><ele></ele><time>2014-6-5T16:12:45Z</time></trkpt>
<trkpt lat="44.92085900" lon="4.80279500"><ele></ele><time>2014-6-5T16:12:48Z</time></trkpt>
<trkpt lat="44.92107800" lon="4.80324300"><ele></ele><time>2014-6-5T16:12:51Z</time></trkpt>
<trkpt lat="44.92120100" lon="4.80351700"><ele></ele><time>2014-6-5T16:12:54Z</time></trkpt>
<trkpt lat="44.92127800" lon="4.80370200"><ele></ele><time>2014-6-5T16:12:57Z</time></trkpt>
<trkpt lat="44.92135200" lon="4.80383300"><ele></ele><time>2014-6-5T16:13:0Z</time></trkpt>
<trkpt lat="44.92143700" lon="4.80406300"><ele></ele><time>2014-6-5T16:13:3Z</time></trkpt>
<trkpt lat="44.92148600" lon="4.80421300"><ele></ele><time>2014-6-5T16:13:6Z</time></trkpt>
<trkpt lat="44.92159200" lon="4.80434900"><ele></ele><time>2014-6-5T16:13:9Z</time></trkpt>
<trkpt lat="44.92167500" lon="4.80445500"><ele></ele><time>2014-6-5T16:13:12Z</time></trkpt>
<trkpt lat="44.92177600" lon="4.80460000"><ele></ele><time>2014-6-5T16:13:15Z</time></trkpt>
<trkpt lat="44.92189800" lon="4.80474500"><ele></ele><time>2014-6-5T16:13:18Z</time></trkpt>
<trkpt lat="44.92198800" lon="4.80483700"><ele></ele><time>2014-6-5T16:13:21Z</time></trkpt>
<trkpt lat="44.92204800" lon="4.80491300"><ele></ele><time>2014-6-5T16:13:24Z</time></trkpt>
<trkpt lat="44.92213800" lon="4.80499500"><ele></ele><time>2014-6-5T16:13:27Z</time></trkpt>
<trkpt lat="44.92227200" lon="4.80509300"><ele></ele><time>2014-6-5T16:13:30Z</time></trkpt>
<trkpt lat="44.92239000" lon="4.80513600"><ele></ele><time>2014-6-5T16:13:33Z</time></trkpt>
<trkpt lat="44.92250200" lon="4.80520700"><ele></ele><time>2014-6-5T16:13:36Z</time></trkpt>
<trkpt lat="44.92263600" lon="4.80526000"><ele></ele><time>2014-6-5T16:13:39Z</time></trkpt>
<trkpt lat="44.92282400" lon="4.80539000"><ele></ele><time>2014-6-5T16:13:42Z</time></trkpt>
<trkpt lat="44.92283600" lon="4.80539800"><ele></ele><time>2014-6-5T16:13:45Z</time></trkpt>
<trkpt lat="44.92284000" lon="4.80539200"><ele></ele><time>2014-6-5T16:13:48Z</time></trkpt>
<trkpt lat="44.92284000" lon="4.80537300"><ele></ele><time>2014-6-5T16:13:51Z</time></trkpt>
<trkpt lat="44.92288300" lon="4.80540600"><ele></ele><time>2014-6-5T16:13:54Z</time></trkpt>
<trkpt lat="44.92300600" lon="4.80554700"><ele></ele><time>2014-6-5T16:13:57Z</time></trkpt>
<trkpt lat="44.92307400" lon="4.80561800"><ele></ele><time>2014-6-5T16:14:0Z</time></trkpt>
<trkpt lat="44.92336100" lon="4.80580200"><ele></ele><time>2014-6-5T16:14:3Z</time></trkpt>
<trkpt lat="44.92343800" lon="4.80584600"><ele></ele><time>2014-6-5T16:14:6Z</time></trkpt>
<trkpt lat="44.92356400" lon="4.80596100"><ele></ele><time>2014-6-5T16:14:9Z</time></trkpt>
<trkpt lat="44.92364300" lon="4.80601700"><ele></ele><time>2014-6-5T16:14:12Z</time></trkpt>
<trkpt lat="44.92377300" lon="4.80608000"><ele></ele><time>2014-6-5T16:14:15Z</time></trkpt>
<trkpt lat="44.92392900" lon="4.80632400"><ele></ele><time>2014-6-5T16:14:18Z</time></trkpt>
<trkpt lat="44.92388700" lon="4.80652300"><ele></ele><time>2014-6-5T16:14:21Z</time></trkpt>
<trkpt lat="44.92384500" lon="4.80670600"><ele></ele><time>2014-6-5T16:14:24Z</time></trkpt>
<trkpt lat="44.92380200" lon="4.80692000"><ele></ele><time>2014-6-5T16:14:27Z</time></trkpt>
<trkpt lat="44.92376800" lon="4.80699300"><ele></ele><time>2014-6-5T16:14:30Z</time></trkpt>
<trkpt lat="44.92377000" lon="4.80698600"><ele></ele><time>2014-6-5T16:14:33Z</time></trkpt>
<trkpt lat="44.92376800" lon="4.80698000"><ele></ele><time>2014-6-5T16:14:36Z</time></trkpt>
<trkpt lat="44.92376700" lon="4.80699000"><ele></ele><time>2014-6-5T16:14:39Z</time></trkpt>
<trkpt lat="44.92374500" lon="4.80699600"><ele></ele><time>2014-6-5T16:14:42Z</time></trkpt>
<trkpt lat="44.92375100" lon="4.80699700"><ele></ele><time>2014-6-5T16:14:45Z</time></trkpt>
<trkpt lat="44.92377900" lon="4.80694000"><ele></ele><time>2014-6-5T16:14:48Z</time></trkpt>
<trkpt lat="44.92379600" lon="4.80690800"><ele></ele><time>2014-6-5T16:14:51Z</time></trkpt>
<trkpt lat="44.92380100" lon="4.80691000"><ele></ele><time>2014-6-5T16:14:54Z</time></trkpt>
<trkpt lat="44.92376700" lon="4.80697000"><ele></ele><time>2014-6-5T16:14:57Z</time></trkpt>
<trkpt lat="44.92372100" lon="4.80707700"><ele></ele><time>2014-6-5T16:15:0Z</time></trkpt>
<trkpt lat="44.92360700" lon="4.80715200"><ele></ele><time>2014-6-5T16:15:3Z</time></trkpt>
<trkpt lat="44.92348900" lon="4.80719900"><ele></ele><time>2014-6-5T16:15:6Z</time></trkpt>
<trkpt lat="44.92342600" lon="4.80722000"><ele></ele><time>2014-6-5T16:15:9Z</time></trkpt>
<trkpt lat="44.92327500" lon="4.80725800"><ele></ele><time>2014-6-5T16:15:12Z</time></trkpt>
<trkpt lat="44.92319400" lon="4.80730400"><ele></ele><time>2014-6-5T16:15:15Z</time></trkpt>
<trkpt lat="44.92310100" lon="4.80733300"><ele></ele><time>2014-6-5T16:15:18Z</time></trkpt>
<trkpt lat="44.92298400" lon="4.80737800"><ele></ele><time>2014-6-5T16:15:21Z</time></trkpt>
<trkpt lat="44.92279400" lon="4.80741900"><ele></ele><time>2014-6-5T16:15:24Z</time></trkpt>
<trkpt lat="44.92266500" lon="4.80746700"><ele></ele><time>2014-6-5T16:15:27Z</time></trkpt>
<trkpt lat="44.92260000" lon="4.80752000"><ele></ele><time>2014-6-5T16:15:30Z</time></trkpt>
<trkpt lat="44.92252100" lon="4.80776600"><ele></ele><time>2014-6-5T16:15:33Z</time></trkpt>
<trkpt lat="44.92250600" lon="4.80810400"><ele></ele><time>2014-6-5T16:15:36Z</time></trkpt>
<trkpt lat="44.92251900" lon="4.80838400"><ele></ele><time>2014-6-5T16:15:39Z</time></trkpt>
<trkpt lat="44.92251000" lon="4.80874700"><ele></ele><time>2014-6-5T16:15:42Z</time></trkpt>
<trkpt lat="44.92253000" lon="4.80896400"><ele></ele><time>2014-6-5T16:15:45Z</time></trkpt>
<trkpt lat="44.92252900" lon="4.80910800"><ele></ele><time>2014-6-5T16:15:48Z</time></trkpt>
<trkpt lat="44.92252500" lon="4.80922700"><ele></ele><time>2014-6-5T16:15:51Z</time></trkpt>
<trkpt lat="44.92249600" lon="4.80962700"><ele></ele><time>2014-6-5T16:15:54Z</time></trkpt>
<trkpt lat="44.92249900" lon="4.80968400"><ele></ele><time>2014-6-5T16:15:57Z</time></trkpt>
<trkpt lat="44.92251100" lon="4.80978600"><ele></ele><time>2014-6-5T16:16:0Z</time></trkpt>
<trkpt lat="44.92252400" lon="4.80983700"><ele></ele><time>2014-6-5T16:16:3Z</time></trkpt>
<trkpt lat="44.92250000" lon="4.81000800"><ele></ele><time>2014-6-5T16:16:6Z</time></trkpt>
<trkpt lat="44.92248100" lon="4.81003400"><ele></ele><time>2014-6-5T16:16:9Z</time></trkpt>
<trkpt lat="44.92246200" lon="4.81016100"><ele></ele><time>2014-6-5T16:16:12Z</time></trkpt>
<trkpt lat="44.92246200" lon="4.81026100"><ele></ele><time>2014-6-5T16:16:15Z</time></trkpt>
<trkpt lat="44.92243300" lon="4.81048000"><ele></ele><time>2014-6-5T16:16:18Z</time></trkpt>
<trkpt lat="44.92241800" lon="4.81070300"><ele></ele><time>2014-6-5T16:16:21Z</time></trkpt>
<trkpt lat="44.92243900" lon="4.81099900"><ele></ele><time>2014-6-5T16:16:24Z</time></trkpt>
<trkpt lat="44.92244500" lon="4.81111700"><ele></ele><time>2014-6-5T16:16:27Z</time></trkpt>
<trkpt lat="44.92243700" lon="4.81116800"><ele></ele><time>2014-6-5T16:16:30Z</time></trkpt>
<trkpt lat="44.92242000" lon="4.81128500"><ele></ele><time>2014-6-5T16:16:33Z</time></trkpt>
<trkpt lat="44.92239900" lon="4.81139700"><ele></ele><time>2014-6-5T16:16:36Z</time></trkpt>
<trkpt lat="44.92242100" lon="4.81147500"><ele></ele><time>2014-6-5T16:16:39Z</time></trkpt>
<trkpt lat="44.92243800" lon="4.81150700"><ele></ele><time>2014-6-5T16:16:42Z</time></trkpt>
<trkpt lat="44.92243600" lon="4.81165500"><ele></ele><time>2014-6-5T16:16:45Z</time></trkpt>
<trkpt lat="44.92239000" lon="4.81181000"><ele></ele><time>2014-6-5T16:16:48Z</time></trkpt>
<trkpt lat="44.92239100" lon="4.81186200"><ele></ele><time>2014-6-5T16:16:51Z</time></trkpt>
<trkpt lat="44.92239300" lon="4.81206300"><ele></ele><time>2014-6-5T16:16:54Z</time></trkpt>
<trkpt lat="44.92228900" lon="4.81222600"><ele></ele><time>2014-6-5T16:16:57Z</time></trkpt>
<trkpt lat="44.92221000" lon="4.81223500"><ele></ele><time>2014-6-5T16:17:0Z</time></trkpt>
<trkpt lat="44.92216900" lon="4.81234800"><ele></ele><time>2014-6-5T16:17:3Z</time></trkpt>
<trkpt lat="44.92215100" lon="4.81236900"><ele></ele><time>2014-6-5T16:17:6Z</time></trkpt>
<trkpt lat="44.92211100" lon="4.81240800"><ele></ele><time>2014-6-5T16:17:9Z</time></trkpt>
<trkpt lat="44.92213100" lon="4.81245300"><ele></ele><time>2014-6-5T16:17:12Z</time></trkpt>
<trkpt lat="44.92213300" lon="4.81245800"><ele></ele><time>2014-6-5T16:17:15Z</time></trkpt>
<trkpt lat="44.92211700" lon="4.81253600"><ele></ele><time>2014-6-5T16:17:18Z</time></trkpt>
<trkpt lat="44.92210100" lon="4.81253200"><ele></ele><time>2014-6-5T16:17:21Z</time></trkpt>
<trkpt lat="44.92207700" lon="4.81252400"><ele></ele><time>2014-6-5T16:17:24Z</time></trkpt>
<trkpt lat="44.92207700" lon="4.81253400"><ele></ele><time>2014-6-5T16:17:27Z</time></trkpt>
<trkpt lat="44.92208200" lon="4.81255400"><ele></ele><time>2014-6-5T16:17:30Z</time></trkpt>
<trkpt lat="44.92211600" lon="4.81260400"><ele></ele><time>2014-6-5T16:17:33Z</time></trkpt>
<trkpt lat="44.92207100" lon="4.81267100"><ele></ele><time>2014-6-5T16:17:36Z</time></trkpt>
<trkpt lat="44.92202900" lon="4.81266900"><ele></ele><time>2014-6-5T16:17:39Z</time></trkpt>
<trkpt lat="44.92198200" lon="4.81269000"><ele></ele><time>2014-6-5T16:17:42Z</time></trkpt>
<trkpt lat="44.92191300" lon="4.81272300"><ele></ele><time>2014-6-5T16:17:45Z</time></trkpt>
<trkpt lat="44.92191100" lon="4.81281000"><ele></ele><time>2014-6-5T16:17:48Z</time></trkpt>
<trkpt lat="44.92191900" lon="4.81282800"><ele></ele><time>2014-6-5T16:17:51Z</time></trkpt>
<trkpt lat="44.92192900" lon="4.81286800"><ele></ele><time>2014-6-5T16:17:54Z</time></trkpt>
<trkpt lat="44.92195500" lon="4.81290400"><ele></ele><time>2014-6-5T16:17:57Z</time></trkpt>
<trkpt lat="44.92195500" lon="4.81291800"><ele></ele><time>2014-6-5T16:18:0Z</time></trkpt>
<trkpt lat="44.92196800" lon="4.81291300"><ele></ele><time>2014-6-5T16:18:3Z</time></trkpt>
<trkpt lat="44.92195600" lon="4.81287800"><ele></ele><time>2014-6-5T16:18:6Z</time></trkpt>
<trkpt lat="44.92192100" lon="4.81289700"><ele></ele><time>2014-6-5T16:18:9Z</time></trkpt>
<trkpt lat="44.92190700" lon="4.81284600"><ele></ele><time>2014-6-5T16:18:12Z</time></trkpt>
<trkpt lat="44.92190600" lon="4.81282500"><ele></ele><time>2014-6-5T16:18:15Z</time></trkpt>
<trkpt lat="44.92193100" lon="4.81288100"><ele></ele><time>2014-6-5T16:18:18Z</time></trkpt>
<trkpt lat="44.92201100" lon="4.81307600"><ele></ele><time>2014-6-5T16:18:21Z</time></trkpt>
<trkpt lat="44.92204800" lon="4.81319900"><ele></ele><time>2014-6-5T16:18:24Z</time></trkpt>
<trkpt lat="44.92209000" lon="4.81358100"><ele></ele><time>2014-6-5T16:18:27Z</time></trkpt>
<trkpt lat="44.92210600" lon="4.81367100"><ele></ele><time>2014-6-5T16:18:30Z</time></trkpt>
<trkpt lat="44.92216300" lon="4.81388000"><ele></ele><time>2014-6-5T16:18:33Z</time></trkpt>
<trkpt lat="44.92218400" lon="4.81408800"><ele></ele><time>2014-6-5T16:18:36Z</time></trkpt>
<trkpt lat="44.92222100" lon="4.81441100"><ele></ele><time>2014-6-5T16:18:39Z</time></trkpt>
<trkpt lat="44.92223300" lon="4.81495100"><ele></ele><time>2014-6-5T16:18:42Z</time></trkpt>
<trkpt lat="44.92234200" lon="4.81509400"><ele></ele><time>2014-6-5T16:18:45Z</time></trkpt>
<trkpt lat="44.92270400" lon="4.81517500"><ele></ele><time>2014-6-5T16:18:48Z</time></trkpt>
<trkpt lat="44.92285100" lon="4.81543900"><ele></ele><time>2014-6-5T16:18:51Z</time></trkpt>
<trkpt lat="44.92289000" lon="4.81557700"><ele></ele><time>2014-6-5T16:18:54Z</time></trkpt>
<trkpt lat="44.92306600" lon="4.81586000"><ele></ele><time>2014-6-5T16:18:57Z</time></trkpt>
<trkpt lat="44.92315200" lon="4.81595700"><ele></ele><time>2014-6-5T16:19:0Z</time></trkpt>
<trkpt lat="44.92328900" lon="4.81607600"><ele></ele><time>2014-6-5T16:19:3Z</time></trkpt>
<trkpt lat="44.92363300" lon="4.81630000"><ele></ele><time>2014-6-5T16:19:6Z</time></trkpt>
<trkpt lat="44.92391900" lon="4.81646000"><ele></ele><time>2014-6-5T16:19:9Z</time></trkpt>
<trkpt lat="44.92407300" lon="4.81672500"><ele></ele><time>2014-6-5T16:19:12Z</time></trkpt>
<trkpt lat="44.92412100" lon="4.81692300"><ele></ele><time>2014-6-5T16:19:15Z</time></trkpt>
<trkpt lat="44.92420400" lon="4.81748900"><ele></ele><time>2014-6-5T16:19:18Z</time></trkpt>
<trkpt lat="44.92423000" lon="4.81770700"><ele></ele><time>2014-6-5T16:19:21Z</time></trkpt>
<trkpt lat="44.92420300" lon="4.81806700"><ele></ele><time>2014-6-5T16:19:24Z</time></trkpt>
<trkpt lat="44.92416700" lon="4.81843400"><ele></ele><time>2014-6-5T16:19:27Z</time></trkpt>
<trkpt lat="44.92417900" lon="4.81892600"><ele></ele><time>2014-6-5T16:19:30Z</time></trkpt>
<trkpt lat="44.92415700" lon="4.81912800"><ele></ele><time>2014-6-5T16:19:33Z</time></trkpt>
<trkpt lat="44.92400100" lon="4.81956600"><ele></ele><time>2014-6-5T16:19:36Z</time></trkpt>
<trkpt lat="44.92399200" lon="4.81993700"><ele></ele><time>2014-6-5T16:19:39Z</time></trkpt>
<trkpt lat="44.92412700" lon="4.82014700"><ele></ele><time>2014-6-5T16:19:42Z</time></trkpt>
<trkpt lat="44.92442900" lon="4.82067100"><ele></ele><time>2014-6-5T16:19:45Z</time></trkpt>
<trkpt lat="44.92460800" lon="4.82134700"><ele></ele><time>2014-6-5T16:19:48Z</time></trkpt>
<trkpt lat="44.92462400" lon="4.82144600"><ele></ele><time>2014-6-5T16:19:51Z</time></trkpt>
<trkpt lat="44.92463000" lon="4.82184200"><ele></ele><time>2014-6-5T16:19:54Z</time></trkpt>
<trkpt lat="44.92448900" lon="4.82280500"><ele></ele><time>2014-6-5T16:19:57Z</time></trkpt>
<trkpt lat="44.92445700" lon="4.82319200"><ele></ele><time>2014-6-5T16:20:0Z</time></trkpt>
<trkpt lat="44.92455000" lon="4.82373600"><ele></ele><time>2014-6-5T16:20:3Z</time></trkpt>
<trkpt lat="44.92485600" lon="4.82445700"><ele></ele><time>2014-6-5T16:20:6Z</time></trkpt>
<trkpt lat="44.92500800" lon="4.82474300"><ele></ele><time>2014-6-5T16:20:9Z</time></trkpt>
<trkpt lat="44.92530500" lon="4.82502300"><ele></ele><time>2014-6-5T16:20:12Z</time></trkpt>
<trkpt lat="44.92566900" lon="4.82537100"><ele></ele><time>2014-6-5T16:20:15Z</time></trkpt>
<trkpt lat="44.92618000" lon="4.82583300"><ele></ele><time>2014-6-5T16:20:18Z</time></trkpt>
<trkpt lat="44.92657300" lon="4.82616900"><ele></ele><time>2014-6-5T16:20:21Z</time></trkpt>
<trkpt lat="44.92696800" lon="4.82655600"><ele></ele><time>2014-6-5T16:20:24Z</time></trkpt>
<trkpt lat="44.92732200" lon="4.82690800"><ele></ele><time>2014-6-5T16:20:27Z</time></trkpt>
<trkpt lat="44.92781800" lon="4.82742800"><ele></ele><time>2014-6-5T16:20:30Z</time></trkpt>
<trkpt lat="44.92818800" lon="4.82786400"><ele></ele><time>2014-6-5T16:20:33Z</time></trkpt>
<trkpt lat="44.92840300" lon="4.82827000"><ele></ele><time>2014-6-5T16:20:36Z</time></trkpt>
<trkpt lat="44.92875100" lon="4.82867000"><ele></ele><time>2014-6-5T16:20:39Z</time></trkpt>
<trkpt lat="44.92898000" lon="4.82890200"><ele></ele><time>2014-6-5T16:20:42Z</time></trkpt>
<trkpt lat="44.92915700" lon="4.82921300"><ele></ele><time>2014-6-5T16:20:45Z</time></trkpt>
<trkpt lat="44.92926700" lon="4.82955800"><ele></ele><time>2014-6-5T16:20:48Z</time></trkpt>
<trkpt lat="44.92937800" lon="4.82968300"><ele></ele><time>2014-6-5T16:20:51Z</time></trkpt>
<trkpt lat="44.92976000" lon="4.83010600"><ele></ele><time>2014-6-5T16:20:54Z</time></trkpt>
<trkpt lat="44.93027800" lon="4.83057200"><ele></ele><time>2014-6-5T16:20:57Z</time></trkpt>
<trkpt lat="44.93072000" lon="4.83101800"><ele></ele><time>2014-6-5T16:21:0Z</time></trkpt>
<trkpt lat="44.93122900" lon="4.83150900"><ele></ele><time>2014-6-5T16:21:3Z</time></trkpt>
<trkpt lat="44.93172600" lon="4.83204000"><ele></ele><time>2014-6-5T16:21:6Z</time></trkpt>
<trkpt lat="44.93216000" lon="4.83249200"><ele></ele><time>2014-6-5T16:21:9Z</time></trkpt>
<trkpt lat="44.93251000" lon="4.83280300"><ele></ele><time>2014-6-5T16:21:12Z</time></trkpt>
<trkpt lat="44.93296500" lon="4.83306600"><ele></ele><time>2014-6-5T16:21:15Z</time></trkpt>
<trkpt lat="44.93342300" lon="4.83320400"><ele></ele><time>2014-6-5T16:21:18Z</time></trkpt>
<trkpt lat="44.93389500" lon="4.83337000"><ele></ele><time>2014-6-5T16:21:21Z</time></trkpt>
<trkpt lat="44.93427600" lon="4.83353900"><ele></ele><time>2014-6-5T16:21:24Z</time></trkpt>
<trkpt lat="44.93459800" lon="4.83373600"><ele></ele><time>2014-6-5T16:21:27Z</time></trkpt>
<trkpt lat="44.93509300" lon="4.83412900"><ele></ele><time>2014-6-5T16:21:30Z</time></trkpt>
<trkpt lat="44.93560100" lon="4.83449900"><ele></ele><time>2014-6-5T16:21:33Z</time></trkpt>
<trkpt lat="44.93606400" lon="4.83475500"><ele></ele><time>2014-6-5T16:21:36Z</time></trkpt>
<trkpt lat="44.93654700" lon="4.83498500"><ele></ele><time>2014-6-5T16:21:39Z</time></trkpt>
<trkpt lat="44.93707800" lon="4.83522800"><ele></ele><time>2014-6-5T16:21:42Z</time></trkpt>
<trkpt lat="44.93721000" lon="4.83528900"><ele></ele><time>2014-6-5T16:21:45Z</time></trkpt>
<trkpt lat="44.93765700" lon="4.83551100"><ele></ele><time>2014-6-5T16:21:48Z</time></trkpt>
<trkpt lat="44.93816400" lon="4.83574000"><ele></ele><time>2014-6-5T16:21:51Z</time></trkpt>
<trkpt lat="44.93822400" lon="4.83577200"><ele></ele><time>2014-6-5T16:21:54Z</time></trkpt>
<trkpt lat="44.93870000" lon="4.83619300"><ele></ele><time>2014-6-5T16:21:57Z</time></trkpt>
<trkpt lat="44.93917600" lon="4.83657700"><ele></ele><time>2014-6-5T16:22:0Z</time></trkpt>
<trkpt lat="44.93952100" lon="4.83682300"><ele></ele><time>2014-6-5T16:22:3Z</time></trkpt>
<trkpt lat="44.93986200" lon="4.83707100"><ele></ele><time>2014-6-5T16:22:6Z</time></trkpt>
<trkpt lat="44.94022100" lon="4.83741800"><ele></ele><time>2014-6-5T16:22:9Z</time></trkpt>
<trkpt lat="44.94038000" lon="4.83759800"><ele></ele><time>2014-6-5T16:22:12Z</time></trkpt>
<trkpt lat="44.94053400" lon="4.83776400"><ele></ele><time>2014-6-5T16:22:15Z</time></trkpt>
<trkpt lat="44.94056700" lon="4.83779900"><ele></ele><time>2014-6-5T16:22:18Z</time></trkpt>
<trkpt lat="44.94063900" lon="4.83803500"><ele></ele><time>2014-6-5T16:22:21Z</time></trkpt>
<trkpt lat="44.94066200" lon="4.83865800"><ele></ele><time>2014-6-5T16:22:24Z</time></trkpt>
<trkpt lat="44.94068200" lon="4.83931100"><ele></ele><time>2014-6-5T16:22:27Z</time></trkpt>
<trkpt lat="44.94070700" lon="4.84031800"><ele></ele><time>2014-6-5T16:22:30Z</time></trkpt>
<trkpt lat="44.94072400" lon="4.84058100"><ele></ele><time>2014-6-5T16:22:33Z</time></trkpt>
<trkpt lat="44.94086000" lon="4.84116800"><ele></ele><time>2014-6-5T16:22:36Z</time></trkpt>
<trkpt lat="44.94108300" lon="4.84160900"><ele></ele><time>2014-6-5T16:22:39Z</time></trkpt>
<trkpt lat="44.94148800" lon="4.84202400"><ele></ele><time>2014-6-5T16:22:42Z</time></trkpt>
<trkpt lat="44.94200000" lon="4.84246900"><ele></ele><time>2014-6-5T16:22:45Z</time></trkpt>
<trkpt lat="44.94270200" lon="4.84311500"><ele></ele><time>2014-6-5T16:22:48Z</time></trkpt>
<trkpt lat="44.94319400" lon="4.84368300"><ele></ele><time>2014-6-5T16:22:51Z</time></trkpt>
<trkpt lat="44.94329500" lon="4.84379800"><ele></ele><time>2014-6-5T16:22:54Z</time></trkpt>
<trkpt lat="44.94342100" lon="4.84398400"><ele></ele><time>2014-6-5T16:22:57Z</time></trkpt>
<trkpt lat="44.94351000" lon="4.84428700"><ele></ele><time>2014-6-5T16:23:0Z</time></trkpt>
<trkpt lat="44.94364500" lon="4.84461300"><ele></ele><time>2014-6-5T16:23:3Z</time></trkpt>
<trkpt lat="44.94374900" lon="4.84471200"><ele></ele><time>2014-6-5T16:23:6Z</time></trkpt>
<trkpt lat="44.94416400" lon="4.84528400"><ele></ele><time>2014-6-5T16:23:9Z</time></trkpt>
<trkpt lat="44.94450500" lon="4.84575400"><ele></ele><time>2014-6-5T16:23:12Z</time></trkpt>
<trkpt lat="44.94487700" lon="4.84636700"><ele></ele><time>2014-6-5T16:23:15Z</time></trkpt>
<trkpt lat="44.94528800" lon="4.84709200"><ele></ele><time>2014-6-5T16:23:18Z</time></trkpt>
<trkpt lat="44.94539300" lon="4.84731200"><ele></ele><time>2014-6-5T16:23:21Z</time></trkpt>
<trkpt lat="44.94556100" lon="4.84755200"><ele></ele><time>2014-6-5T16:23:24Z</time></trkpt>
<trkpt lat="44.94558400" lon="4.84760900"><ele></ele><time>2014-6-5T16:23:27Z</time></trkpt>
<trkpt lat="44.94577600" lon="4.84801100"><ele></ele><time>2014-6-5T16:23:30Z</time></trkpt>
<trkpt lat="44.94582200" lon="4.84819300"><ele></ele><time>2014-6-5T16:23:33Z</time></trkpt>
<trkpt lat="44.94588100" lon="4.84838500"><ele></ele><time>2014-6-5T16:23:36Z</time></trkpt>
<trkpt lat="44.94593800" lon="4.84881700"><ele></ele><time>2014-6-5T16:23:39Z</time></trkpt>
<trkpt lat="44.94606400" lon="4.84934400"><ele></ele><time>2014-6-5T16:23:42Z</time></trkpt>
<trkpt lat="44.94640900" lon="4.85032900"><ele></ele><time>2014-6-5T16:23:45Z</time></trkpt>
<trkpt lat="44.94654300" lon="4.85081200"><ele></ele><time>2014-6-5T16:23:48Z</time></trkpt>
<trkpt lat="44.94653300" lon="4.85131100"><ele></ele><time>2014-6-5T16:23:51Z</time></trkpt>
<trkpt lat="44.94642500" lon="4.85157900"><ele></ele><time>2014-6-5T16:23:54Z</time></trkpt>
<trkpt lat="44.94623300" lon="4.85177900"><ele></ele><time>2014-6-5T16:23:57Z</time></trkpt>
<trkpt lat="44.94571000" lon="4.85214700"><ele></ele><time>2014-6-5T16:24:0Z</time></trkpt>
<trkpt lat="44.94546900" lon="4.85232600"><ele></ele><time>2014-6-5T16:24:3Z</time></trkpt>
<trkpt lat="44.94520900" lon="4.85248400"><ele></ele><time>2014-6-5T16:24:6Z</time></trkpt>
<trkpt lat="44.94521700" lon="4.85265700"><ele></ele><time>2014-6-5T16:24:9Z</time></trkpt>
<trkpt lat="44.94532000" lon="4.85294000"><ele></ele><time>2014-6-5T16:24:12Z</time></trkpt>
<trkpt lat="44.94533400" lon="4.85304500"><ele></ele><time>2014-6-5T16:24:15Z</time></trkpt>
<trkpt lat="44.94541900" lon="4.85400400"><ele></ele><time>2014-6-5T16:24:18Z</time></trkpt>
<trkpt lat="44.94535800" lon="4.85451600"><ele></ele><time>2014-6-5T16:24:21Z</time></trkpt>
<trkpt lat="44.94517300" lon="4.85508100"><ele></ele><time>2014-6-5T16:24:24Z</time></trkpt>
<trkpt lat="44.94485500" lon="4.85579800"><ele></ele><time>2014-6-5T16:24:27Z</time></trkpt>
<trkpt lat="44.94451100" lon="4.85638000"><ele></ele><time>2014-6-5T16:24:30Z</time></trkpt>
<trkpt lat="44.94412000" lon="4.85702000"><ele></ele><time>2014-6-5T16:24:33Z</time></trkpt>
<trkpt lat="44.94386000" lon="4.85740600"><ele></ele><time>2014-6-5T16:24:36Z</time></trkpt>
<trkpt lat="44.94356400" lon="4.85754600"><ele></ele><time>2014-6-5T16:24:39Z</time></trkpt>
<trkpt lat="44.94336300" lon="4.85769900"><ele></ele><time>2014-6-5T16:24:42Z</time></trkpt>
<trkpt lat="44.94329800" lon="4.85800200"><ele></ele><time>2014-6-5T16:24:45Z</time></trkpt>
<trkpt lat="44.94330300" lon="4.85811200"><ele></ele><time>2014-6-5T16:24:48Z</time></trkpt>
<trkpt lat="44.94321600" lon="4.85862000"><ele></ele><time>2014-6-5T16:24:51Z</time></trkpt>
<trkpt lat="44.94279000" lon="4.85937400"><ele></ele><time>2014-6-5T16:24:54Z</time></trkpt>
<trkpt lat="44.94245300" lon="4.85995200"><ele></ele><time>2014-6-5T16:24:57Z</time></trkpt>
<trkpt lat="44.94206500" lon="4.86064100"><ele></ele><time>2014-6-5T16:25:0Z</time></trkpt>
<trkpt lat="44.94174200" lon="4.86119500"><ele></ele><time>2014-6-5T16:25:3Z</time></trkpt>
<trkpt lat="44.94139600" lon="4.86177700"><ele></ele><time>2014-6-5T16:25:6Z</time></trkpt>
<trkpt lat="44.94098800" lon="4.86250900"><ele></ele><time>2014-6-5T16:25:9Z</time></trkpt>
<trkpt lat="44.94067100" lon="4.86311800"><ele></ele><time>2014-6-5T16:25:12Z</time></trkpt>
<trkpt lat="44.94042600" lon="4.86367700"><ele></ele><time>2014-6-5T16:25:15Z</time></trkpt>
<trkpt lat="44.94016900" lon="4.86434600"><ele></ele><time>2014-6-5T16:25:18Z</time></trkpt>
<trkpt lat="44.93996500" lon="4.86479100"><ele></ele><time>2014-6-5T16:25:21Z</time></trkpt>
<trkpt lat="44.93971300" lon="4.86506300"><ele></ele><time>2014-6-5T16:25:24Z</time></trkpt>
<trkpt lat="44.93954100" lon="4.86529700"><ele></ele><time>2014-6-5T16:25:27Z</time></trkpt>
<trkpt lat="44.93951300" lon="4.86564100"><ele></ele><time>2014-6-5T16:25:30Z</time></trkpt>
<trkpt lat="44.93948300" lon="4.86597900"><ele></ele><time>2014-6-5T16:25:33Z</time></trkpt>
<trkpt lat="44.93945300" lon="4.86607200"><ele></ele><time>2014-6-5T16:25:36Z</time></trkpt>
<trkpt lat="44.93913100" lon="4.86681600"><ele></ele><time>2014-6-5T16:25:39Z</time></trkpt>
<trkpt lat="44.93883600" lon="4.86748600"><ele></ele><time>2014-6-5T16:25:42Z</time></trkpt>
<trkpt lat="44.93869700" lon="4.86777500"><ele></ele><time>2014-6-5T16:25:45Z</time></trkpt>
<trkpt lat="44.93856500" lon="4.86800900"><ele></ele><time>2014-6-5T16:25:48Z</time></trkpt>
<trkpt lat="44.93851000" lon="4.86807600"><ele></ele><time>2014-6-5T16:25:51Z</time></trkpt>
<trkpt lat="44.93828100" lon="4.86815700"><ele></ele><time>2014-6-5T16:25:54Z</time></trkpt>
<trkpt lat="44.93815400" lon="4.86836900"><ele></ele><time>2014-6-5T16:25:57Z</time></trkpt>
<trkpt lat="44.93819400" lon="4.86868100"><ele></ele><time>2014-6-5T16:26:0Z</time></trkpt>
<trkpt lat="44.93813200" lon="4.86899100"><ele></ele><time>2014-6-5T16:26:3Z</time></trkpt>
<trkpt lat="44.93808300" lon="4.86909300"><ele></ele><time>2014-6-5T16:26:6Z</time></trkpt>
<trkpt lat="44.93775200" lon="4.86982400"><ele></ele><time>2014-6-5T16:26:9Z</time></trkpt>
<trkpt lat="44.93744600" lon="4.87050000"><ele></ele><time>2014-6-5T16:26:12Z</time></trkpt>
<trkpt lat="44.93717400" lon="4.87113000"><ele></ele><time>2014-6-5T16:26:15Z</time></trkpt>
<trkpt lat="44.93688500" lon="4.87177300"><ele></ele><time>2014-6-5T16:26:18Z</time></trkpt>
<trkpt lat="44.93666200" lon="4.87227500"><ele></ele><time>2014-6-5T16:26:21Z</time></trkpt>
<trkpt lat="44.93640500" lon="4.87283500"><ele></ele><time>2014-6-5T16:26:24Z</time></trkpt>
<trkpt lat="44.93622000" lon="4.87324900"><ele></ele><time>2014-6-5T16:26:27Z</time></trkpt>
<trkpt lat="44.93599000" lon="4.87371400"><ele></ele><time>2014-6-5T16:26:30Z</time></trkpt>
<trkpt lat="44.93596800" lon="4.87376000"><ele></ele><time>2014-6-5T16:26:33Z</time></trkpt>
<trkpt lat="44.93596700" lon="4.87374700"><ele></ele><time>2014-6-5T16:26:36Z</time></trkpt>
<trkpt lat="44.93594900" lon="4.87380800"><ele></ele><time>2014-6-5T16:26:39Z</time></trkpt>
<trkpt lat="44.93586400" lon="4.87399000"><ele></ele><time>2014-6-5T16:26:42Z</time></trkpt>
<trkpt lat="44.93570500" lon="4.87435500"><ele></ele><time>2014-6-5T16:26:45Z</time></trkpt>
<trkpt lat="44.93551900" lon="4.87479100"><ele></ele><time>2014-6-5T16:26:48Z</time></trkpt>
<trkpt lat="44.93530600" lon="4.87536700"><ele></ele><time>2014-6-5T16:26:51Z</time></trkpt>
<trkpt lat="44.93517300" lon="4.87569300"><ele></ele><time>2014-6-5T16:26:54Z</time></trkpt>
<trkpt lat="44.93489200" lon="4.87624200"><ele></ele><time>2014-6-5T16:26:57Z</time></trkpt>
<trkpt lat="44.93442600" lon="4.87712400"><ele></ele><time>2014-6-5T16:27:0Z</time></trkpt>
<trkpt lat="44.93398400" lon="4.87801500"><ele></ele><time>2014-6-5T16:27:3Z</time></trkpt>
<trkpt lat="44.93364300" lon="4.87866700"><ele></ele><time>2014-6-5T16:27:6Z</time></trkpt>
<trkpt lat="44.93331800" lon="4.87928400"><ele></ele><time>2014-6-5T16:27:9Z</time></trkpt>
<trkpt lat="44.93312000" lon="4.87960500"><ele></ele><time>2014-6-5T16:27:12Z</time></trkpt>
<trkpt lat="44.93293600" lon="4.87982200"><ele></ele><time>2014-6-5T16:27:15Z</time></trkpt>
<trkpt lat="44.93275700" lon="4.88025000"><ele></ele><time>2014-6-5T16:27:18Z</time></trkpt>
<trkpt lat="44.93265900" lon="4.88074300"><ele></ele><time>2014-6-5T16:27:21Z</time></trkpt>
<trkpt lat="44.93264400" lon="4.88082700"><ele></ele><time>2014-6-5T16:27:24Z</time></trkpt>
<trkpt lat="44.93245100" lon="4.88147400"><ele></ele><time>2014-6-5T16:27:27Z</time></trkpt>
<trkpt lat="44.93223900" lon="4.88213300"><ele></ele><time>2014-6-5T16:27:30Z</time></trkpt>
<trkpt lat="44.93202800" lon="4.88277700"><ele></ele><time>2014-6-5T16:27:33Z</time></trkpt>
<trkpt lat="44.93182200" lon="4.88341800"><ele></ele><time>2014-6-5T16:27:36Z</time></trkpt>
<trkpt lat="44.93163100" lon="4.88399500"><ele></ele><time>2014-6-5T16:27:39Z</time></trkpt>
<trkpt lat="44.93139600" lon="4.88472800"><ele></ele><time>2014-6-5T16:27:42Z</time></trkpt>
<trkpt lat="44.93122400" lon="4.88525900"><ele></ele><time>2014-6-5T16:27:45Z</time></trkpt>
<trkpt lat="44.93107600" lon="4.88587400"><ele></ele><time>2014-6-5T16:27:48Z</time></trkpt>
<trkpt lat="44.93103100" lon="4.88612600"><ele></ele><time>2014-6-5T16:27:51Z</time></trkpt>
<trkpt lat="44.93095300" lon="4.88629200"><ele></ele><time>2014-6-5T16:27:54Z</time></trkpt>
<trkpt lat="44.93085500" lon="4.88644100"><ele></ele><time>2014-6-5T16:27:57Z</time></trkpt>
<trkpt lat="44.93081300" lon="4.88634900"><ele></ele><time>2014-6-5T16:28:0Z</time></trkpt>
<trkpt lat="44.93075800" lon="4.88635800"><ele></ele><time>2014-6-5T16:28:3Z</time></trkpt>
<trkpt lat="44.93072500" lon="4.88649600"><ele></ele><time>2014-6-5T16:28:6Z</time></trkpt>
<trkpt lat="44.93071600" lon="4.88652200"><ele></ele><time>2014-6-5T16:28:9Z</time></trkpt>
<trkpt lat="44.93066500" lon="4.88670600"><ele></ele><time>2014-6-5T16:28:12Z</time></trkpt>
<trkpt lat="44.93059400" lon="4.88704200"><ele></ele><time>2014-6-5T16:28:15Z</time></trkpt>
<trkpt lat="44.93053800" lon="4.88728800"><ele></ele><time>2014-6-5T16:28:18Z</time></trkpt>
<trkpt lat="44.93038600" lon="4.88736400"><ele></ele><time>2014-6-5T16:28:21Z</time></trkpt>
<trkpt lat="44.93034100" lon="4.88735000"><ele></ele><time>2014-6-5T16:28:24Z</time></trkpt>
<trkpt lat="44.92996600" lon="4.88718700"><ele></ele><time>2014-6-5T16:28:27Z</time></trkpt>
<trkpt lat="44.92967500" lon="4.88707700"><ele></ele><time>2014-6-5T16:28:30Z</time></trkpt>
<trkpt lat="44.92959400" lon="4.88703200"><ele></ele><time>2014-6-5T16:28:33Z</time></trkpt>
<trkpt lat="44.92929200" lon="4.88688200"><ele></ele><time>2014-6-5T16:28:36Z</time></trkpt>
<trkpt lat="44.92917300" lon="4.88683200"><ele></ele><time>2014-6-5T16:28:39Z</time></trkpt>
<trkpt lat="44.92904500" lon="4.88671900"><ele></ele><time>2014-6-5T16:28:42Z</time></trkpt>
<trkpt lat="44.92895000" lon="4.88659200"><ele></ele><time>2014-6-5T16:28:45Z</time></trkpt>
<trkpt lat="44.92878700" lon="4.88636800"><ele></ele><time>2014-6-5T16:28:48Z</time></trkpt>
<trkpt lat="44.92868500" lon="4.88617200"><ele></ele><time>2014-6-5T16:28:51Z</time></trkpt>
<trkpt lat="44.92852400" lon="4.88585300"><ele></ele><time>2014-6-5T16:28:54Z</time></trkpt>
<trkpt lat="44.92846300" lon="4.88580300"><ele></ele><time>2014-6-5T16:28:57Z</time></trkpt>
<trkpt lat="44.92836900" lon="4.88566000"><ele></ele><time>2014-6-5T16:29:0Z</time></trkpt>
<trkpt lat="44.92828300" lon="4.88556700"><ele></ele><time>2014-6-5T16:29:3Z</time></trkpt>
<trkpt lat="44.92820000" lon="4.88564000"><ele></ele><time>2014-6-5T16:29:6Z</time></trkpt>
<trkpt lat="44.92816600" lon="4.88570300"><ele></ele><time>2014-6-5T16:29:9Z</time></trkpt>
<trkpt lat="44.92797300" lon="4.88573600"><ele></ele><time>2014-6-5T16:29:12Z</time></trkpt>
<trkpt lat="44.92783300" lon="4.88564700"><ele></ele><time>2014-6-5T16:29:15Z</time></trkpt>
<trkpt lat="44.92768200" lon="4.88557300"><ele></ele><time>2014-6-5T16:29:18Z</time></trkpt>
<trkpt lat="44.92759100" lon="4.88550000"><ele></ele><time>2014-6-5T16:29:21Z</time></trkpt>
<trkpt lat="44.92736900" lon="4.88530600"><ele></ele><time>2014-6-5T16:29:24Z</time></trkpt>
<trkpt lat="44.92696600" lon="4.88506500"><ele></ele><time>2014-6-5T16:29:27Z</time></trkpt>
<trkpt lat="44.92686200" lon="4.88488100"><ele></ele><time>2014-6-5T16:29:30Z</time></trkpt>
<trkpt lat="44.92688300" lon="4.88481400"><ele></ele><time>2014-6-5T16:29:33Z</time></trkpt>
<trkpt lat="44.92700200" lon="4.88453900"><ele></ele><time>2014-6-5T16:29:36Z</time></trkpt>
<trkpt lat="44.92705900" lon="4.88447700"><ele></ele><time>2014-6-5T16:29:39Z</time></trkpt>
<trkpt lat="44.92704400" lon="4.88460900"><ele></ele><time>2014-6-5T16:29:42Z</time></trkpt>
<trkpt lat="44.92705900" lon="4.88467700"><ele></ele><time>2014-6-5T16:29:45Z</time></trkpt>
<trkpt lat="44.92708500" lon="4.88467900"><ele></ele><time>2014-6-5T16:29:48Z</time></trkpt>
<trkpt lat="44.92706000" lon="4.88470000"><ele></ele><time>2014-6-5T16:29:51Z</time></trkpt>
</trkseg></trk></gpx>